<?xml version="1.0" encoding="UTF-8" standalone="no" ?>
<gpx xmlns="http://www.topografix.com/GPX/1/1" creator="MapSource 6.16.3" version="1.1" xmlns:xsi="http://www.w3.org/2001/XMLSchema-instance" xsi:schemaLocation="http://www.topografix.com/GPX/1/1 http://www.topografix.com/GPX/1/1/gpx.xsd">

  <metadata>
    <link href="http://www.garmin.com">
      <text>Garmin International</text>
    </link>
    <time>2016-09-17T07:41:16Z</time>
    <bounds maxlat="45.86068868637085" maxlon="8.521206378936768" minlat="45.795650482177734" minlon="8.487668037414551"/>
  </metadata>

  <wpt lat="45.808505387976766" lon="8.511054469272494">
    <name>ACQUA / LAVATOIO</name>
    <cmt>Case Sparse Circonvallazione</cmt>
    <desc>Case Sparse Circonvallazione</desc>
    <sym>Drinking Water</sym>
    <extensions>
      <gpxx:WaypointExtension xmlns:gpxx="http://www.garmin.com/xmlschemas/GpxExtensions/v3">
        <gpxx:DisplayMode>SymbolAndName</gpxx:DisplayMode>
      </gpxx:WaypointExtension>
    </extensions>
  </wpt>

  <wpt lat="45.860366653650999" lon="8.510116701945663">
    <name>PARTENZA / ARRIVO</name>
    <sym>Trail Head</sym>
    <extensions>
      <gpxx:WaypointExtension xmlns:gpxx="http://www.garmin.com/xmlschemas/GpxExtensions/v3">
        <gpxx:DisplayMode>SymbolAndName</gpxx:DisplayMode>
      </gpxx:WaypointExtension>
    </extensions>
  </wpt>

  <trk>
    <name>ACTIVE LOG</name>
    <trkseg>
      <trkpt lat="45.860366821289063" lon="8.510112762451172">
        <ele>720.6455078125</ele>
        <time>2006-01-06T09:40:19Z</time>
      </trkpt>
      <trkpt lat="45.860366821289063" lon="8.510112762451172">
        <ele>690.364013671875</ele>
        <time>2006-01-06T09:41:23Z</time>
      </trkpt>
      <trkpt lat="45.860323905944824" lon="8.510048389434815">
        <ele>688.922119140625</ele>
        <time>2006-01-06T09:41:28Z</time>
      </trkpt>
      <trkpt lat="45.860302448272705" lon="8.509962558746338">
        <ele>687.960693359375</ele>
        <time>2006-01-06T09:41:33Z</time>
      </trkpt>
      <trkpt lat="45.86043119430542" lon="8.509705066680908">
        <ele>687.47998046875</ele>
        <time>2006-01-06T09:41:42Z</time>
      </trkpt>
      <trkpt lat="45.860645771026611" lon="8.509340286254883">
        <ele>685.557373046875</ele>
        <time>2006-01-06T09:41:55Z</time>
      </trkpt>
      <trkpt lat="45.86066722869873" lon="8.509211540222168">
        <ele>685.076904296875</ele>
        <time>2006-01-06T09:41:59Z</time>
      </trkpt>
      <trkpt lat="45.860388278961182" lon="8.5089111328125">
        <ele>683.15380859375</ele>
        <time>2006-01-06T09:42:08Z</time>
      </trkpt>
      <trkpt lat="45.860087871551514" lon="8.508632183074951">
        <ele>681.2314453125</ele>
        <time>2006-01-06T09:42:17Z</time>
      </trkpt>
      <trkpt lat="45.859701633453369" lon="8.508267402648926">
        <ele>678.347412109375</ele>
        <time>2006-01-06T09:42:29Z</time>
      </trkpt>
      <trkpt lat="45.859315395355225" lon="8.507881164550781">
        <ele>676.4248046875</ele>
        <time>2006-01-06T09:42:41Z</time>
      </trkpt>
      <trkpt lat="45.858972072601318" lon="8.50740909576416">
        <ele>675.944091796875</ele>
        <time>2006-01-06T09:42:53Z</time>
      </trkpt>
      <trkpt lat="45.858714580535889" lon="8.506829738616943">
        <ele>676.4248046875</ele>
        <time>2006-01-06T09:43:04Z</time>
      </trkpt>
      <trkpt lat="45.858478546142578" lon="8.506186008453369">
        <ele>675.944091796875</ele>
        <time>2006-01-06T09:43:16Z</time>
      </trkpt>
      <trkpt lat="45.85817813873291" lon="8.505306243896484">
        <ele>675.944091796875</ele>
        <time>2006-01-06T09:43:32Z</time>
      </trkpt>
      <trkpt lat="45.857963562011719" lon="8.504190444946289">
        <ele>675.944091796875</ele>
        <time>2006-01-06T09:43:52Z</time>
      </trkpt>
      <trkpt lat="45.858027935028076" lon="8.503718376159668">
        <ele>675.944091796875</ele>
        <time>2006-01-06T09:44:00Z</time>
      </trkpt>
      <trkpt lat="45.858113765716553" lon="8.503353595733643">
        <ele>675.944091796875</ele>
        <time>2006-01-06T09:44:07Z</time>
      </trkpt>
      <trkpt lat="45.858092308044434" lon="8.503117561340332">
        <ele>675.944091796875</ele>
        <time>2006-01-06T09:44:11Z</time>
      </trkpt>
      <trkpt lat="45.857663154602051" lon="8.502237796783447">
        <ele>676.4248046875</ele>
        <time>2006-01-06T09:44:27Z</time>
      </trkpt>
      <trkpt lat="45.857319831848145" lon="8.501572608947754">
        <ele>675.944091796875</ele>
        <time>2006-01-06T09:44:40Z</time>
      </trkpt>
      <trkpt lat="45.856847763061523" lon="8.501100540161133">
        <ele>677.38623046875</ele>
        <time>2006-01-06T09:44:57Z</time>
      </trkpt>
      <trkpt lat="45.856139659881592" lon="8.500370979309082">
        <ele>677.38623046875</ele>
        <time>2006-01-06T09:45:32Z</time>
      </trkpt>
      <trkpt lat="45.856354236602783" lon="8.500006198883057">
        <ele>677.38623046875</ele>
        <time>2006-01-06T09:45:36Z</time>
      </trkpt>
      <trkpt lat="45.856461524963379" lon="8.499555587768555">
        <ele>684.59619140625</ele>
        <time>2006-01-06T09:45:47Z</time>
      </trkpt>
      <trkpt lat="45.856461524963379" lon="8.499469757080078">
        <ele>685.557373046875</ele>
        <time>2006-01-06T09:45:50Z</time>
      </trkpt>
      <trkpt lat="45.856225490570068" lon="8.499276638031006">
        <ele>689.88330078125</ele>
        <time>2006-01-06T09:46:00Z</time>
      </trkpt>
      <trkpt lat="45.855989456176758" lon="8.499040603637695">
        <ele>691.3251953125</ele>
        <time>2006-01-06T09:46:10Z</time>
      </trkpt>
      <trkpt lat="45.855796337127686" lon="8.498783111572266">
        <ele>691.805908203125</ele>
        <time>2006-01-06T09:46:20Z</time>
      </trkpt>
      <trkpt lat="45.855517387390137" lon="8.498482704162598">
        <ele>693.247802734375</ele>
        <time>2006-01-06T09:46:32Z</time>
      </trkpt>
      <trkpt lat="45.85519552230835" lon="8.498096466064453">
        <ele>693.247802734375</ele>
        <time>2006-01-06T09:46:45Z</time>
      </trkpt>
      <trkpt lat="45.854744911193848" lon="8.497581481933594">
        <ele>693.728515625</ele>
        <time>2006-01-06T09:47:03Z</time>
      </trkpt>
      <trkpt lat="45.854079723358154" lon="8.497002124786377">
        <ele>694.209228515625</ele>
        <time>2006-01-06T09:47:27Z</time>
      </trkpt>
      <trkpt lat="45.853736400604248" lon="8.497109413146973">
        <ele>693.728515625</ele>
        <time>2006-01-06T09:47:37Z</time>
      </trkpt>
      <trkpt lat="45.853285789489746" lon="8.497195243835449">
        <ele>693.247802734375</ele>
        <time>2006-01-06T09:47:47Z</time>
      </trkpt>
      <trkpt lat="45.853006839752197" lon="8.497238159179688">
        <ele>692.28662109375</ele>
        <time>2006-01-06T09:47:53Z</time>
      </trkpt>
      <trkpt lat="45.852899551391602" lon="8.496830463409424">
        <ele>691.805908203125</ele>
        <time>2006-01-06T09:48:00Z</time>
      </trkpt>
      <trkpt lat="45.852856636047363" lon="8.496701717376709">
        <ele>691.805908203125</ele>
        <time>2006-01-06T09:48:02Z</time>
      </trkpt>
      <trkpt lat="45.852620601654053" lon="8.496336936950684">
        <ele>691.805908203125</ele>
        <time>2006-01-06T09:48:09Z</time>
      </trkpt>
      <trkpt lat="45.852470397949219" lon="8.496251106262207">
        <ele>691.805908203125</ele>
        <time>2006-01-06T09:48:12Z</time>
      </trkpt>
      <trkpt lat="45.852019786834717" lon="8.49618673324585">
        <ele>691.3251953125</ele>
        <time>2006-01-06T09:48:21Z</time>
      </trkpt>
      <trkpt lat="45.851504802703857" lon="8.496401309967041">
        <ele>689.402587890625</ele>
        <time>2006-01-06T09:48:31Z</time>
      </trkpt>
      <trkpt lat="45.846590995788574" lon="8.498654365539551">
        <ele>689.402587890625</ele>
        <time>2006-01-06T09:50:08Z</time>
      </trkpt>
      <trkpt lat="45.846676826477051" lon="8.498375415802002">
        <ele>690.364013671875</ele>
        <time>2006-01-06T09:50:15Z</time>
      </trkpt>
      <trkpt lat="45.846183300018311" lon="8.498203754425049">
        <ele>690.364013671875</ele>
        <time>2006-01-06T09:50:23Z</time>
      </trkpt>
      <trkpt lat="45.845303535461426" lon="8.498353958129883">
        <ele>689.88330078125</ele>
        <time>2006-01-06T09:50:36Z</time>
      </trkpt>
      <trkpt lat="45.844981670379639" lon="8.498268127441406">
        <ele>689.88330078125</ele>
        <time>2006-01-06T09:50:42Z</time>
      </trkpt>
      <trkpt lat="45.844423770904541" lon="8.4979248046875">
        <ele>689.402587890625</ele>
        <time>2006-01-06T09:50:54Z</time>
      </trkpt>
      <trkpt lat="45.844230651855469" lon="8.497860431671143">
        <ele>689.402587890625</ele>
        <time>2006-01-06T09:50:57Z</time>
      </trkpt>
      <trkpt lat="45.843801498413086" lon="8.497474193572998">
        <ele>686.518798828125</ele>
        <time>2006-01-06T09:51:04Z</time>
      </trkpt>
      <trkpt lat="45.843737125396729" lon="8.49743127822876">
        <ele>685.557373046875</ele>
        <time>2006-01-06T09:51:05Z</time>
      </trkpt>
      <trkpt lat="45.843093395233154" lon="8.497302532196045">
        <ele>682.67333984375</ele>
        <time>2006-01-06T09:51:12Z</time>
      </trkpt>
      <trkpt lat="45.842428207397461" lon="8.49717378616333">
        <ele>675.944091796875</ele>
        <time>2006-01-06T09:51:19Z</time>
      </trkpt>
      <trkpt lat="45.841355323791504" lon="8.497023582458496">
        <ele>670.17626953125</ele>
        <time>2006-01-06T09:51:30Z</time>
      </trkpt>
      <trkpt lat="45.840647220611572" lon="8.497066497802734">
        <ele>670.17626953125</ele>
        <time>2006-01-06T09:51:38Z</time>
      </trkpt>
      <trkpt lat="45.840368270874023" lon="8.497302532196045">
        <ele>669.215087890625</ele>
        <time>2006-01-06T09:51:46Z</time>
      </trkpt>
      <trkpt lat="45.840260982513428" lon="8.497302532196045">
        <ele>669.215087890625</ele>
        <time>2006-01-06T09:51:49Z</time>
      </trkpt>
      <trkpt lat="45.840282440185547" lon="8.497388362884522">
        <ele>667.772705078125</ele>
        <time>2006-01-06T09:51:53Z</time>
      </trkpt>
      <trkpt lat="45.840475559234619" lon="8.497474193572998">
        <ele>666.8115234375</ele>
        <time>2006-01-06T09:51:57Z</time>
      </trkpt>
      <trkpt lat="45.84071159362793" lon="8.497517108917236">
        <ele>664.408203125</ele>
        <time>2006-01-06T09:52:01Z</time>
      </trkpt>
      <trkpt lat="45.840797424316406" lon="8.497796058654785">
        <ele>663.927490234375</ele>
        <time>2006-01-06T09:52:06Z</time>
      </trkpt>
      <trkpt lat="45.840668678283691" lon="8.498225212097168">
        <ele>663.927490234375</ele>
        <time>2006-01-06T09:52:14Z</time>
      </trkpt>
      <trkpt lat="45.840625762939453" lon="8.498568534851074">
        <ele>663.447021484375</ele>
        <time>2006-01-06T09:52:21Z</time>
      </trkpt>
      <trkpt lat="45.840690135955811" lon="8.498868942260742">
        <ele>663.447021484375</ele>
        <time>2006-01-06T09:52:31Z</time>
      </trkpt>
      <trkpt lat="45.840775966644287" lon="8.499212265014648">
        <ele>663.447021484375</ele>
        <time>2006-01-06T09:52:45Z</time>
      </trkpt>
      <trkpt lat="45.840818881988525" lon="8.499555587768555">
        <ele>662.96630859375</ele>
        <time>2006-01-06T09:53:04Z</time>
      </trkpt>
      <trkpt lat="45.840754508972168" lon="8.499577045440674">
        <ele>661.5244140625</ele>
        <time>2006-01-06T09:53:12Z</time>
      </trkpt>
      <trkpt lat="45.840604305267334" lon="8.499448299407959">
        <ele>660.56298828125</ele>
        <time>2006-01-06T09:53:26Z</time>
      </trkpt>
      <trkpt lat="45.840497016906738" lon="8.499405384063721">
        <ele>659.12109375</ele>
        <time>2006-01-06T09:53:36Z</time>
      </trkpt>
      <trkpt lat="45.840368270874023" lon="8.499448299407959">
        <ele>658.159912109375</ele>
        <time>2006-01-06T09:53:47Z</time>
      </trkpt>
      <trkpt lat="45.840260982513428" lon="8.499512672424316">
        <ele>658.640380859375</ele>
        <time>2006-01-06T09:53:57Z</time>
      </trkpt>
      <trkpt lat="45.840132236480713" lon="8.499598503112793">
        <ele>659.12109375</ele>
        <time>2006-01-06T09:54:10Z</time>
      </trkpt>
      <trkpt lat="45.840046405792236" lon="8.499619960784912">
        <ele>660.082275390625</ele>
        <time>2006-01-06T09:54:19Z</time>
      </trkpt>
      <trkpt lat="45.839810371398926" lon="8.499598503112793">
        <ele>661.043701171875</ele>
        <time>2006-01-06T09:54:38Z</time>
      </trkpt>
      <trkpt lat="45.839617252349854" lon="8.499641418457031">
        <ele>662.96630859375</ele>
        <time>2006-01-06T09:54:52Z</time>
      </trkpt>
      <trkpt lat="45.839595794677734" lon="8.499791622161865">
        <ele>662.96630859375</ele>
        <time>2006-01-06T09:55:05Z</time>
      </trkpt>
      <trkpt lat="45.839660167694092" lon="8.499963283538818">
        <ele>662.96630859375</ele>
        <time>2006-01-06T09:55:23Z</time>
      </trkpt>
      <trkpt lat="45.840003490447998" lon="8.500027656555176">
        <ele>662.96630859375</ele>
        <time>2006-01-06T09:55:35Z</time>
      </trkpt>
      <trkpt lat="45.840239524841309" lon="8.499984741210938">
        <ele>663.927490234375</ele>
        <time>2006-01-06T09:55:47Z</time>
      </trkpt>
      <trkpt lat="45.840411186218262" lon="8.499963283538818">
        <ele>664.888916015625</ele>
        <time>2006-01-06T09:55:58Z</time>
      </trkpt>
      <trkpt lat="45.840604305267334" lon="8.500006198883057">
        <ele>669.215087890625</ele>
        <time>2006-01-06T09:56:12Z</time>
      </trkpt>
      <trkpt lat="45.84071159362793" lon="8.500134944915772">
        <ele>671.1376953125</ele>
        <time>2006-01-06T09:56:25Z</time>
      </trkpt>
      <trkpt lat="45.840775966644287" lon="8.500328063964844">
        <ele>671.1376953125</ele>
        <time>2006-01-06T09:56:38Z</time>
      </trkpt>
      <trkpt lat="45.840733051300049" lon="8.500392436981201">
        <ele>672.57958984375</ele>
        <time>2006-01-06T09:56:44Z</time>
      </trkpt>
      <trkpt lat="45.840539932250977" lon="8.500263690948486">
        <ele>675.944091796875</ele>
        <time>2006-01-06T09:57:02Z</time>
      </trkpt>
      <trkpt lat="45.8404541015625" lon="8.500306606292725">
        <ele>676.905517578125</ele>
        <time>2006-01-06T09:57:11Z</time>
      </trkpt>
      <trkpt lat="45.8404541015625" lon="8.50041389465332">
        <ele>677.38623046875</ele>
        <time>2006-01-06T09:57:23Z</time>
      </trkpt>
      <trkpt lat="45.840539932250977" lon="8.500585556030273">
        <ele>677.38623046875</ele>
        <time>2006-01-06T09:57:45Z</time>
      </trkpt>
      <trkpt lat="45.840604305267334" lon="8.500735759735107">
        <ele>677.38623046875</ele>
        <time>2006-01-06T09:58:02Z</time>
      </trkpt>
      <trkpt lat="45.840668678283691" lon="8.500950336456299">
        <ele>677.38623046875</ele>
        <time>2006-01-06T09:58:22Z</time>
      </trkpt>
      <trkpt lat="45.841720104217529" lon="8.504276275634766">
        <ele>677.38623046875</ele>
        <time>2006-01-06T10:04:05Z</time>
      </trkpt>
      <trkpt lat="45.840861797332764" lon="8.503632545471191">
        <ele>761.50146484375</ele>
        <time>2006-01-06T10:04:22Z</time>
      </trkpt>
      <trkpt lat="45.840840339660645" lon="8.503525257110596">
        <ele>760.5400390625</ele>
        <time>2006-01-06T10:05:33Z</time>
      </trkpt>
      <trkpt lat="45.840733051300049" lon="8.503310680389404">
        <ele>761.020751953125</ele>
        <time>2006-01-06T10:05:51Z</time>
      </trkpt>
      <trkpt lat="45.840733051300049" lon="8.503289222717285">
        <ele>761.020751953125</ele>
        <time>2006-01-06T10:05:52Z</time>
      </trkpt>
      <trkpt lat="45.840497016906738" lon="8.502817153930664">
        <ele>761.020751953125</ele>
        <time>2006-01-06T10:06:18Z</time>
      </trkpt>
      <trkpt lat="45.84019660949707" lon="8.502259254455566">
        <ele>761.020751953125</ele>
        <time>2006-01-06T10:06:40Z</time>
      </trkpt>
      <trkpt lat="45.840046405792236" lon="8.502023220062256">
        <ele>759.09814453125</ele>
        <time>2006-01-06T10:06:53Z</time>
      </trkpt>
      <trkpt lat="45.839810371398926" lon="8.501958847045898">
        <ele>757.65625</ele>
        <time>2006-01-06T10:06:57Z</time>
      </trkpt>
      <trkpt lat="45.839295387268066" lon="8.501744270324707">
        <ele>756.214111328125</ele>
        <time>2006-01-06T10:07:07Z</time>
      </trkpt>
      <trkpt lat="45.838973522186279" lon="8.501615524291992">
        <ele>756.214111328125</ele>
        <time>2006-01-06T10:07:15Z</time>
      </trkpt>
      <trkpt lat="45.83871603012085" lon="8.501486778259277">
        <ele>755.733642578125</ele>
        <time>2006-01-06T10:07:25Z</time>
      </trkpt>
      <trkpt lat="45.838501453399658" lon="8.501400947570801">
        <ele>755.733642578125</ele>
        <time>2006-01-06T10:07:37Z</time>
      </trkpt>
      <trkpt lat="45.838308334350586" lon="8.501508235931397">
        <ele>755.733642578125</ele>
        <time>2006-01-06T10:07:51Z</time>
      </trkpt>
      <trkpt lat="45.838050842285156" lon="8.501594066619873">
        <ele>755.733642578125</ele>
        <time>2006-01-06T10:08:06Z</time>
      </trkpt>
      <trkpt lat="45.837728977203369" lon="8.501722812652588">
        <ele>755.2529296875</ele>
        <time>2006-01-06T10:08:30Z</time>
      </trkpt>
      <trkpt lat="45.837643146514893" lon="8.501873016357422">
        <ele>755.2529296875</ele>
        <time>2006-01-06T10:08:47Z</time>
      </trkpt>
      <trkpt lat="45.837686061859131" lon="8.502044677734375">
        <ele>755.733642578125</ele>
        <time>2006-01-06T10:09:15Z</time>
      </trkpt>
      <trkpt lat="45.837643146514893" lon="8.502087593078613">
        <ele>755.733642578125</ele>
        <time>2006-01-06T10:09:38Z</time>
      </trkpt>
      <trkpt lat="45.83745002746582" lon="8.502130508422852">
        <ele>756.69482421875</ele>
        <time>2006-01-06T10:10:16Z</time>
      </trkpt>
      <trkpt lat="45.837342739105225" lon="8.502087593078613">
        <ele>755.2529296875</ele>
        <time>2006-01-06T10:10:44Z</time>
      </trkpt>
      <trkpt lat="45.837235450744629" lon="8.501980304718018">
        <ele>755.2529296875</ele>
        <time>2006-01-06T10:11:01Z</time>
      </trkpt>
      <trkpt lat="45.837128162384033" lon="8.501958847045898">
        <ele>756.69482421875</ele>
        <time>2006-01-06T10:11:15Z</time>
      </trkpt>
      <trkpt lat="45.836999416351318" lon="8.501894474029541">
        <ele>756.69482421875</ele>
        <time>2006-01-06T10:11:33Z</time>
      </trkpt>
      <trkpt lat="45.836935043334961" lon="8.50191593170166">
        <ele>757.65625</ele>
        <time>2006-01-06T10:11:49Z</time>
      </trkpt>
      <trkpt lat="45.836892127990723" lon="8.502066135406494">
        <ele>759.578857421875</ele>
        <time>2006-01-06T10:12:05Z</time>
      </trkpt>
      <trkpt lat="45.836870670318604" lon="8.502216339111328">
        <ele>760.5400390625</ele>
        <time>2006-01-06T10:12:20Z</time>
      </trkpt>
      <trkpt lat="45.836827754974365" lon="8.502366542816162">
        <ele>761.50146484375</ele>
        <time>2006-01-06T10:12:34Z</time>
      </trkpt>
      <trkpt lat="45.836784839630127" lon="8.502473831176758">
        <ele>764.385498046875</ele>
        <time>2006-01-06T10:12:46Z</time>
      </trkpt>
      <trkpt lat="45.836784839630127" lon="8.502516746520996">
        <ele>769.192138671875</ele>
        <time>2006-01-06T10:13:18Z</time>
      </trkpt>
      <trkpt lat="45.836634635925293" lon="8.502752780914307">
        <ele>771.11474609375</ele>
        <time>2006-01-06T10:13:34Z</time>
      </trkpt>
      <trkpt lat="45.836527347564697" lon="8.50292444229126">
        <ele>773.99853515625</ele>
        <time>2006-01-06T10:13:48Z</time>
      </trkpt>
      <trkpt lat="45.836398601531982" lon="8.503010272979736">
        <ele>774.479248046875</ele>
        <time>2006-01-06T10:14:03Z</time>
      </trkpt>
      <trkpt lat="45.836184024810791" lon="8.503053188323975">
        <ele>777.84375</ele>
        <time>2006-01-06T10:14:20Z</time>
      </trkpt>
      <trkpt lat="45.83594799041748" lon="8.503053188323975">
        <ele>777.84375</ele>
        <time>2006-01-06T10:14:39Z</time>
      </trkpt>
      <trkpt lat="45.83571195602417" lon="8.503074645996094">
        <ele>778.80517578125</ele>
        <time>2006-01-06T10:14:53Z</time>
      </trkpt>
      <trkpt lat="45.835304260253906" lon="8.503074645996094">
        <ele>780.247314453125</ele>
        <time>2006-01-06T10:15:09Z</time>
      </trkpt>
      <trkpt lat="45.834681987762451" lon="8.502988815307617">
        <ele>780.247314453125</ele>
        <time>2006-01-06T10:15:31Z</time>
      </trkpt>
      <trkpt lat="45.834403038024902" lon="8.502902984619141">
        <ele>780.247314453125</ele>
        <time>2006-01-06T10:15:42Z</time>
      </trkpt>
      <trkpt lat="45.834231376647949" lon="8.502881526947022">
        <ele>780.247314453125</ele>
        <time>2006-01-06T10:15:52Z</time>
      </trkpt>
      <trkpt lat="45.834145545959473" lon="8.502860069274902">
        <ele>783.131103515625</ele>
        <time>2006-01-06T10:16:01Z</time>
      </trkpt>
      <trkpt lat="45.833909511566162" lon="8.502817153930664">
        <ele>797.551025390625</ele>
        <time>2006-01-06T10:17:01Z</time>
      </trkpt>
      <trkpt lat="45.833780765533447" lon="8.502945899963379">
        <ele>795.1474609375</ele>
        <time>2006-01-06T10:17:18Z</time>
      </trkpt>
      <trkpt lat="45.833652019500732" lon="8.503053188323975">
        <ele>793.224853515625</ele>
        <time>2006-01-06T10:17:33Z</time>
      </trkpt>
      <trkpt lat="45.833523273468018" lon="8.503139019012451">
        <ele>793.224853515625</ele>
        <time>2006-01-06T10:17:49Z</time>
      </trkpt>
      <trkpt lat="45.83345890045166" lon="8.503203392028809">
        <ele>793.70556640625</ele>
        <time>2006-01-06T10:18:01Z</time>
      </trkpt>
      <trkpt lat="45.833394527435303" lon="8.503267765045166">
        <ele>793.224853515625</ele>
        <time>2006-01-06T10:18:12Z</time>
      </trkpt>
      <trkpt lat="45.833330154418945" lon="8.503332138061523">
        <ele>793.224853515625</ele>
        <time>2006-01-06T10:18:25Z</time>
      </trkpt>
      <trkpt lat="45.833265781402588" lon="8.503396511077881">
        <ele>793.224853515625</ele>
        <time>2006-01-06T10:18:38Z</time>
      </trkpt>
      <trkpt lat="45.833179950714111" lon="8.50341796875">
        <ele>794.186279296875</ele>
        <time>2006-01-06T10:18:51Z</time>
      </trkpt>
      <trkpt lat="45.833115577697754" lon="8.503439426422119">
        <ele>795.628173828125</ele>
        <time>2006-01-06T10:19:06Z</time>
      </trkpt>
      <trkpt lat="45.833029747009277" lon="8.503460884094238">
        <ele>796.58984375</ele>
        <time>2006-01-06T10:19:18Z</time>
      </trkpt>
      <trkpt lat="45.83296537399292" lon="8.503503799438477">
        <ele>797.551025390625</ele>
        <time>2006-01-06T10:19:30Z</time>
      </trkpt>
      <trkpt lat="45.832943916320801" lon="8.503546714782715">
        <ele>798.03173828125</ele>
        <time>2006-01-06T10:19:41Z</time>
      </trkpt>
      <trkpt lat="45.832922458648682" lon="8.503632545471191">
        <ele>794.666748046875</ele>
        <time>2006-01-06T10:19:53Z</time>
      </trkpt>
      <trkpt lat="45.832858085632324" lon="8.50367546081543">
        <ele>796.58984375</ele>
        <time>2006-01-06T10:20:02Z</time>
      </trkpt>
      <trkpt lat="45.832836627960205" lon="8.503761291503906">
        <ele>797.0703125</ele>
        <time>2006-01-06T10:20:13Z</time>
      </trkpt>
      <trkpt lat="45.832729339599609" lon="8.503847122192383">
        <ele>800.91552734375</ele>
        <time>2006-01-06T10:20:29Z</time>
      </trkpt>
      <trkpt lat="45.832643508911133" lon="8.503932952880859">
        <ele>801.876953125</ele>
        <time>2006-01-06T10:20:43Z</time>
      </trkpt>
      <trkpt lat="45.832622051239014" lon="8.503954410552979">
        <ele>801.876953125</ele>
        <time>2006-01-06T10:20:50Z</time>
      </trkpt>
      <trkpt lat="45.832514762878418" lon="8.503975868225098">
        <ele>801.396240234375</ele>
        <time>2006-01-06T10:21:06Z</time>
      </trkpt>
      <trkpt lat="45.832407474517822" lon="8.504018783569336">
        <ele>804.2802734375</ele>
        <time>2006-01-06T10:21:24Z</time>
      </trkpt>
      <trkpt lat="45.832343101501465" lon="8.504083156585693">
        <ele>804.7607421875</ele>
        <time>2006-01-06T10:21:40Z</time>
      </trkpt>
      <trkpt lat="45.832343101501465" lon="8.50416898727417">
        <ele>803.799560546875</ele>
        <time>2006-01-06T10:21:51Z</time>
      </trkpt>
      <trkpt lat="45.832278728485107" lon="8.504233360290527">
        <ele>804.7607421875</ele>
        <time>2006-01-06T10:22:03Z</time>
      </trkpt>
      <trkpt lat="45.832171440124512" lon="8.504405021667481">
        <ele>804.7607421875</ele>
        <time>2006-01-06T10:22:26Z</time>
      </trkpt>
      <trkpt lat="45.832085609436035" lon="8.504512310028076">
        <ele>804.7607421875</ele>
        <time>2006-01-06T10:22:42Z</time>
      </trkpt>
      <trkpt lat="45.831999778747559" lon="8.504619598388672">
        <ele>805.72216796875</ele>
        <time>2006-01-06T10:22:58Z</time>
      </trkpt>
      <trkpt lat="45.831892490386963" lon="8.504726886749268">
        <ele>805.72216796875</ele>
        <time>2006-01-06T10:23:15Z</time>
      </trkpt>
      <trkpt lat="45.831785202026367" lon="8.504812717437744">
        <ele>807.644775390625</ele>
        <time>2006-01-06T10:23:31Z</time>
      </trkpt>
      <trkpt lat="45.831677913665771" lon="8.504855632781982">
        <ele>807.644775390625</ele>
        <time>2006-01-06T10:23:49Z</time>
      </trkpt>
      <trkpt lat="45.831549167633057" lon="8.504877090454102">
        <ele>808.60595703125</ele>
        <time>2006-01-06T10:24:11Z</time>
      </trkpt>
      <trkpt lat="45.831377506256104" lon="8.504812717437744">
        <ele>812.451416015625</ele>
        <time>2006-01-06T10:24:30Z</time>
      </trkpt>
      <trkpt lat="45.831270217895508" lon="8.504769802093506">
        <ele>813.893310546875</ele>
        <time>2006-01-06T10:24:45Z</time>
      </trkpt>
      <trkpt lat="45.831055641174316" lon="8.504748344421387">
        <ele>814.854736328125</ele>
        <time>2006-01-06T10:25:14Z</time>
      </trkpt>
      <trkpt lat="45.83096981048584" lon="8.504748344421387">
        <ele>816.296630859375</ele>
        <time>2006-01-06T10:25:23Z</time>
      </trkpt>
      <trkpt lat="45.830883979797363" lon="8.504683971405029">
        <ele>820.141845703125</ele>
        <time>2006-01-06T10:25:31Z</time>
      </trkpt>
      <trkpt lat="45.830819606781006" lon="8.504683971405029">
        <ele>822.545166015625</ele>
        <time>2006-01-06T10:25:39Z</time>
      </trkpt>
      <trkpt lat="45.830733776092529" lon="8.50466251373291">
        <ele>823.987060546875</ele>
        <time>2006-01-06T10:25:50Z</time>
      </trkpt>
      <trkpt lat="45.830647945404053" lon="8.50466251373291">
        <ele>826.87109375</ele>
        <time>2006-01-06T10:26:02Z</time>
      </trkpt>
      <trkpt lat="45.830519199371338" lon="8.504641056060791">
        <ele>828.313232421875</ele>
        <time>2006-01-06T10:26:19Z</time>
      </trkpt>
      <trkpt lat="45.830433368682861" lon="8.504641056060791">
        <ele>829.2744140625</ele>
        <time>2006-01-06T10:26:30Z</time>
      </trkpt>
      <trkpt lat="45.830347537994385" lon="8.504641056060791">
        <ele>834.0810546875</ele>
        <time>2006-01-06T10:26:44Z</time>
      </trkpt>
      <trkpt lat="45.830240249633789" lon="8.504641056060791">
        <ele>835.52294921875</ele>
        <time>2006-01-06T10:26:57Z</time>
      </trkpt>
      <trkpt lat="45.830132961273193" lon="8.504641056060791">
        <ele>838.406982421875</ele>
        <time>2006-01-06T10:27:10Z</time>
      </trkpt>
      <trkpt lat="45.830047130584717" lon="8.50466251373291">
        <ele>839.3681640625</ele>
        <time>2006-01-06T10:27:21Z</time>
      </trkpt>
      <trkpt lat="45.82996129989624" lon="8.504683971405029">
        <ele>841.771484375</ele>
        <time>2006-01-06T10:27:32Z</time>
      </trkpt>
      <trkpt lat="45.829854011535645" lon="8.504705429077148">
        <ele>843.21337890625</ele>
        <time>2006-01-06T10:27:46Z</time>
      </trkpt>
      <trkpt lat="45.829789638519287" lon="8.504726886749268">
        <ele>843.694091796875</ele>
        <time>2006-01-06T10:27:57Z</time>
      </trkpt>
      <trkpt lat="45.82972526550293" lon="8.504726886749268">
        <ele>843.21337890625</ele>
        <time>2006-01-06T10:28:05Z</time>
      </trkpt>
      <trkpt lat="45.829639434814453" lon="8.504705429077148">
        <ele>844.175048828125</ele>
        <time>2006-01-06T10:28:15Z</time>
      </trkpt>
      <trkpt lat="45.829553604125977" lon="8.504726886749268">
        <ele>844.175048828125</ele>
        <time>2006-01-06T10:28:24Z</time>
      </trkpt>
      <trkpt lat="45.829553604125977" lon="8.504726886749268">
        <ele>843.21337890625</ele>
        <time>2006-01-06T10:28:31Z</time>
      </trkpt>
      <trkpt lat="45.829553604125977" lon="8.504726886749268">
        <ele>843.694091796875</ele>
        <time>2006-01-06T10:28:50Z</time>
      </trkpt>
      <trkpt lat="45.829489231109619" lon="8.504726886749268">
        <ele>847.53955078125</ele>
        <time>2006-01-06T10:29:54Z</time>
      </trkpt>
      <trkpt lat="45.829381942749023" lon="8.504705429077148">
        <ele>848.9814453125</ele>
        <time>2006-01-06T10:30:03Z</time>
      </trkpt>
      <trkpt lat="45.829253196716309" lon="8.504641056060791">
        <ele>848.9814453125</ele>
        <time>2006-01-06T10:30:17Z</time>
      </trkpt>
      <trkpt lat="45.829124450683594" lon="8.504533767700195">
        <ele>848.9814453125</ele>
        <time>2006-01-06T10:30:31Z</time>
      </trkpt>
      <trkpt lat="45.828995704650879" lon="8.504447937011719">
        <ele>848.9814453125</ele>
        <time>2006-01-06T10:30:42Z</time>
      </trkpt>
      <trkpt lat="45.828931331634521" lon="8.504383563995361">
        <ele>847.53955078125</ele>
        <time>2006-01-06T10:30:51Z</time>
      </trkpt>
      <trkpt lat="45.828845500946045" lon="8.504319190979004">
        <ele>846.09765625</ele>
        <time>2006-01-06T10:31:03Z</time>
      </trkpt>
      <trkpt lat="45.828738212585449" lon="8.504254817962647">
        <ele>846.09765625</ele>
        <time>2006-01-06T10:31:15Z</time>
      </trkpt>
      <trkpt lat="45.828630924224854" lon="8.504190444946289">
        <ele>846.578369140625</ele>
        <time>2006-01-06T10:31:28Z</time>
      </trkpt>
      <trkpt lat="45.828545093536377" lon="8.504126071929932">
        <ele>846.09765625</ele>
        <time>2006-01-06T10:31:38Z</time>
      </trkpt>
      <trkpt lat="45.828437805175781" lon="8.504083156585693">
        <ele>845.13623046875</ele>
        <time>2006-01-06T10:31:49Z</time>
      </trkpt>
      <trkpt lat="45.828309059143066" lon="8.504061698913574">
        <ele>844.655517578125</ele>
        <time>2006-01-06T10:32:02Z</time>
      </trkpt>
      <trkpt lat="45.828201770782471" lon="8.504061698913574">
        <ele>844.175048828125</ele>
        <time>2006-01-06T10:32:12Z</time>
      </trkpt>
      <trkpt lat="45.828115940093994" lon="8.504018783569336">
        <ele>844.175048828125</ele>
        <time>2006-01-06T10:32:23Z</time>
      </trkpt>
      <trkpt lat="45.828008651733398" lon="8.50391149520874">
        <ele>845.13623046875</ele>
        <time>2006-01-06T10:32:35Z</time>
      </trkpt>
      <trkpt lat="45.82796573638916" lon="8.503825664520264">
        <ele>845.13623046875</ele>
        <time>2006-01-06T10:32:44Z</time>
      </trkpt>
      <trkpt lat="45.827944278717041" lon="8.503825664520264">
        <ele>843.694091796875</ele>
        <time>2006-01-06T10:32:52Z</time>
      </trkpt>
      <trkpt lat="45.827901363372803" lon="8.503739833831787">
        <ele>844.175048828125</ele>
        <time>2006-01-06T10:33:04Z</time>
      </trkpt>
      <trkpt lat="45.827836990356445" lon="8.503611087799072">
        <ele>845.616943359375</ele>
        <time>2006-01-06T10:33:16Z</time>
      </trkpt>
      <trkpt lat="45.827751159667969" lon="8.503503799438477">
        <ele>846.09765625</ele>
        <time>2006-01-06T10:33:27Z</time>
      </trkpt>
      <trkpt lat="45.827643871307373" lon="8.503396511077881">
        <ele>847.53955078125</ele>
        <time>2006-01-06T10:33:39Z</time>
      </trkpt>
      <trkpt lat="45.827579498291016" lon="8.503353595733643">
        <ele>848.9814453125</ele>
        <time>2006-01-06T10:33:48Z</time>
      </trkpt>
      <trkpt lat="45.827536582946777" lon="8.503267765045166">
        <ele>849.94287109375</ele>
        <time>2006-01-06T10:33:57Z</time>
      </trkpt>
      <trkpt lat="45.82747220993042" lon="8.50318193435669">
        <ele>849.94287109375</ele>
        <time>2006-01-06T10:34:06Z</time>
      </trkpt>
      <trkpt lat="45.827407836914063" lon="8.503096103668213">
        <ele>849.462158203125</ele>
        <time>2006-01-06T10:34:16Z</time>
      </trkpt>
      <trkpt lat="45.827300548553467" lon="8.503010272979736">
        <ele>848.020263671875</ele>
        <time>2006-01-06T10:34:28Z</time>
      </trkpt>
      <trkpt lat="45.827236175537109" lon="8.50292444229126">
        <ele>848.020263671875</ele>
        <time>2006-01-06T10:34:37Z</time>
      </trkpt>
      <trkpt lat="45.827171802520752" lon="8.502860069274902">
        <ele>848.9814453125</ele>
        <time>2006-01-06T10:34:46Z</time>
      </trkpt>
      <trkpt lat="45.827107429504395" lon="8.502795696258545">
        <ele>848.9814453125</ele>
        <time>2006-01-06T10:43:58Z</time>
      </trkpt>
      <trkpt lat="45.827064514160156" lon="8.502817153930664">
        <ele>848.9814453125</ele>
        <time>2006-01-06T10:44:07Z</time>
      </trkpt>
      <trkpt lat="45.827000141143799" lon="8.502774238586426">
        <ele>848.500732421875</ele>
        <time>2006-01-06T10:44:16Z</time>
      </trkpt>
      <trkpt lat="45.826957225799561" lon="8.502731323242188">
        <ele>848.500732421875</ele>
        <time>2006-01-06T10:44:24Z</time>
      </trkpt>
      <trkpt lat="45.826849937438965" lon="8.502688407897949">
        <ele>848.020263671875</ele>
        <time>2006-01-06T10:44:35Z</time>
      </trkpt>
      <trkpt lat="45.826785564422607" lon="8.502688407897949">
        <ele>847.53955078125</ele>
        <time>2006-01-06T10:44:44Z</time>
      </trkpt>
      <trkpt lat="45.826699733734131" lon="8.502688407897949">
        <ele>846.578369140625</ele>
        <time>2006-01-06T10:44:53Z</time>
      </trkpt>
      <trkpt lat="45.826592445373535" lon="8.502709865570068">
        <ele>845.616943359375</ele>
        <time>2006-01-06T10:45:03Z</time>
      </trkpt>
      <trkpt lat="45.826485157012939" lon="8.502752780914307">
        <ele>846.09765625</ele>
        <time>2006-01-06T10:45:14Z</time>
      </trkpt>
      <trkpt lat="45.826356410980225" lon="8.502817153930664">
        <ele>846.09765625</ele>
        <time>2006-01-06T10:45:27Z</time>
      </trkpt>
      <trkpt lat="45.826313495635986" lon="8.502945899963379">
        <ele>847.058837890625</ele>
        <time>2006-01-06T10:45:37Z</time>
      </trkpt>
      <trkpt lat="45.826249122619629" lon="8.503117561340332">
        <ele>847.53955078125</ele>
        <time>2006-01-06T10:45:48Z</time>
      </trkpt>
      <trkpt lat="45.826184749603271" lon="8.503310680389404">
        <ele>851.384765625</ele>
        <time>2006-01-06T10:45:59Z</time>
      </trkpt>
      <trkpt lat="45.826141834259033" lon="8.503482341766357">
        <ele>849.462158203125</ele>
        <time>2006-01-06T10:46:10Z</time>
      </trkpt>
      <trkpt lat="45.826034545898438" lon="8.503568172454834">
        <ele>847.058837890625</ele>
        <time>2006-01-06T10:46:22Z</time>
      </trkpt>
      <trkpt lat="45.825927257537842" lon="8.503568172454834">
        <ele>845.616943359375</ele>
        <time>2006-01-06T10:46:33Z</time>
      </trkpt>
      <trkpt lat="45.825798511505127" lon="8.503568172454834">
        <ele>845.616943359375</ele>
        <time>2006-01-06T10:46:45Z</time>
      </trkpt>
      <trkpt lat="45.825691223144531" lon="8.503568172454834">
        <ele>845.616943359375</ele>
        <time>2006-01-06T10:46:57Z</time>
      </trkpt>
      <trkpt lat="45.825605392456055" lon="8.503611087799072">
        <ele>845.616943359375</ele>
        <time>2006-01-06T10:47:07Z</time>
      </trkpt>
      <trkpt lat="45.825541019439697" lon="8.503696918487549">
        <ele>845.13623046875</ele>
        <time>2006-01-06T10:47:15Z</time>
      </trkpt>
      <trkpt lat="45.82547664642334" lon="8.503868579864502">
        <ele>844.655517578125</ele>
        <time>2006-01-06T10:47:27Z</time>
      </trkpt>
      <trkpt lat="45.825347900390625" lon="8.503997325897217">
        <ele>846.09765625</ele>
        <time>2006-01-06T10:47:37Z</time>
      </trkpt>
      <trkpt lat="45.825262069702148" lon="8.504147529602051">
        <ele>846.09765625</ele>
        <time>2006-01-06T10:47:43Z</time>
      </trkpt>
      <trkpt lat="45.825262069702148" lon="8.504147529602051">
        <ele>846.09765625</ele>
        <time>2006-01-06T10:47:45Z</time>
      </trkpt>
      <trkpt lat="45.825176239013672" lon="8.504276275634766">
        <ele>844.655517578125</ele>
        <time>2006-01-06T10:47:54Z</time>
      </trkpt>
      <trkpt lat="45.825111865997314" lon="8.504469394683838">
        <ele>844.655517578125</ele>
        <time>2006-01-06T10:48:06Z</time>
      </trkpt>
      <trkpt lat="45.825068950653076" lon="8.504641056060791">
        <ele>844.175048828125</ele>
        <time>2006-01-06T10:48:16Z</time>
      </trkpt>
      <trkpt lat="45.8249831199646" lon="8.504791259765625">
        <ele>842.73291015625</ele>
        <time>2006-01-06T10:48:28Z</time>
      </trkpt>
      <trkpt lat="45.824918746948242" lon="8.504791259765625">
        <ele>842.252197265625</ele>
        <time>2006-01-06T10:48:34Z</time>
      </trkpt>
      <trkpt lat="45.824832916259766" lon="8.504683971405029">
        <ele>841.290771484375</ele>
        <time>2006-01-06T10:48:44Z</time>
      </trkpt>
      <trkpt lat="45.82472562789917" lon="8.504619598388672">
        <ele>840.32958984375</ele>
        <time>2006-01-06T10:48:53Z</time>
      </trkpt>
      <trkpt lat="45.824553966522217" lon="8.50466251373291">
        <ele>840.32958984375</ele>
        <time>2006-01-06T10:49:01Z</time>
      </trkpt>
      <trkpt lat="45.824489593505859" lon="8.504791259765625">
        <ele>839.848876953125</ele>
        <time>2006-01-06T10:49:06Z</time>
      </trkpt>
      <trkpt lat="45.824382305145264" lon="8.504898548126221">
        <ele>838.8876953125</ele>
        <time>2006-01-06T10:49:11Z</time>
      </trkpt>
      <trkpt lat="45.82423210144043" lon="8.504898548126221">
        <ele>836.003662109375</ele>
        <time>2006-01-06T10:49:18Z</time>
      </trkpt>
      <trkpt lat="45.824038982391357" lon="8.504898548126221">
        <ele>832.63916015625</ele>
        <time>2006-01-06T10:49:28Z</time>
      </trkpt>
      <trkpt lat="45.823953151702881" lon="8.504898548126221">
        <ele>832.158447265625</ele>
        <time>2006-01-06T10:49:35Z</time>
      </trkpt>
      <trkpt lat="45.823867321014404" lon="8.504941463470459">
        <ele>831.197265625</ele>
        <time>2006-01-06T10:49:44Z</time>
      </trkpt>
      <trkpt lat="45.82371711730957" lon="8.505027294158936">
        <ele>831.677734375</ele>
        <time>2006-01-06T10:49:52Z</time>
      </trkpt>
      <trkpt lat="45.823566913604736" lon="8.505070209503174">
        <ele>830.716552734375</ele>
        <time>2006-01-06T10:49:58Z</time>
      </trkpt>
      <trkpt lat="45.823416709899902" lon="8.505241870880127">
        <ele>827.351806640625</ele>
        <time>2006-01-06T10:50:09Z</time>
      </trkpt>
      <trkpt lat="45.823416709899902" lon="8.505456447601318">
        <ele>826.87109375</ele>
        <time>2006-01-06T10:50:34Z</time>
      </trkpt>
      <trkpt lat="45.823373794555664" lon="8.505434989929199">
        <ele>819.661376953125</ele>
        <time>2006-01-06T10:56:07Z</time>
      </trkpt>
      <trkpt lat="45.823352336883545" lon="8.505434989929199">
        <ele>820.62255859375</ele>
        <time>2006-01-06T10:56:16Z</time>
      </trkpt>
      <trkpt lat="45.823330879211426" lon="8.505499362945557">
        <ele>820.141845703125</ele>
        <time>2006-01-06T10:57:46Z</time>
      </trkpt>
      <trkpt lat="45.823330879211426" lon="8.505520820617676">
        <ele>820.141845703125</ele>
        <time>2006-01-06T10:57:48Z</time>
      </trkpt>
      <trkpt lat="45.82322359085083" lon="8.505713939666748">
        <ele>820.141845703125</ele>
        <time>2006-01-06T10:57:57Z</time>
      </trkpt>
      <trkpt lat="45.823094844818115" lon="8.505885601043701">
        <ele>820.141845703125</ele>
        <time>2006-01-06T10:58:04Z</time>
      </trkpt>
      <trkpt lat="45.822923183441162" lon="8.506078720092773">
        <ele>821.103271484375</ele>
        <time>2006-01-06T10:58:13Z</time>
      </trkpt>
      <trkpt lat="45.822601318359375" lon="8.506464958190918">
        <ele>820.62255859375</ele>
        <time>2006-01-06T10:58:26Z</time>
      </trkpt>
      <trkpt lat="45.822343826293945" lon="8.50665807723999">
        <ele>821.583740234375</ele>
        <time>2006-01-06T10:58:36Z</time>
      </trkpt>
      <trkpt lat="45.82223653793335" lon="8.506636619567871">
        <ele>820.62255859375</ele>
        <time>2006-01-06T10:58:38Z</time>
      </trkpt>
      <trkpt lat="45.822129249572754" lon="8.506572246551514">
        <ele>820.141845703125</ele>
        <time>2006-01-06T10:58:41Z</time>
      </trkpt>
      <trkpt lat="45.822064876556396" lon="8.506443500518799">
        <ele>818.699951171875</ele>
        <time>2006-01-06T10:58:44Z</time>
      </trkpt>
      <trkpt lat="45.821957588195801" lon="8.506100177764893">
        <ele>817.258056640625</ele>
        <time>2006-01-06T10:58:51Z</time>
      </trkpt>
      <trkpt lat="45.821700096130371" lon="8.506035804748535">
        <ele>817.738525390625</ele>
        <time>2006-01-06T10:58:59Z</time>
      </trkpt>
      <trkpt lat="45.821378231048584" lon="8.505992889404297">
        <ele>817.258056640625</ele>
        <time>2006-01-06T10:59:07Z</time>
      </trkpt>
      <trkpt lat="45.821335315704346" lon="8.506143093109131">
        <ele>816.77734375</ele>
        <time>2006-01-06T10:59:11Z</time>
      </trkpt>
      <trkpt lat="45.821356773376465" lon="8.50642204284668">
        <ele>814.3740234375</ele>
        <time>2006-01-06T10:59:19Z</time>
      </trkpt>
      <trkpt lat="45.821270942687988" lon="8.506722450256348">
        <ele>814.3740234375</ele>
        <time>2006-01-06T10:59:28Z</time>
      </trkpt>
      <trkpt lat="45.821034908294678" lon="8.507108688354492">
        <ele>815.33544921875</ele>
        <time>2006-01-06T10:59:39Z</time>
      </trkpt>
      <trkpt lat="45.820798873901367" lon="8.507387638092041">
        <ele>816.296630859375</ele>
        <time>2006-01-06T10:59:47Z</time>
      </trkpt>
      <trkpt lat="45.820498466491699" lon="8.50766658782959">
        <ele>815.33544921875</ele>
        <time>2006-01-06T10:59:56Z</time>
      </trkpt>
      <trkpt lat="45.82024097442627" lon="8.507988452911377">
        <ele>814.3740234375</ele>
        <time>2006-01-06T11:00:05Z</time>
      </trkpt>
      <trkpt lat="45.820069313049316" lon="8.508353233337402">
        <ele>811.00927734375</ele>
        <time>2006-01-06T11:00:15Z</time>
      </trkpt>
      <trkpt lat="45.820069313049316" lon="8.508353233337402">
        <ele>810.528564453125</ele>
        <time>2006-01-06T11:00:16Z</time>
      </trkpt>
      <trkpt lat="45.81998348236084" lon="8.508460521697998">
        <ele>809.5673828125</ele>
        <time>2006-01-06T11:00:25Z</time>
      </trkpt>
      <trkpt lat="45.819940567016602" lon="8.508546352386475">
        <ele>809.5673828125</ele>
        <time>2006-01-06T11:00:34Z</time>
      </trkpt>
      <trkpt lat="45.819876194000244" lon="8.50865364074707">
        <ele>810.528564453125</ele>
        <time>2006-01-06T11:00:47Z</time>
      </trkpt>
      <trkpt lat="45.819833278656006" lon="8.508739471435547">
        <ele>811.970703125</ele>
        <time>2006-01-06T11:00:57Z</time>
      </trkpt>
      <trkpt lat="45.819790363311768" lon="8.508825302124023">
        <ele>811.970703125</ele>
        <time>2006-01-06T11:01:08Z</time>
      </trkpt>
      <trkpt lat="45.81972599029541" lon="8.5089111328125">
        <ele>811.489990234375</ele>
        <time>2006-01-06T11:01:18Z</time>
      </trkpt>
      <trkpt lat="45.819661617279053" lon="8.509039878845215">
        <ele>812.93212890625</ele>
        <time>2006-01-06T11:01:31Z</time>
      </trkpt>
      <trkpt lat="45.819618701934814" lon="8.509147167205811">
        <ele>812.93212890625</ele>
        <time>2006-01-06T11:01:42Z</time>
      </trkpt>
      <trkpt lat="45.819554328918457" lon="8.509275913238525">
        <ele>813.412841796875</ele>
        <time>2006-01-06T11:01:53Z</time>
      </trkpt>
      <trkpt lat="45.819532871246338" lon="8.509340286254883">
        <ele>813.893310546875</ele>
        <time>2006-01-06T11:02:02Z</time>
      </trkpt>
      <trkpt lat="45.81946849822998" lon="8.509447574615479">
        <ele>814.854736328125</ele>
        <time>2006-01-06T11:02:12Z</time>
      </trkpt>
      <trkpt lat="45.819404125213623" lon="8.509554862976074">
        <ele>815.33544921875</ele>
        <time>2006-01-06T11:02:21Z</time>
      </trkpt>
      <trkpt lat="45.819318294525146" lon="8.509640693664551">
        <ele>815.816162109375</ele>
        <time>2006-01-06T11:02:32Z</time>
      </trkpt>
      <trkpt lat="45.819275379180908" lon="8.509640693664551">
        <ele>815.33544921875</ele>
        <time>2006-01-06T11:02:40Z</time>
      </trkpt>
      <trkpt lat="45.819168090820313" lon="8.509533405303955">
        <ele>815.816162109375</ele>
        <time>2006-01-06T11:02:52Z</time>
      </trkpt>
      <trkpt lat="45.819125175476074" lon="8.509340286254883">
        <ele>816.296630859375</ele>
        <time>2006-01-06T11:02:59Z</time>
      </trkpt>
      <trkpt lat="45.819060802459717" lon="8.508996963500977">
        <ele>816.296630859375</ele>
        <time>2006-01-06T11:03:10Z</time>
      </trkpt>
      <trkpt lat="45.819017887115479" lon="8.50867509841919">
        <ele>816.77734375</ele>
        <time>2006-01-06T11:03:20Z</time>
      </trkpt>
      <trkpt lat="45.818996429443359" lon="8.508610725402832">
        <ele>817.258056640625</ele>
        <time>2006-01-06T11:03:23Z</time>
      </trkpt>
      <trkpt lat="45.818846225738525" lon="8.508524894714356">
        <ele>817.738525390625</ele>
        <time>2006-01-06T11:03:29Z</time>
      </trkpt>
      <trkpt lat="45.818524360656738" lon="8.508331775665283">
        <ele>819.1806640625</ele>
        <time>2006-01-06T11:03:44Z</time>
      </trkpt>
      <trkpt lat="45.818352699279785" lon="8.508203029632568">
        <ele>821.583740234375</ele>
        <time>2006-01-06T11:03:52Z</time>
      </trkpt>
      <trkpt lat="45.818202495574951" lon="8.508031368255615">
        <ele>822.545166015625</ele>
        <time>2006-01-06T11:04:02Z</time>
      </trkpt>
      <trkpt lat="45.818009376525879" lon="8.508052825927734">
        <ele>821.103271484375</ele>
        <time>2006-01-06T11:04:11Z</time>
      </trkpt>
      <trkpt lat="45.817794799804688" lon="8.508267402648926">
        <ele>818.699951171875</ele>
        <time>2006-01-06T11:04:21Z</time>
      </trkpt>
      <trkpt lat="45.817537307739258" lon="8.508353233337402">
        <ele>814.854736328125</ele>
        <time>2006-01-06T11:04:30Z</time>
      </trkpt>
      <trkpt lat="45.81723690032959" lon="8.508524894714356">
        <ele>812.451416015625</ele>
        <time>2006-01-06T11:04:40Z</time>
      </trkpt>
      <trkpt lat="45.816807746887207" lon="8.508696556091309">
        <ele>805.72216796875</ele>
        <time>2006-01-06T11:04:52Z</time>
      </trkpt>
      <trkpt lat="45.816507339477539" lon="8.508803844451904">
        <ele>802.357421875</ele>
        <time>2006-01-06T11:05:02Z</time>
      </trkpt>
      <trkpt lat="45.816507339477539" lon="8.508803844451904">
        <ele>801.876953125</ele>
        <time>2006-01-06T11:05:11Z</time>
      </trkpt>
      <trkpt lat="45.816507339477539" lon="8.508825302124023">
        <ele>797.551025390625</ele>
        <time>2006-01-06T11:07:41Z</time>
      </trkpt>
      <trkpt lat="45.816507339477539" lon="8.508503437042236">
        <ele>796.109130859375</ele>
        <time>2006-01-06T11:07:54Z</time>
      </trkpt>
      <trkpt lat="45.816571712493896" lon="8.508095741271973">
        <ele>797.551025390625</ele>
        <time>2006-01-06T11:08:05Z</time>
      </trkpt>
      <trkpt lat="45.816636085510254" lon="8.507966995239258">
        <ele>799.4736328125</ele>
        <time>2006-01-06T11:08:13Z</time>
      </trkpt>
      <trkpt lat="45.816700458526611" lon="8.507859706878662">
        <ele>802.838134765625</ele>
        <time>2006-01-06T11:08:22Z</time>
      </trkpt>
      <trkpt lat="45.81672191619873" lon="8.507752418518066">
        <ele>804.7607421875</ele>
        <time>2006-01-06T11:08:31Z</time>
      </trkpt>
      <trkpt lat="45.816764831542969" lon="8.507559299468994">
        <ele>807.644775390625</ele>
        <time>2006-01-06T11:08:45Z</time>
      </trkpt>
      <trkpt lat="45.816829204559326" lon="8.50740909576416">
        <ele>808.12548828125</ele>
        <time>2006-01-06T11:08:57Z</time>
      </trkpt>
      <trkpt lat="45.816915035247803" lon="8.507237434387207">
        <ele>808.12548828125</ele>
        <time>2006-01-06T11:09:10Z</time>
      </trkpt>
      <trkpt lat="45.817022323608398" lon="8.507087230682373">
        <ele>808.60595703125</ele>
        <time>2006-01-06T11:09:22Z</time>
      </trkpt>
      <trkpt lat="45.817065238952637" lon="8.507065773010254">
        <ele>808.60595703125</ele>
        <time>2006-01-06T11:09:24Z</time>
      </trkpt>
      <trkpt lat="45.817086696624756" lon="8.507001399993897">
        <ele>810.0478515625</ele>
        <time>2006-01-06T11:09:28Z</time>
      </trkpt>
      <trkpt lat="45.817322731018066" lon="8.506722450256348">
        <ele>813.412841796875</ele>
        <time>2006-01-06T11:09:42Z</time>
      </trkpt>
      <trkpt lat="45.817623138427734" lon="8.506400585174561">
        <ele>814.854736328125</ele>
        <time>2006-01-06T11:09:53Z</time>
      </trkpt>
      <trkpt lat="45.817816257476807" lon="8.506207466125488">
        <ele>816.296630859375</ele>
        <time>2006-01-06T11:10:00Z</time>
      </trkpt>
      <trkpt lat="45.817880630493164" lon="8.506057262420654">
        <ele>815.816162109375</ele>
        <time>2006-01-06T11:10:04Z</time>
      </trkpt>
      <trkpt lat="45.817923545837402" lon="8.505649566650391">
        <ele>814.3740234375</ele>
        <time>2006-01-06T11:10:13Z</time>
      </trkpt>
      <trkpt lat="45.817923545837402" lon="8.505585193634033">
        <ele>814.3740234375</ele>
        <time>2006-01-06T11:10:15Z</time>
      </trkpt>
      <trkpt lat="45.817902088165283" lon="8.505477905273438">
        <ele>813.412841796875</ele>
        <time>2006-01-06T11:10:17Z</time>
      </trkpt>
      <trkpt lat="45.817751884460449" lon="8.505349159240723">
        <ele>813.412841796875</ele>
        <time>2006-01-06T11:10:21Z</time>
      </trkpt>
      <trkpt lat="45.81749439239502" lon="8.505091667175293">
        <ele>811.970703125</ele>
        <time>2006-01-06T11:10:29Z</time>
      </trkpt>
      <trkpt lat="45.817451477050781" lon="8.505027294158936">
        <ele>811.970703125</ele>
        <time>2006-01-06T11:10:31Z</time>
      </trkpt>
      <trkpt lat="45.817279815673828" lon="8.504941463470459">
        <ele>810.528564453125</ele>
        <time>2006-01-06T11:10:35Z</time>
      </trkpt>
      <trkpt lat="45.81697940826416" lon="8.504533767700195">
        <ele>806.20263671875</ele>
        <time>2006-01-06T11:10:44Z</time>
      </trkpt>
      <trkpt lat="45.816593170166016" lon="8.504083156585693">
        <ele>803.31884765625</ele>
        <time>2006-01-06T11:10:58Z</time>
      </trkpt>
      <trkpt lat="45.816142559051514" lon="8.503589630126953">
        <ele>798.51220703125</ele>
        <time>2006-01-06T11:11:13Z</time>
      </trkpt>
      <trkpt lat="45.815670490264893" lon="8.503139019012451">
        <ele>795.628173828125</ele>
        <time>2006-01-06T11:11:27Z</time>
      </trkpt>
      <trkpt lat="45.815284252166748" lon="8.502795696258545">
        <ele>794.186279296875</ele>
        <time>2006-01-06T11:11:40Z</time>
      </trkpt>
      <trkpt lat="45.814898014068604" lon="8.502366542816162">
        <ele>792.744384765625</ele>
        <time>2006-01-06T11:11:54Z</time>
      </trkpt>
      <trkpt lat="45.814640522003174" lon="8.502109050750732">
        <ele>792.263671875</ele>
        <time>2006-01-06T11:12:01Z</time>
      </trkpt>
      <trkpt lat="45.814275741577148" lon="8.501551151275635">
        <ele>790.341064453125</ele>
        <time>2006-01-06T11:12:07Z</time>
      </trkpt>
      <trkpt lat="45.814082622528076" lon="8.501744270324707">
        <ele>789.8603515625</ele>
        <time>2006-01-06T11:12:11Z</time>
      </trkpt>
      <trkpt lat="45.813825130462646" lon="8.501701354980469">
        <ele>787.45703125</ele>
        <time>2006-01-06T11:12:22Z</time>
      </trkpt>
      <trkpt lat="45.813395977020264" lon="8.501572608947754">
        <ele>786.01513671875</ele>
        <time>2006-01-06T11:12:35Z</time>
      </trkpt>
      <trkpt lat="45.813224315643311" lon="8.500800132751465">
        <ele>783.61181640625</ele>
        <time>2006-01-06T11:12:47Z</time>
      </trkpt>
      <trkpt lat="45.813138484954834" lon="8.500885963439941">
        <ele>780.247314453125</ele>
        <time>2006-01-06T11:12:59Z</time>
      </trkpt>
      <trkpt lat="45.813117027282715" lon="8.500843048095703">
        <ele>778.80517578125</ele>
        <time>2006-01-06T11:13:03Z</time>
      </trkpt>
      <trkpt lat="45.813074111938477" lon="8.500843048095703">
        <ele>774.9599609375</ele>
        <time>2006-01-06T11:13:10Z</time>
      </trkpt>
      <trkpt lat="45.812945365905762" lon="8.50092887878418">
        <ele>772.556640625</ele>
        <time>2006-01-06T11:13:26Z</time>
      </trkpt>
      <trkpt lat="45.812816619873047" lon="8.500993251800537">
        <ele>770.634033203125</ele>
        <time>2006-01-06T11:13:39Z</time>
      </trkpt>
      <trkpt lat="45.812687873840332" lon="8.500993251800537">
        <ele>769.192138671875</ele>
        <time>2006-01-06T11:13:51Z</time>
      </trkpt>
      <trkpt lat="45.812666416168213" lon="8.500993251800537">
        <ele>769.6728515625</ele>
        <time>2006-01-06T11:13:54Z</time>
      </trkpt>
      <trkpt lat="45.812559127807617" lon="8.500971794128418">
        <ele>768.71142578125</ele>
        <time>2006-01-06T11:14:02Z</time>
      </trkpt>
      <trkpt lat="45.812451839447021" lon="8.50092887878418">
        <ele>759.578857421875</ele>
        <time>2006-01-06T11:16:15Z</time>
      </trkpt>
      <trkpt lat="45.812451839447021" lon="8.50092887878418">
        <ele>760.059326171875</ele>
        <time>2006-01-06T11:16:16Z</time>
      </trkpt>
      <trkpt lat="45.812473297119141" lon="8.500821590423584">
        <ele>760.059326171875</ele>
        <time>2006-01-06T11:16:23Z</time>
      </trkpt>
      <trkpt lat="45.812580585479736" lon="8.500607013702393">
        <ele>760.5400390625</ele>
        <time>2006-01-06T11:16:33Z</time>
      </trkpt>
      <trkpt lat="45.812709331512451" lon="8.50017786026001">
        <ele>761.020751953125</ele>
        <time>2006-01-06T11:16:48Z</time>
      </trkpt>
      <trkpt lat="45.812773704528809" lon="8.499791622161865">
        <ele>761.50146484375</ele>
        <time>2006-01-06T11:17:01Z</time>
      </trkpt>
      <trkpt lat="45.812816619873047" lon="8.499448299407959">
        <ele>761.982177734375</ele>
        <time>2006-01-06T11:17:14Z</time>
      </trkpt>
      <trkpt lat="45.812666416168213" lon="8.499147891998291">
        <ele>762.462646484375</ele>
        <time>2006-01-06T11:17:26Z</time>
      </trkpt>
      <trkpt lat="45.812366008758545" lon="8.498740196228027">
        <ele>761.982177734375</ele>
        <time>2006-01-06T11:17:39Z</time>
      </trkpt>
      <trkpt lat="45.812172889709473" lon="8.498353958129883">
        <ele>758.617431640625</ele>
        <time>2006-01-06T11:17:49Z</time>
      </trkpt>
      <trkpt lat="45.811872482299805" lon="8.498032093048096">
        <ele>752.849609375</ele>
        <time>2006-01-06T11:18:01Z</time>
      </trkpt>
      <trkpt lat="45.811507701873779" lon="8.497731685638428">
        <ele>752.368896484375</ele>
        <time>2006-01-06T11:18:15Z</time>
      </trkpt>
      <trkpt lat="45.811336040496826" lon="8.497409820556641">
        <ele>750.927001953125</ele>
        <time>2006-01-06T11:18:26Z</time>
      </trkpt>
      <trkpt lat="45.811314582824707" lon="8.497152328491211">
        <ele>751.888427734375</ele>
        <time>2006-01-06T11:18:34Z</time>
      </trkpt>
      <trkpt lat="45.811378955841064" lon="8.497066497802734">
        <ele>752.368896484375</ele>
        <time>2006-01-06T11:18:37Z</time>
      </trkpt>
      <trkpt lat="45.811400413513184" lon="8.49693775177002">
        <ele>751.888427734375</ele>
        <time>2006-01-06T11:18:40Z</time>
      </trkpt>
      <trkpt lat="45.811443328857422" lon="8.496809005737305">
        <ele>750.927001953125</ele>
        <time>2006-01-06T11:18:45Z</time>
      </trkpt>
      <trkpt lat="45.811314582824707" lon="8.496658802032471">
        <ele>750.446533203125</ele>
        <time>2006-01-06T11:18:54Z</time>
      </trkpt>
      <trkpt lat="45.810949802398682" lon="8.496444225311279">
        <ele>749.485107421875</ele>
        <time>2006-01-06T11:19:06Z</time>
      </trkpt>
      <trkpt lat="45.810799598693848" lon="8.496336936950684">
        <ele>749.00439453125</ele>
        <time>2006-01-06T11:19:11Z</time>
      </trkpt>
      <trkpt lat="45.810799598693848" lon="8.496336936950684">
        <ele>749.00439453125</ele>
        <time>2006-01-06T11:19:12Z</time>
      </trkpt>
      <trkpt lat="45.810756683349609" lon="8.496100902557373">
        <ele>748.043212890625</ele>
        <time>2006-01-06T11:19:21Z</time>
      </trkpt>
      <trkpt lat="45.810756683349609" lon="8.495607376098633">
        <ele>746.60107421875</ele>
        <time>2006-01-06T11:19:34Z</time>
      </trkpt>
      <trkpt lat="45.810713768005371" lon="8.495113849639893">
        <ele>745.158935546875</ele>
        <time>2006-01-06T11:19:46Z</time>
      </trkpt>
      <trkpt lat="45.810585021972656" lon="8.494813442230225">
        <ele>743.236328125</ele>
        <time>2006-01-06T11:19:56Z</time>
      </trkpt>
      <trkpt lat="45.810456275939941" lon="8.494598865509033">
        <ele>742.755859375</ele>
        <time>2006-01-06T11:20:05Z</time>
      </trkpt>
      <trkpt lat="45.810155868530273" lon="8.494620323181152">
        <ele>740.8330078125</ele>
        <time>2006-01-06T11:20:20Z</time>
      </trkpt>
      <trkpt lat="45.809834003448486" lon="8.494620323181152">
        <ele>738.91064453125</ele>
        <time>2006-01-06T11:20:31Z</time>
      </trkpt>
      <trkpt lat="45.809426307678223" lon="8.494555950164795">
        <ele>740.3525390625</ele>
        <time>2006-01-06T11:20:44Z</time>
      </trkpt>
      <trkpt lat="45.80899715423584" lon="8.494620323181152">
        <ele>740.8330078125</ele>
        <time>2006-01-06T11:20:58Z</time>
      </trkpt>
      <trkpt lat="45.808718204498291" lon="8.494620323181152">
        <ele>735.5458984375</ele>
        <time>2006-01-06T11:21:07Z</time>
      </trkpt>
      <trkpt lat="45.808439254760742" lon="8.494791984558106">
        <ele>734.584716796875</ele>
        <time>2006-01-06T11:21:17Z</time>
      </trkpt>
      <trkpt lat="45.808010101318359" lon="8.494663238525391">
        <ele>734.584716796875</ele>
        <time>2006-01-06T11:21:33Z</time>
      </trkpt>
      <trkpt lat="45.807602405548096" lon="8.494555950164795">
        <ele>739.39111328125</ele>
        <time>2006-01-06T11:21:52Z</time>
      </trkpt>
      <trkpt lat="45.807538032531738" lon="8.494534492492676">
        <ele>741.313720703125</ele>
        <time>2006-01-06T11:21:56Z</time>
      </trkpt>
      <trkpt lat="45.807602405548096" lon="8.49468469619751">
        <ele>742.275146484375</ele>
        <time>2006-01-06T11:22:02Z</time>
      </trkpt>
      <trkpt lat="45.807709693908691" lon="8.494963645935059">
        <ele>742.755859375</ele>
        <time>2006-01-06T11:22:10Z</time>
      </trkpt>
      <trkpt lat="45.807688236236572" lon="8.495113849639893">
        <ele>737.94921875</ele>
        <time>2006-01-06T11:22:22Z</time>
      </trkpt>
      <trkpt lat="45.807731151580811" lon="8.495242595672607">
        <ele>736.98779296875</ele>
        <time>2006-01-06T11:22:33Z</time>
      </trkpt>
      <trkpt lat="45.807816982269287" lon="8.49543571472168">
        <ele>732.662109375</ele>
        <time>2006-01-06T11:22:52Z</time>
      </trkpt>
      <trkpt lat="45.807838439941406" lon="8.495736122131348">
        <ele>728.3359375</ele>
        <time>2006-01-06T11:23:08Z</time>
      </trkpt>
      <trkpt lat="45.807838439941406" lon="8.495821952819824">
        <ele>724.49072265625</ele>
        <time>2006-01-06T11:23:12Z</time>
      </trkpt>
      <trkpt lat="45.80775260925293" lon="8.496015071868897">
        <ele>722.08740234375</ele>
        <time>2006-01-06T11:23:24Z</time>
      </trkpt>
      <trkpt lat="45.807623863220215" lon="8.496079444885254">
        <ele>722.568115234375</ele>
        <time>2006-01-06T11:23:38Z</time>
      </trkpt>
      <trkpt lat="45.807559490203857" lon="8.496229648590088">
        <ele>718.722900390625</ele>
        <time>2006-01-06T11:25:02Z</time>
      </trkpt>
      <trkpt lat="45.807473659515381" lon="8.496229648590088">
        <ele>717.281005859375</ele>
        <time>2006-01-06T11:25:11Z</time>
      </trkpt>
      <trkpt lat="45.807430744171143" lon="8.496229648590088">
        <ele>716.319580078125</ele>
        <time>2006-01-06T11:25:15Z</time>
      </trkpt>
      <trkpt lat="45.807301998138428" lon="8.496079444885254">
        <ele>715.8388671875</ele>
        <time>2006-01-06T11:25:30Z</time>
      </trkpt>
      <trkpt lat="45.807151794433594" lon="8.495993614196777">
        <ele>718.722900390625</ele>
        <time>2006-01-06T11:25:43Z</time>
      </trkpt>
      <trkpt lat="45.807044506072998" lon="8.496122360229492">
        <ele>722.568115234375</ele>
        <time>2006-01-06T11:25:57Z</time>
      </trkpt>
      <trkpt lat="45.806937217712402" lon="8.496165275573731">
        <ele>723.048828125</ele>
        <time>2006-01-06T11:26:11Z</time>
      </trkpt>
      <trkpt lat="45.806808471679688" lon="8.49618673324585">
        <ele>724.49072265625</ele>
        <time>2006-01-06T11:26:27Z</time>
      </trkpt>
      <trkpt lat="45.806658267974854" lon="8.496208190917969">
        <ele>727.374755859375</ele>
        <time>2006-01-06T11:26:45Z</time>
      </trkpt>
      <trkpt lat="45.806572437286377" lon="8.496315479278565">
        <ele>727.855224609375</ele>
        <time>2006-01-06T11:26:58Z</time>
      </trkpt>
      <trkpt lat="45.806550979614258" lon="8.496358394622803">
        <ele>723.048828125</ele>
        <time>2006-01-06T11:27:09Z</time>
      </trkpt>
      <trkpt lat="45.80650806427002" lon="8.496444225311279">
        <ele>725.9326171875</ele>
        <time>2006-01-06T11:27:19Z</time>
      </trkpt>
      <trkpt lat="45.806422233581543" lon="8.496572971343994">
        <ele>728.3359375</ele>
        <time>2006-01-06T11:27:33Z</time>
      </trkpt>
      <trkpt lat="45.806357860565186" lon="8.496615886688232">
        <ele>728.3359375</ele>
        <time>2006-01-06T11:27:43Z</time>
      </trkpt>
      <trkpt lat="45.806293487548828" lon="8.496637344360352">
        <ele>729.77783203125</ele>
        <time>2006-01-06T11:27:53Z</time>
      </trkpt>
      <trkpt lat="45.806272029876709" lon="8.496637344360352">
        <ele>728.816650390625</ele>
        <time>2006-01-06T11:28:03Z</time>
      </trkpt>
      <trkpt lat="45.806143283843994" lon="8.496594429016113">
        <ele>730.258544921875</ele>
        <time>2006-01-06T11:28:15Z</time>
      </trkpt>
      <trkpt lat="45.806035995483398" lon="8.496530055999756">
        <ele>733.142578125</ele>
        <time>2006-01-06T11:28:31Z</time>
      </trkpt>
      <trkpt lat="45.805907249450684" lon="8.496444225311279">
        <ele>734.10400390625</ele>
        <time>2006-01-06T11:28:47Z</time>
      </trkpt>
      <trkpt lat="45.805821418762207" lon="8.496379852294922">
        <ele>736.026611328125</ele>
        <time>2006-01-06T11:29:02Z</time>
      </trkpt>
      <trkpt lat="45.805714130401611" lon="8.496294021606445">
        <ele>736.50732421875</ele>
        <time>2006-01-06T11:29:15Z</time>
      </trkpt>
      <trkpt lat="45.805692672729492" lon="8.496272563934326">
        <ele>736.026611328125</ele>
        <time>2006-01-06T11:29:17Z</time>
      </trkpt>
      <trkpt lat="45.805542469024658" lon="8.496165275573731">
        <ele>738.429931640625</ele>
        <time>2006-01-06T11:29:35Z</time>
      </trkpt>
      <trkpt lat="45.805478096008301" lon="8.496079444885254">
        <ele>737.94921875</ele>
        <time>2006-01-06T11:29:43Z</time>
      </trkpt>
      <trkpt lat="45.805456638336182" lon="8.495843410491943">
        <ele>739.871826171875</ele>
        <time>2006-01-06T11:29:58Z</time>
      </trkpt>
      <trkpt lat="45.805478096008301" lon="8.495757579803467">
        <ele>741.313720703125</ele>
        <time>2006-01-06T11:30:05Z</time>
      </trkpt>
      <trkpt lat="45.805585384368896" lon="8.495607376098633">
        <ele>742.275146484375</ele>
        <time>2006-01-06T11:30:19Z</time>
      </trkpt>
      <trkpt lat="45.805692672729492" lon="8.495457172393799">
        <ele>744.19775390625</ele>
        <time>2006-01-06T11:30:33Z</time>
      </trkpt>
      <trkpt lat="45.805778503417969" lon="8.495371341705322">
        <ele>748.043212890625</ele>
        <time>2006-01-06T11:30:44Z</time>
      </trkpt>
      <trkpt lat="45.805885791778564" lon="8.495285511016846">
        <ele>750.927001953125</ele>
        <time>2006-01-06T11:30:58Z</time>
      </trkpt>
      <trkpt lat="45.805928707122803" lon="8.495135307312012">
        <ele>753.330322265625</ele>
        <time>2006-01-06T11:31:09Z</time>
      </trkpt>
      <trkpt lat="45.805950164794922" lon="8.494899272918701">
        <ele>753.81103515625</ele>
        <time>2006-01-06T11:31:29Z</time>
      </trkpt>
      <trkpt lat="45.805950164794922" lon="8.494856357574463">
        <ele>753.81103515625</ele>
        <time>2006-01-06T11:31:31Z</time>
      </trkpt>
      <trkpt lat="45.805885791778564" lon="8.494641780853272">
        <ele>754.772216796875</ele>
        <time>2006-01-06T11:31:45Z</time>
      </trkpt>
      <trkpt lat="45.805842876434326" lon="8.494405746459961">
        <ele>753.330322265625</ele>
        <time>2006-01-06T11:31:58Z</time>
      </trkpt>
      <trkpt lat="45.805799961090088" lon="8.49419116973877">
        <ele>752.368896484375</ele>
        <time>2006-01-06T11:32:10Z</time>
      </trkpt>
      <trkpt lat="45.805799961090088" lon="8.493976593017578">
        <ele>753.81103515625</ele>
        <time>2006-01-06T11:32:23Z</time>
      </trkpt>
      <trkpt lat="45.80575704574585" lon="8.493869304656982">
        <ele>753.81103515625</ele>
        <time>2006-01-06T11:32:31Z</time>
      </trkpt>
      <trkpt lat="45.805606842041016" lon="8.493633270263672">
        <ele>756.69482421875</ele>
        <time>2006-01-06T11:32:47Z</time>
      </trkpt>
      <trkpt lat="45.805606842041016" lon="8.493547439575195">
        <ele>758.617431640625</ele>
        <time>2006-01-06T11:32:52Z</time>
      </trkpt>
      <trkpt lat="45.805671215057373" lon="8.493268489837647">
        <ele>760.5400390625</ele>
        <time>2006-01-06T11:33:08Z</time>
      </trkpt>
      <trkpt lat="45.80575704574585" lon="8.493053913116455">
        <ele>762.462646484375</ele>
        <time>2006-01-06T11:33:22Z</time>
      </trkpt>
      <trkpt lat="45.805842876434326" lon="8.492903709411621">
        <ele>764.385498046875</ele>
        <time>2006-01-06T11:33:35Z</time>
      </trkpt>
      <trkpt lat="45.805842876434326" lon="8.492667675018311">
        <ele>767.26953125</ele>
        <time>2006-01-06T11:33:51Z</time>
      </trkpt>
      <trkpt lat="45.805821418762207" lon="8.492410182952881">
        <ele>767.75</ele>
        <time>2006-01-06T11:34:07Z</time>
      </trkpt>
      <trkpt lat="45.80575704574585" lon="8.49219560623169">
        <ele>768.71142578125</ele>
        <time>2006-01-06T11:34:22Z</time>
      </trkpt>
      <trkpt lat="45.805714130401611" lon="8.491959571838379">
        <ele>770.634033203125</ele>
        <time>2006-01-06T11:34:38Z</time>
      </trkpt>
      <trkpt lat="45.805692672729492" lon="8.491766452789307">
        <ele>773.99853515625</ele>
        <time>2006-01-06T11:34:50Z</time>
      </trkpt>
      <trkpt lat="45.805649757385254" lon="8.491573333740234">
        <ele>775.4404296875</ele>
        <time>2006-01-06T11:35:02Z</time>
      </trkpt>
      <trkpt lat="45.805606842041016" lon="8.491380214691162">
        <ele>776.882568359375</ele>
        <time>2006-01-06T11:35:12Z</time>
      </trkpt>
      <trkpt lat="45.805542469024658" lon="8.491122722625732">
        <ele>777.84375</ele>
        <time>2006-01-06T11:35:26Z</time>
      </trkpt>
      <trkpt lat="45.805456638336182" lon="8.490908145904541">
        <ele>774.479248046875</ele>
        <time>2006-01-06T11:35:39Z</time>
      </trkpt>
      <trkpt lat="45.805327892303467" lon="8.49069356918335">
        <ele>774.479248046875</ele>
        <time>2006-01-06T11:35:48Z</time>
      </trkpt>
      <trkpt lat="45.805284976959229" lon="8.490629196166992">
        <ele>775.4404296875</ele>
        <time>2006-01-06T11:35:54Z</time>
      </trkpt>
      <trkpt lat="45.805199146270752" lon="8.490521907806397">
        <ele>776.882568359375</ele>
        <time>2006-01-06T11:36:05Z</time>
      </trkpt>
      <trkpt lat="45.805134773254395" lon="8.49043607711792">
        <ele>779.28564453125</ele>
        <time>2006-01-06T11:36:16Z</time>
      </trkpt>
      <trkpt lat="45.80500602722168" lon="8.490264415740967">
        <ele>782.169921875</ele>
        <time>2006-01-06T11:36:33Z</time>
      </trkpt>
      <trkpt lat="45.804941654205322" lon="8.490157127380371">
        <ele>781.208740234375</ele>
        <time>2006-01-06T11:36:43Z</time>
      </trkpt>
      <trkpt lat="45.804877281188965" lon="8.490114212036133">
        <ele>780.72802734375</ele>
        <time>2006-01-06T11:36:50Z</time>
      </trkpt>
      <trkpt lat="45.804791450500488" lon="8.490049839019775">
        <ele>779.766357421875</ele>
        <time>2006-01-06T11:37:01Z</time>
      </trkpt>
      <trkpt lat="45.804727077484131" lon="8.490071296691895">
        <ele>784.092529296875</ele>
        <time>2006-01-06T11:47:46Z</time>
      </trkpt>
      <trkpt lat="45.804641246795654" lon="8.490006923675537">
        <ele>784.5732421875</ele>
        <time>2006-01-06T11:47:57Z</time>
      </trkpt>
      <trkpt lat="45.804533958435059" lon="8.489921092987061">
        <ele>782.169921875</ele>
        <time>2006-01-06T11:48:09Z</time>
      </trkpt>
      <trkpt lat="45.804448127746582" lon="8.489856719970703">
        <ele>780.72802734375</ele>
        <time>2006-01-06T11:48:19Z</time>
      </trkpt>
      <trkpt lat="45.804319381713867" lon="8.489813804626465">
        <ele>780.247314453125</ele>
        <time>2006-01-06T11:48:30Z</time>
      </trkpt>
      <trkpt lat="45.804169178009033" lon="8.489792346954346">
        <ele>778.324462890625</ele>
        <time>2006-01-06T11:48:39Z</time>
      </trkpt>
      <trkpt lat="45.803976058959961" lon="8.489727973937988">
        <ele>777.84375</ele>
        <time>2006-01-06T11:48:47Z</time>
      </trkpt>
      <trkpt lat="45.803654193878174" lon="8.489642143249512">
        <ele>777.84375</ele>
        <time>2006-01-06T11:49:00Z</time>
      </trkpt>
      <trkpt lat="45.803525447845459" lon="8.489620685577393">
        <ele>777.84375</ele>
        <time>2006-01-06T11:49:07Z</time>
      </trkpt>
      <trkpt lat="45.803461074829102" lon="8.489577770233154">
        <ele>777.84375</ele>
        <time>2006-01-06T11:49:14Z</time>
      </trkpt>
      <trkpt lat="45.803375244140625" lon="8.489556312561035">
        <ele>777.36328125</ele>
        <time>2006-01-06T11:49:23Z</time>
      </trkpt>
      <trkpt lat="45.803267955780029" lon="8.489534854888916">
        <ele>775.921142578125</ele>
        <time>2006-01-06T11:49:36Z</time>
      </trkpt>
      <trkpt lat="45.803160667419434" lon="8.489470481872559">
        <ele>777.84375</ele>
        <time>2006-01-06T11:49:46Z</time>
      </trkpt>
      <trkpt lat="45.803096294403076" lon="8.489406108856201">
        <ele>776.882568359375</ele>
        <time>2006-01-06T11:49:54Z</time>
      </trkpt>
      <trkpt lat="45.80298900604248" lon="8.489341735839844">
        <ele>773.037353515625</ele>
        <time>2006-01-06T11:49:59Z</time>
      </trkpt>
      <trkpt lat="45.802838802337646" lon="8.489234447479248">
        <ele>771.11474609375</ele>
        <time>2006-01-06T11:50:05Z</time>
      </trkpt>
      <trkpt lat="45.802624225616455" lon="8.489084243774414">
        <ele>769.192138671875</ele>
        <time>2006-01-06T11:50:14Z</time>
      </trkpt>
      <trkpt lat="45.802431106567383" lon="8.488955497741699">
        <ele>770.1533203125</ele>
        <time>2006-01-06T11:50:23Z</time>
      </trkpt>
      <trkpt lat="45.802388191223145" lon="8.488891124725342">
        <ele>770.634033203125</ele>
        <time>2006-01-06T11:50:29Z</time>
      </trkpt>
      <trkpt lat="45.802302360534668" lon="8.488869667053223">
        <ele>772.075927734375</ele>
        <time>2006-01-06T11:50:38Z</time>
      </trkpt>
      <trkpt lat="45.802237987518311" lon="8.488848209381104">
        <ele>773.51806640625</ele>
        <time>2006-01-06T11:50:45Z</time>
      </trkpt>
      <trkpt lat="45.802195072174072" lon="8.488826751708984">
        <ele>773.99853515625</ele>
        <time>2006-01-06T11:50:52Z</time>
      </trkpt>
      <trkpt lat="45.802173614501953" lon="8.488783836364746">
        <ele>773.037353515625</ele>
        <time>2006-01-06T11:51:02Z</time>
      </trkpt>
      <trkpt lat="45.802044868469238" lon="8.488719463348389">
        <ele>773.037353515625</ele>
        <time>2006-01-06T11:51:08Z</time>
      </trkpt>
      <trkpt lat="45.801980495452881" lon="8.48869800567627">
        <ele>771.59521484375</ele>
        <time>2006-01-06T11:51:17Z</time>
      </trkpt>
      <trkpt lat="45.801873207092285" lon="8.488633632659912">
        <ele>777.84375</ele>
        <time>2006-01-06T11:57:40Z</time>
      </trkpt>
      <trkpt lat="45.801830291748047" lon="8.488633632659912">
        <ele>777.84375</ele>
        <time>2006-01-06T11:57:45Z</time>
      </trkpt>
      <trkpt lat="45.801787376403809" lon="8.488655090332031">
        <ele>777.84375</ele>
        <time>2006-01-06T11:57:53Z</time>
      </trkpt>
      <trkpt lat="45.801701545715332" lon="8.488783836364746">
        <ele>778.80517578125</ele>
        <time>2006-01-06T11:58:06Z</time>
      </trkpt>
      <trkpt lat="45.801658630371094" lon="8.488805294036865">
        <ele>778.324462890625</ele>
        <time>2006-01-06T11:58:14Z</time>
      </trkpt>
      <trkpt lat="45.801594257354736" lon="8.488891124725342">
        <ele>776.40185546875</ele>
        <time>2006-01-06T11:58:23Z</time>
      </trkpt>
      <trkpt lat="45.801486968994141" lon="8.489019870758057">
        <ele>775.921142578125</ele>
        <time>2006-01-06T11:58:35Z</time>
      </trkpt>
      <trkpt lat="45.801465511322021" lon="8.489019870758057">
        <ele>774.479248046875</ele>
        <time>2006-01-06T11:58:37Z</time>
      </trkpt>
      <trkpt lat="45.801315307617187" lon="8.488955497741699">
        <ele>772.556640625</ele>
        <time>2006-01-06T11:58:48Z</time>
      </trkpt>
      <trkpt lat="45.801272392272949" lon="8.488912582397461">
        <ele>771.59521484375</ele>
        <time>2006-01-06T11:58:55Z</time>
      </trkpt>
      <trkpt lat="45.801208019256592" lon="8.488826751708984">
        <ele>770.1533203125</ele>
        <time>2006-01-06T11:59:04Z</time>
      </trkpt>
      <trkpt lat="45.801079273223877" lon="8.488762378692627">
        <ele>768.71142578125</ele>
        <time>2006-01-06T11:59:16Z</time>
      </trkpt>
      <trkpt lat="45.8009934425354" lon="8.488719463348389">
        <ele>766.30810546875</ele>
        <time>2006-01-06T11:59:27Z</time>
      </trkpt>
      <trkpt lat="45.800886154174805" lon="8.488655090332031">
        <ele>765.82763671875</ele>
        <time>2006-01-06T11:59:40Z</time>
      </trkpt>
      <trkpt lat="45.800886154174805" lon="8.488655090332031">
        <ele>765.346923828125</ele>
        <time>2006-01-06T11:59:41Z</time>
      </trkpt>
      <trkpt lat="45.800821781158447" lon="8.48869800567627">
        <ele>763.904541015625</ele>
        <time>2006-01-06T11:59:50Z</time>
      </trkpt>
      <trkpt lat="45.800778865814209" lon="8.48867654800415">
        <ele>762.943359375</ele>
        <time>2006-01-06T11:59:57Z</time>
      </trkpt>
      <trkpt lat="45.800693035125732" lon="8.488569259643555">
        <ele>760.059326171875</ele>
        <time>2006-01-06T12:00:11Z</time>
      </trkpt>
      <trkpt lat="45.800628662109375" lon="8.488461971282959">
        <ele>758.617431640625</ele>
        <time>2006-01-06T12:00:24Z</time>
      </trkpt>
      <trkpt lat="45.800585746765137" lon="8.488397598266602">
        <ele>758.136962890625</ele>
        <time>2006-01-06T12:00:33Z</time>
      </trkpt>
      <trkpt lat="45.800585746765137" lon="8.488376140594482">
        <ele>757.65625</ele>
        <time>2006-01-06T12:00:42Z</time>
      </trkpt>
      <trkpt lat="45.800564289093018" lon="8.488333225250244">
        <ele>756.214111328125</ele>
        <time>2006-01-06T12:00:52Z</time>
      </trkpt>
      <trkpt lat="45.80049991607666" lon="8.48818302154541">
        <ele>751.888427734375</ele>
        <time>2006-01-06T12:01:29Z</time>
      </trkpt>
      <trkpt lat="45.800457000732422" lon="8.488118648529053">
        <ele>751.888427734375</ele>
        <time>2006-01-06T12:01:39Z</time>
      </trkpt>
      <trkpt lat="45.800457000732422" lon="8.488075733184815">
        <ele>751.888427734375</ele>
        <time>2006-01-06T12:01:47Z</time>
      </trkpt>
      <trkpt lat="45.800414085388184" lon="8.487925529479981">
        <ele>750.446533203125</ele>
        <time>2006-01-06T12:02:03Z</time>
      </trkpt>
      <trkpt lat="45.800392627716064" lon="8.487861156463623">
        <ele>750.446533203125</ele>
        <time>2006-01-06T12:02:13Z</time>
      </trkpt>
      <trkpt lat="45.800371170043945" lon="8.487796783447266">
        <ele>750.446533203125</ele>
        <time>2006-01-06T12:02:17Z</time>
      </trkpt>
      <trkpt lat="45.800328254699707" lon="8.48768949508667">
        <ele>749.9658203125</ele>
        <time>2006-01-06T12:02:31Z</time>
      </trkpt>
      <trkpt lat="45.80026388168335" lon="8.487668037414551">
        <ele>745.158935546875</ele>
        <time>2006-01-06T12:02:54Z</time>
      </trkpt>
      <trkpt lat="45.800199508666992" lon="8.487668037414551">
        <ele>741.79443359375</ele>
        <time>2006-01-06T12:03:06Z</time>
      </trkpt>
      <trkpt lat="45.800199508666992" lon="8.487668037414551">
        <ele>738.429931640625</ele>
        <time>2006-01-06T12:03:14Z</time>
      </trkpt>
      <trkpt lat="45.800135135650635" lon="8.48768949508667">
        <ele>736.98779296875</ele>
        <time>2006-01-06T12:03:24Z</time>
      </trkpt>
      <trkpt lat="45.800049304962158" lon="8.487732410430908">
        <ele>735.0654296875</ele>
        <time>2006-01-06T12:03:36Z</time>
      </trkpt>
      <trkpt lat="45.799942016601563" lon="8.487775325775147">
        <ele>730.258544921875</ele>
        <time>2006-01-06T12:03:51Z</time>
      </trkpt>
      <trkpt lat="45.799899101257324" lon="8.487796783447266">
        <ele>729.297119140625</ele>
        <time>2006-01-06T12:03:58Z</time>
      </trkpt>
      <trkpt lat="45.799813270568848" lon="8.487989902496338">
        <ele>727.855224609375</ele>
        <time>2006-01-06T12:04:09Z</time>
      </trkpt>
      <trkpt lat="45.799813270568848" lon="8.488075733184815">
        <ele>725.9326171875</ele>
        <time>2006-01-06T12:04:18Z</time>
      </trkpt>
      <trkpt lat="45.799813270568848" lon="8.488290309906006">
        <ele>724.971435546875</ele>
        <time>2006-01-06T12:04:33Z</time>
      </trkpt>
      <trkpt lat="45.799813270568848" lon="8.488376140594482">
        <ele>723.529541015625</ele>
        <time>2006-01-06T12:04:47Z</time>
      </trkpt>
      <trkpt lat="45.799834728240967" lon="8.488547801971436">
        <ele>722.568115234375</ele>
        <time>2006-01-06T12:04:59Z</time>
      </trkpt>
      <trkpt lat="45.799834728240967" lon="8.488655090332031">
        <ele>721.126220703125</ele>
        <time>2006-01-06T12:05:07Z</time>
      </trkpt>
      <trkpt lat="45.799791812896729" lon="8.488762378692627">
        <ele>716.80029296875</ele>
        <time>2006-01-06T12:05:19Z</time>
      </trkpt>
      <trkpt lat="45.799727439880371" lon="8.488740921020508">
        <ele>715.8388671875</ele>
        <time>2006-01-06T12:05:26Z</time>
      </trkpt>
      <trkpt lat="45.799598693847656" lon="8.488547801971436">
        <ele>714.396728515625</ele>
        <time>2006-01-06T12:05:43Z</time>
      </trkpt>
      <trkpt lat="45.799534320831299" lon="8.488376140594482">
        <ele>711.512939453125</ele>
        <time>2006-01-06T12:05:57Z</time>
      </trkpt>
      <trkpt lat="45.799491405487061" lon="8.488204479217529">
        <ele>711.512939453125</ele>
        <time>2006-01-06T12:06:09Z</time>
      </trkpt>
      <trkpt lat="45.799405574798584" lon="8.487989902496338">
        <ele>711.0322265625</ele>
        <time>2006-01-06T12:06:26Z</time>
      </trkpt>
      <trkpt lat="45.799362659454346" lon="8.487839698791504">
        <ele>709.109619140625</ele>
        <time>2006-01-06T12:06:37Z</time>
      </trkpt>
      <trkpt lat="45.799276828765869" lon="8.487861156463623">
        <ele>706.2255859375</ele>
        <time>2006-01-06T12:06:47Z</time>
      </trkpt>
      <trkpt lat="45.799190998077393" lon="8.487968444824219">
        <ele>706.2255859375</ele>
        <time>2006-01-06T12:06:59Z</time>
      </trkpt>
      <trkpt lat="45.799169540405273" lon="8.487989902496338">
        <ele>711.512939453125</ele>
        <time>2006-01-06T12:07:09Z</time>
      </trkpt>
      <trkpt lat="45.799169540405273" lon="8.488011360168457">
        <ele>717.281005859375</ele>
        <time>2006-01-06T12:07:21Z</time>
      </trkpt>
      <trkpt lat="45.799148082733154" lon="8.488097190856934">
        <ele>711.99365234375</ele>
        <time>2006-01-06T12:09:18Z</time>
      </trkpt>
      <trkpt lat="45.799040794372559" lon="8.488204479217529">
        <ele>711.512939453125</ele>
        <time>2006-01-06T12:09:29Z</time>
      </trkpt>
      <trkpt lat="45.799040794372559" lon="8.488225936889648">
        <ele>711.512939453125</ele>
        <time>2006-01-06T12:09:30Z</time>
      </trkpt>
      <trkpt lat="45.799062252044678" lon="8.488354682922363">
        <ele>709.109619140625</ele>
        <time>2006-01-06T12:09:42Z</time>
      </trkpt>
      <trkpt lat="45.799083709716797" lon="8.488526344299316">
        <ele>706.2255859375</ele>
        <time>2006-01-06T12:09:53Z</time>
      </trkpt>
      <trkpt lat="45.799083709716797" lon="8.488762378692627">
        <ele>704.78369140625</ele>
        <time>2006-01-06T12:10:07Z</time>
      </trkpt>
      <trkpt lat="45.799062252044678" lon="8.489019870758057">
        <ele>699.015625</ele>
        <time>2006-01-06T12:10:17Z</time>
      </trkpt>
      <trkpt lat="45.798976421356201" lon="8.48919153213501">
        <ele>697.093017578125</ele>
        <time>2006-01-06T12:10:26Z</time>
      </trkpt>
      <trkpt lat="45.79876184463501" lon="8.489277362823486">
        <ele>692.28662109375</ele>
        <time>2006-01-06T12:10:38Z</time>
      </trkpt>
      <trkpt lat="45.798611640930176" lon="8.489406108856201">
        <ele>688.44140625</ele>
        <time>2006-01-06T12:10:48Z</time>
      </trkpt>
      <trkpt lat="45.798611640930176" lon="8.489663600921631">
        <ele>685.076904296875</ele>
        <time>2006-01-06T12:10:58Z</time>
      </trkpt>
      <trkpt lat="45.798654556274414" lon="8.489964008331299">
        <ele>683.15380859375</ele>
        <time>2006-01-06T12:11:07Z</time>
      </trkpt>
      <trkpt lat="45.798568725585938" lon="8.490135669708252">
        <ele>681.2314453125</ele>
        <time>2006-01-06T12:11:13Z</time>
      </trkpt>
      <trkpt lat="45.798311233520508" lon="8.490307331085205">
        <ele>679.30859375</ele>
        <time>2006-01-06T12:11:26Z</time>
      </trkpt>
      <trkpt lat="45.798053741455078" lon="8.490543365478516">
        <ele>674.98291015625</ele>
        <time>2006-01-06T12:11:37Z</time>
      </trkpt>
      <trkpt lat="45.797989368438721" lon="8.490779399871826">
        <ele>672.57958984375</ele>
        <time>2006-01-06T12:11:45Z</time>
      </trkpt>
      <trkpt lat="45.797989368438721" lon="8.49092960357666">
        <ele>667.772705078125</ele>
        <time>2006-01-06T12:11:53Z</time>
      </trkpt>
      <trkpt lat="45.797946453094482" lon="8.491036891937256">
        <ele>665.36962890625</ele>
        <time>2006-01-06T12:12:02Z</time>
      </trkpt>
      <trkpt lat="45.797967910766602" lon="8.491058349609375">
        <ele>664.408203125</ele>
        <time>2006-01-06T12:12:04Z</time>
      </trkpt>
      <trkpt lat="45.79801082611084" lon="8.491165637969971">
        <ele>659.601806640625</ele>
        <time>2006-01-06T12:12:14Z</time>
      </trkpt>
      <trkpt lat="45.79801082611084" lon="8.491230010986328">
        <ele>659.601806640625</ele>
        <time>2006-01-06T12:12:16Z</time>
      </trkpt>
      <trkpt lat="45.79801082611084" lon="8.491401672363281">
        <ele>658.640380859375</ele>
        <time>2006-01-06T12:12:27Z</time>
      </trkpt>
      <trkpt lat="45.79801082611084" lon="8.491508960723877">
        <ele>657.67919921875</ele>
        <time>2006-01-06T12:12:32Z</time>
      </trkpt>
      <trkpt lat="45.79801082611084" lon="8.491659164428711">
        <ele>653.833984375</ele>
        <time>2006-01-06T12:12:43Z</time>
      </trkpt>
      <trkpt lat="45.797946453094482" lon="8.491830825805664">
        <ele>647.585205078125</ele>
        <time>2006-01-06T12:12:59Z</time>
      </trkpt>
      <trkpt lat="45.797924995422363" lon="8.49193811416626">
        <ele>648.06591796875</ele>
        <time>2006-01-06T12:13:07Z</time>
      </trkpt>
      <trkpt lat="45.797924995422363" lon="8.492002487182617">
        <ele>647.585205078125</ele>
        <time>2006-01-06T12:13:10Z</time>
      </trkpt>
      <trkpt lat="45.797924995422363" lon="8.492152690887451">
        <ele>645.181884765625</ele>
        <time>2006-01-06T12:13:19Z</time>
      </trkpt>
      <trkpt lat="45.797946453094482" lon="8.492259979248047">
        <ele>643.739990234375</ele>
        <time>2006-01-06T12:13:31Z</time>
      </trkpt>
      <trkpt lat="45.797967910766602" lon="8.492367267608643">
        <ele>641.336669921875</ele>
        <time>2006-01-06T12:13:39Z</time>
      </trkpt>
      <trkpt lat="45.797989368438721" lon="8.492560386657715">
        <ele>639.4140625</ele>
        <time>2006-01-06T12:13:50Z</time>
      </trkpt>
      <trkpt lat="45.79801082611084" lon="8.492817878723145">
        <ele>635.568603515625</ele>
        <time>2006-01-06T12:14:05Z</time>
      </trkpt>
      <trkpt lat="45.798096656799316" lon="8.493032455444336">
        <ele>634.126708984375</ele>
        <time>2006-01-06T12:14:19Z</time>
      </trkpt>
      <trkpt lat="45.798139572143555" lon="8.493289947509766">
        <ele>633.165283203125</ele>
        <time>2006-01-06T12:14:31Z</time>
      </trkpt>
      <trkpt lat="45.798139572143555" lon="8.493633270263672">
        <ele>628.35888671875</ele>
        <time>2006-01-06T12:14:46Z</time>
      </trkpt>
      <trkpt lat="45.798096656799316" lon="8.493783473968506">
        <ele>624.994384765625</ele>
        <time>2006-01-06T12:14:55Z</time>
      </trkpt>
      <trkpt lat="45.798075199127197" lon="8.493804931640625">
        <ele>623.552490234375</ele>
        <time>2006-01-06T12:14:58Z</time>
      </trkpt>
      <trkpt lat="45.797989368438721" lon="8.494062423706055">
        <ele>619.226318359375</ele>
        <time>2006-01-06T12:15:12Z</time>
      </trkpt>
      <trkpt lat="45.797946453094482" lon="8.494105339050293">
        <ele>619.226318359375</ele>
        <time>2006-01-06T12:15:23Z</time>
      </trkpt>
      <trkpt lat="45.797882080078125" lon="8.494298458099365">
        <ele>612.0166015625</ele>
        <time>2006-01-06T12:15:34Z</time>
      </trkpt>
      <trkpt lat="45.797839164733887" lon="8.49442720413208">
        <ele>609.132568359375</ele>
        <time>2006-01-06T12:15:44Z</time>
      </trkpt>
      <trkpt lat="45.797731876373291" lon="8.494513034820557">
        <ele>605.287353515625</ele>
        <time>2006-01-06T12:15:55Z</time>
      </trkpt>
      <trkpt lat="45.797624588012695" lon="8.494555950164795">
        <ele>601.44189453125</ele>
        <time>2006-01-06T12:16:05Z</time>
      </trkpt>
      <trkpt lat="45.797560214996338" lon="8.494641780853272">
        <ele>598.077392578125</ele>
        <time>2006-01-06T12:16:13Z</time>
      </trkpt>
      <trkpt lat="45.797474384307861" lon="8.494727611541748">
        <ele>593.75146484375</ele>
        <time>2006-01-06T12:16:24Z</time>
      </trkpt>
      <trkpt lat="45.797388553619385" lon="8.494813442230225">
        <ele>589.425537109375</ele>
        <time>2006-01-06T12:16:34Z</time>
      </trkpt>
      <trkpt lat="45.797324180603027" lon="8.494877815246582">
        <ele>587.02197265625</ele>
        <time>2006-01-06T12:16:45Z</time>
      </trkpt>
      <trkpt lat="45.797238349914551" lon="8.494985103607178">
        <ele>584.13818359375</ele>
        <time>2006-01-06T12:16:56Z</time>
      </trkpt>
      <trkpt lat="45.797131061553955" lon="8.495049476623535">
        <ele>581.73486328125</ele>
        <time>2006-01-06T12:17:08Z</time>
      </trkpt>
      <trkpt lat="45.797066688537598" lon="8.495070934295654">
        <ele>579.812255859375</ele>
        <time>2006-01-06T12:17:16Z</time>
      </trkpt>
      <trkpt lat="45.79700231552124" lon="8.495113849639893">
        <ele>577.4091796875</ele>
        <time>2006-01-06T12:17:35Z</time>
      </trkpt>
      <trkpt lat="45.796937942504883" lon="8.495199680328369">
        <ele>576.928466796875</ele>
        <time>2006-01-06T12:17:45Z</time>
      </trkpt>
      <trkpt lat="45.796873569488525" lon="8.495285511016846">
        <ele>575.486328125</ele>
        <time>2006-01-06T12:17:55Z</time>
      </trkpt>
      <trkpt lat="45.79676628112793" lon="8.495349884033203">
        <ele>571.160400390625</ele>
        <time>2006-01-06T12:18:08Z</time>
      </trkpt>
      <trkpt lat="45.796723365783691" lon="8.495392799377441">
        <ele>571.160400390625</ele>
        <time>2006-01-06T12:18:17Z</time>
      </trkpt>
      <trkpt lat="45.796616077423096" lon="8.495371341705322">
        <ele>568.2763671875</ele>
        <time>2006-01-06T12:18:30Z</time>
      </trkpt>
      <trkpt lat="45.796487331390381" lon="8.495392799377441">
        <ele>565.392578125</ele>
        <time>2006-01-06T12:18:41Z</time>
      </trkpt>
      <trkpt lat="45.796380043029785" lon="8.495457172393799">
        <ele>564.911865234375</ele>
        <time>2006-01-06T12:18:52Z</time>
      </trkpt>
      <trkpt lat="45.796380043029785" lon="8.495457172393799">
        <ele>564.911865234375</ele>
        <time>2006-01-06T12:19:01Z</time>
      </trkpt>
      <trkpt lat="45.79625129699707" lon="8.495500087738037">
        <ele>576.928466796875</ele>
        <time>2006-01-06T12:22:48Z</time>
      </trkpt>
      <trkpt lat="45.796229839324951" lon="8.495478630065918">
        <ele>573.56396484375</ele>
        <time>2006-01-06T12:22:52Z</time>
      </trkpt>
      <trkpt lat="45.796208381652832" lon="8.495521545410156">
        <ele>573.083251953125</ele>
        <time>2006-01-06T12:22:57Z</time>
      </trkpt>
      <trkpt lat="45.796036720275879" lon="8.495500087738037">
        <ele>571.640869140625</ele>
        <time>2006-01-06T12:23:02Z</time>
      </trkpt>
      <trkpt lat="45.795779228210449" lon="8.49567174911499">
        <ele>569.23779296875</ele>
        <time>2006-01-06T12:23:10Z</time>
      </trkpt>
      <trkpt lat="45.795671939849854" lon="8.495800495147705">
        <ele>566.353759765625</ele>
        <time>2006-01-06T12:23:19Z</time>
      </trkpt>
      <trkpt lat="45.795650482177734" lon="8.495843410491943">
        <ele>566.353759765625</ele>
        <time>2006-01-06T12:23:21Z</time>
      </trkpt>
      <trkpt lat="45.79575777053833" lon="8.495886325836182">
        <ele>566.353759765625</ele>
        <time>2006-01-06T12:23:26Z</time>
      </trkpt>
      <trkpt lat="45.795950889587402" lon="8.496015071868897">
        <ele>566.353759765625</ele>
        <time>2006-01-06T12:23:36Z</time>
      </trkpt>
      <trkpt lat="45.796186923980713" lon="8.496229648590088">
        <ele>564.911865234375</ele>
        <time>2006-01-06T12:23:47Z</time>
      </trkpt>
      <trkpt lat="45.796380043029785" lon="8.496358394622803">
        <ele>563.469970703125</ele>
        <time>2006-01-06T12:23:56Z</time>
      </trkpt>
      <trkpt lat="45.796616077423096" lon="8.496572971343994">
        <ele>561.54736328125</ele>
        <time>2006-01-06T12:24:07Z</time>
      </trkpt>
      <trkpt lat="45.796830654144287" lon="8.496830463409424">
        <ele>559.624755859375</ele>
        <time>2006-01-06T12:24:19Z</time>
      </trkpt>
      <trkpt lat="45.797045230865479" lon="8.497045040130615">
        <ele>559.14404296875</ele>
        <time>2006-01-06T12:24:30Z</time>
      </trkpt>
      <trkpt lat="45.797216892242432" lon="8.497302532196045">
        <ele>559.624755859375</ele>
        <time>2006-01-06T12:24:40Z</time>
      </trkpt>
      <trkpt lat="45.797367095947266" lon="8.49766731262207">
        <ele>559.624755859375</ele>
        <time>2006-01-06T12:24:53Z</time>
      </trkpt>
      <trkpt lat="45.797388553619385" lon="8.49768877029419">
        <ele>559.624755859375</ele>
        <time>2006-01-06T12:24:55Z</time>
      </trkpt>
      <trkpt lat="45.797581672668457" lon="8.497710227966309">
        <ele>559.624755859375</ele>
        <time>2006-01-06T12:25:02Z</time>
      </trkpt>
      <trkpt lat="45.79775333404541" lon="8.497624397277832">
        <ele>559.624755859375</ele>
        <time>2006-01-06T12:25:09Z</time>
      </trkpt>
      <trkpt lat="45.797924995422363" lon="8.49766731262207">
        <ele>559.624755859375</ele>
        <time>2006-01-06T12:25:17Z</time>
      </trkpt>
      <trkpt lat="45.798053741455078" lon="8.497517108917236">
        <ele>559.624755859375</ele>
        <time>2006-01-06T12:25:26Z</time>
      </trkpt>
      <trkpt lat="45.798139572143555" lon="8.497474193572998">
        <ele>559.624755859375</ele>
        <time>2006-01-06T12:25:35Z</time>
      </trkpt>
      <trkpt lat="45.798182487487793" lon="8.497452735900879">
        <ele>562.9892578125</ele>
        <time>2006-01-06T12:25:54Z</time>
      </trkpt>
      <trkpt lat="45.798332691192627" lon="8.497409820556641">
        <ele>564.911865234375</ele>
        <time>2006-01-06T12:26:06Z</time>
      </trkpt>
      <trkpt lat="45.798439979553223" lon="8.497345447540283">
        <ele>563.469970703125</ele>
        <time>2006-01-06T12:26:16Z</time>
      </trkpt>
      <trkpt lat="45.79850435256958" lon="8.497281074523926">
        <ele>562.9892578125</ele>
        <time>2006-01-06T12:26:24Z</time>
      </trkpt>
      <trkpt lat="45.798568725585938" lon="8.497323989868164">
        <ele>562.508544921875</ele>
        <time>2006-01-06T12:26:30Z</time>
      </trkpt>
      <trkpt lat="45.798611640930176" lon="8.497517108917236">
        <ele>561.066650390625</ele>
        <time>2006-01-06T12:26:44Z</time>
      </trkpt>
      <trkpt lat="45.798718929290771" lon="8.497645854949951">
        <ele>562.9892578125</ele>
        <time>2006-01-06T12:26:55Z</time>
      </trkpt>
      <trkpt lat="45.798933506011963" lon="8.497796058654785">
        <ele>566.83447265625</ele>
        <time>2006-01-06T12:27:08Z</time>
      </trkpt>
      <trkpt lat="45.799212455749512" lon="8.497903347015381">
        <ele>564.43115234375</ele>
        <time>2006-01-06T12:27:20Z</time>
      </trkpt>
      <trkpt lat="45.79951286315918" lon="8.497881889343262">
        <ele>562.508544921875</ele>
        <time>2006-01-06T12:27:32Z</time>
      </trkpt>
      <trkpt lat="45.799598693847656" lon="8.497903347015381">
        <ele>562.028076171875</ele>
        <time>2006-01-06T12:27:38Z</time>
      </trkpt>
      <trkpt lat="45.799663066864014" lon="8.4979248046875">
        <ele>562.028076171875</ele>
        <time>2006-01-06T12:27:45Z</time>
      </trkpt>
      <trkpt lat="45.799813270568848" lon="8.497967720031738">
        <ele>563.950439453125</ele>
        <time>2006-01-06T12:27:57Z</time>
      </trkpt>
      <trkpt lat="45.799920558929443" lon="8.497989177703857">
        <ele>564.43115234375</ele>
        <time>2006-01-06T12:28:08Z</time>
      </trkpt>
      <trkpt lat="45.800027847290039" lon="8.498075008392334">
        <ele>567.315185546875</ele>
        <time>2006-01-06T12:28:20Z</time>
      </trkpt>
      <trkpt lat="45.800178050994873" lon="8.498117923736572">
        <ele>569.23779296875</ele>
        <time>2006-01-06T12:28:33Z</time>
      </trkpt>
      <trkpt lat="45.800285339355469" lon="8.498139381408691">
        <ele>569.718505859375</ele>
        <time>2006-01-06T12:28:43Z</time>
      </trkpt>
      <trkpt lat="45.800414085388184" lon="8.498203754425049">
        <ele>568.2763671875</ele>
        <time>2006-01-06T12:28:54Z</time>
      </trkpt>
      <trkpt lat="45.800542831420898" lon="8.498289585113525">
        <ele>566.83447265625</ele>
        <time>2006-01-06T12:29:06Z</time>
      </trkpt>
      <trkpt lat="45.800693035125732" lon="8.498311042785645">
        <ele>568.2763671875</ele>
        <time>2006-01-06T12:29:17Z</time>
      </trkpt>
      <trkpt lat="45.800800323486328" lon="8.498353958129883">
        <ele>565.873291015625</ele>
        <time>2006-01-06T12:29:26Z</time>
      </trkpt>
      <trkpt lat="45.800907611846924" lon="8.498439788818359">
        <ele>565.392578125</ele>
        <time>2006-01-06T12:29:38Z</time>
      </trkpt>
      <trkpt lat="45.8009934425354" lon="8.498589992523193">
        <ele>566.353759765625</ele>
        <time>2006-01-06T12:29:49Z</time>
      </trkpt>
      <trkpt lat="45.801079273223877" lon="8.498740196228027">
        <ele>565.392578125</ele>
        <time>2006-01-06T12:30:00Z</time>
      </trkpt>
      <trkpt lat="45.801143646240234" lon="8.498847484588623">
        <ele>566.353759765625</ele>
        <time>2006-01-06T12:30:08Z</time>
      </trkpt>
      <trkpt lat="45.801293849945068" lon="8.498868942260742">
        <ele>566.353759765625</ele>
        <time>2006-01-06T12:30:19Z</time>
      </trkpt>
      <trkpt lat="45.801422595977783" lon="8.498890399932861">
        <ele>567.795654296875</ele>
        <time>2006-01-06T12:30:31Z</time>
      </trkpt>
      <trkpt lat="45.801486968994141" lon="8.498868942260742">
        <ele>568.2763671875</ele>
        <time>2006-01-06T12:30:37Z</time>
      </trkpt>
      <trkpt lat="45.801594257354736" lon="8.498976230621338">
        <ele>565.873291015625</ele>
        <time>2006-01-06T12:30:50Z</time>
      </trkpt>
      <trkpt lat="45.801658630371094" lon="8.499104976654053">
        <ele>566.83447265625</ele>
        <time>2006-01-06T12:31:01Z</time>
      </trkpt>
      <trkpt lat="45.801723003387451" lon="8.499233722686768">
        <ele>568.2763671875</ele>
        <time>2006-01-06T12:31:12Z</time>
      </trkpt>
      <trkpt lat="45.801787376403809" lon="8.499383926391602">
        <ele>570.6796875</ele>
        <time>2006-01-06T12:31:25Z</time>
      </trkpt>
      <trkpt lat="45.801830291748047" lon="8.499512672424316">
        <ele>570.6796875</ele>
        <time>2006-01-06T12:31:36Z</time>
      </trkpt>
      <trkpt lat="45.801851749420166" lon="8.49966287612915">
        <ele>571.640869140625</ele>
        <time>2006-01-06T12:31:47Z</time>
      </trkpt>
      <trkpt lat="45.801830291748047" lon="8.499791622161865">
        <ele>571.160400390625</ele>
        <time>2006-01-06T12:31:57Z</time>
      </trkpt>
      <trkpt lat="45.801830291748047" lon="8.499877452850342">
        <ele>570.198974609375</ele>
        <time>2006-01-06T12:32:02Z</time>
      </trkpt>
      <trkpt lat="45.801894664764404" lon="8.500027656555176">
        <ele>569.718505859375</ele>
        <time>2006-01-06T12:32:14Z</time>
      </trkpt>
      <trkpt lat="45.802023410797119" lon="8.500134944915772">
        <ele>572.121826171875</ele>
        <time>2006-01-06T12:32:27Z</time>
      </trkpt>
      <trkpt lat="45.802130699157715" lon="8.50017786026001">
        <ele>572.121826171875</ele>
        <time>2006-01-06T12:32:39Z</time>
      </trkpt>
      <trkpt lat="45.802237987518311" lon="8.500156402587891">
        <ele>571.640869140625</ele>
        <time>2006-01-06T12:32:49Z</time>
      </trkpt>
      <trkpt lat="45.802366733551025" lon="8.500134944915772">
        <ele>570.6796875</ele>
        <time>2006-01-06T12:33:01Z</time>
      </trkpt>
      <trkpt lat="45.802452564239502" lon="8.500134944915772">
        <ele>571.160400390625</ele>
        <time>2006-01-06T12:33:09Z</time>
      </trkpt>
      <trkpt lat="45.802538394927979" lon="8.500199317932129">
        <ele>570.6796875</ele>
        <time>2006-01-06T12:33:18Z</time>
      </trkpt>
      <trkpt lat="45.802602767944336" lon="8.500349521636963">
        <ele>573.083251953125</ele>
        <time>2006-01-06T12:33:30Z</time>
      </trkpt>
      <trkpt lat="45.802624225616455" lon="8.500392436981201">
        <ele>573.083251953125</ele>
        <time>2006-01-06T12:33:32Z</time>
      </trkpt>
      <trkpt lat="45.802602767944336" lon="8.500607013702393">
        <ele>573.56396484375</ele>
        <time>2006-01-06T12:33:44Z</time>
      </trkpt>
      <trkpt lat="45.802624225616455" lon="8.500757217407227">
        <ele>572.121826171875</ele>
        <time>2006-01-06T12:33:54Z</time>
      </trkpt>
      <trkpt lat="45.802710056304932" lon="8.500885963439941">
        <ele>571.640869140625</ele>
        <time>2006-01-06T12:34:05Z</time>
      </trkpt>
      <trkpt lat="45.802817344665527" lon="8.500950336456299">
        <ele>571.160400390625</ele>
        <time>2006-01-06T12:34:15Z</time>
      </trkpt>
      <trkpt lat="45.802881717681885" lon="8.501014709472656">
        <ele>570.6796875</ele>
        <time>2006-01-06T12:34:24Z</time>
      </trkpt>
      <trkpt lat="45.802946090698242" lon="8.501057624816895">
        <ele>574.525146484375</ele>
        <time>2006-01-06T12:34:34Z</time>
      </trkpt>
      <trkpt lat="45.803074836730957" lon="8.501143455505371">
        <ele>579.812255859375</ele>
        <time>2006-01-06T12:34:46Z</time>
      </trkpt>
      <trkpt lat="45.803160667419434" lon="8.501229286193848">
        <ele>582.6962890625</ele>
        <time>2006-01-06T12:34:57Z</time>
      </trkpt>
      <trkpt lat="45.803225040435791" lon="8.501315116882324">
        <ele>583.1767578125</ele>
        <time>2006-01-06T12:35:06Z</time>
      </trkpt>
      <trkpt lat="45.803310871124268" lon="8.501443862915039">
        <ele>582.215576171875</ele>
        <time>2006-01-06T12:35:17Z</time>
      </trkpt>
      <trkpt lat="45.803396701812744" lon="8.501529693603516">
        <ele>582.6962890625</ele>
        <time>2006-01-06T12:35:28Z</time>
      </trkpt>
      <trkpt lat="45.803482532501221" lon="8.501636981964111">
        <ele>579.33154296875</ele>
        <time>2006-01-06T12:35:39Z</time>
      </trkpt>
      <trkpt lat="45.803611278533936" lon="8.501722812652588">
        <ele>579.812255859375</ele>
        <time>2006-01-06T12:35:52Z</time>
      </trkpt>
      <trkpt lat="45.803697109222412" lon="8.501787185668945">
        <ele>578.85107421875</ele>
        <time>2006-01-06T12:36:01Z</time>
      </trkpt>
      <trkpt lat="45.803782939910889" lon="8.501894474029541">
        <ele>578.85107421875</ele>
        <time>2006-01-06T12:36:11Z</time>
      </trkpt>
      <trkpt lat="45.803868770599365" lon="8.502023220062256">
        <ele>579.812255859375</ele>
        <time>2006-01-06T12:36:23Z</time>
      </trkpt>
      <trkpt lat="45.803954601287842" lon="8.502151966094971">
        <ele>580.773681640625</ele>
        <time>2006-01-06T12:36:35Z</time>
      </trkpt>
      <trkpt lat="45.804040431976318" lon="8.502280712127686">
        <ele>581.25439453125</ele>
        <time>2006-01-06T12:36:47Z</time>
      </trkpt>
      <trkpt lat="45.804083347320557" lon="8.50243091583252">
        <ele>579.33154296875</ele>
        <time>2006-01-06T12:36:58Z</time>
      </trkpt>
      <trkpt lat="45.804083347320557" lon="8.502581119537354">
        <ele>576.44775390625</ele>
        <time>2006-01-06T12:37:08Z</time>
      </trkpt>
      <trkpt lat="45.804061889648438" lon="8.502624034881592">
        <ele>576.928466796875</ele>
        <time>2006-01-06T12:37:13Z</time>
      </trkpt>
      <trkpt lat="45.804040431976318" lon="8.502645492553711">
        <ele>577.4091796875</ele>
        <time>2006-01-06T12:37:15Z</time>
      </trkpt>
      <trkpt lat="45.803954601287842" lon="8.502709865570068">
        <ele>578.85107421875</ele>
        <time>2006-01-06T12:37:24Z</time>
      </trkpt>
      <trkpt lat="45.803868770599365" lon="8.502860069274902">
        <ele>579.33154296875</ele>
        <time>2006-01-06T12:37:36Z</time>
      </trkpt>
      <trkpt lat="45.803804397583008" lon="8.502967357635498">
        <ele>580.29296875</ele>
        <time>2006-01-06T12:37:47Z</time>
      </trkpt>
      <trkpt lat="45.80376148223877" lon="8.503010272979736">
        <ele>581.25439453125</ele>
        <time>2006-01-06T12:37:53Z</time>
      </trkpt>
      <trkpt lat="45.803697109222412" lon="8.503096103668213">
        <ele>584.13818359375</ele>
        <time>2006-01-06T12:38:03Z</time>
      </trkpt>
      <trkpt lat="45.803697109222412" lon="8.503117561340332">
        <ele>584.618896484375</ele>
        <time>2006-01-06T12:38:04Z</time>
      </trkpt>
      <trkpt lat="45.803675651550293" lon="8.503246307373047">
        <ele>583.657470703125</ele>
        <time>2006-01-06T12:38:15Z</time>
      </trkpt>
      <trkpt lat="45.803675651550293" lon="8.503353595733643">
        <ele>586.54150390625</ele>
        <time>2006-01-06T12:38:23Z</time>
      </trkpt>
      <trkpt lat="45.803697109222412" lon="8.503503799438477">
        <ele>587.502685546875</ele>
        <time>2006-01-06T12:38:35Z</time>
      </trkpt>
      <trkpt lat="45.803782939910889" lon="8.503696918487549">
        <ele>587.02197265625</ele>
        <time>2006-01-06T12:38:47Z</time>
      </trkpt>
      <trkpt lat="45.803911685943604" lon="8.503997325897217">
        <ele>589.425537109375</ele>
        <time>2006-01-06T12:38:58Z</time>
      </trkpt>
      <trkpt lat="45.804083347320557" lon="8.504469394683838">
        <ele>590.386962890625</ele>
        <time>2006-01-06T12:39:13Z</time>
      </trkpt>
      <trkpt lat="45.804212093353271" lon="8.504898548126221">
        <ele>590.867431640625</ele>
        <time>2006-01-06T12:39:27Z</time>
      </trkpt>
      <trkpt lat="45.804383754730225" lon="8.505306243896484">
        <ele>588.945068359375</ele>
        <time>2006-01-06T12:39:41Z</time>
      </trkpt>
      <trkpt lat="45.804383754730225" lon="8.505327701568604">
        <ele>590.386962890625</ele>
        <time>2006-01-06T12:39:45Z</time>
      </trkpt>
      <trkpt lat="45.804426670074463" lon="8.505434989929199">
        <ele>590.867431640625</ele>
        <time>2006-01-06T12:39:54Z</time>
      </trkpt>
      <trkpt lat="45.804426670074463" lon="8.505542278289795">
        <ele>592.3095703125</ele>
        <time>2006-01-06T12:40:03Z</time>
      </trkpt>
      <trkpt lat="45.80449104309082" lon="8.50567102432251">
        <ele>594.232177734375</ele>
        <time>2006-01-06T12:40:15Z</time>
      </trkpt>
      <trkpt lat="45.804512500762939" lon="8.505778312683106">
        <ele>594.232177734375</ele>
        <time>2006-01-06T12:40:24Z</time>
      </trkpt>
      <trkpt lat="45.804533958435059" lon="8.505821228027344">
        <ele>594.232177734375</ele>
        <time>2006-01-06T12:40:32Z</time>
      </trkpt>
      <trkpt lat="45.804533958435059" lon="8.50590705871582">
        <ele>594.232177734375</ele>
        <time>2006-01-06T12:40:47Z</time>
      </trkpt>
      <trkpt lat="45.804533958435059" lon="8.505949974060059">
        <ele>593.75146484375</ele>
        <time>2006-01-06T12:40:50Z</time>
      </trkpt>
      <trkpt lat="45.804533958435059" lon="8.506143093109131">
        <ele>592.3095703125</ele>
        <time>2006-01-06T12:41:04Z</time>
      </trkpt>
      <trkpt lat="45.804512500762939" lon="8.506314754486084">
        <ele>591.828857421875</ele>
        <time>2006-01-06T12:41:15Z</time>
      </trkpt>
      <trkpt lat="45.80449104309082" lon="8.506486415863037">
        <ele>596.15478515625</ele>
        <time>2006-01-06T12:41:26Z</time>
      </trkpt>
      <trkpt lat="45.804469585418701" lon="8.506615161895752">
        <ele>594.232177734375</ele>
        <time>2006-01-06T12:41:36Z</time>
      </trkpt>
      <trkpt lat="45.804469585418701" lon="8.506679534912109">
        <ele>593.75146484375</ele>
        <time>2006-01-06T12:41:40Z</time>
      </trkpt>
      <trkpt lat="45.804512500762939" lon="8.506743907928467">
        <ele>592.790283203125</ele>
        <time>2006-01-06T12:41:45Z</time>
      </trkpt>
      <trkpt lat="45.804619789123535" lon="8.506808280944824">
        <ele>594.232177734375</ele>
        <time>2006-01-06T12:41:56Z</time>
      </trkpt>
      <trkpt lat="45.804705619812012" lon="8.506937026977539">
        <ele>596.15478515625</ele>
        <time>2006-01-06T12:42:08Z</time>
      </trkpt>
      <trkpt lat="45.804727077484131" lon="8.506979942321777">
        <ele>595.193359375</ele>
        <time>2006-01-06T12:42:12Z</time>
      </trkpt>
      <trkpt lat="45.804705619812012" lon="8.507151603698731">
        <ele>593.75146484375</ele>
        <time>2006-01-06T12:42:23Z</time>
      </trkpt>
      <trkpt lat="45.804662704467773" lon="8.507537841796875">
        <ele>592.790283203125</ele>
        <time>2006-01-06T12:42:36Z</time>
      </trkpt>
      <trkpt lat="45.804662704467773" lon="8.5079026222229">
        <ele>593.75146484375</ele>
        <time>2006-01-06T12:42:49Z</time>
      </trkpt>
      <trkpt lat="45.804791450500488" lon="8.508224487304688">
        <ele>592.3095703125</ele>
        <time>2006-01-06T12:43:02Z</time>
      </trkpt>
      <trkpt lat="45.804963111877441" lon="8.50841760635376">
        <ele>592.3095703125</ele>
        <time>2006-01-06T12:43:12Z</time>
      </trkpt>
      <trkpt lat="45.805199146270752" lon="8.508610725402832">
        <ele>593.270751953125</ele>
        <time>2006-01-06T12:43:24Z</time>
      </trkpt>
      <trkpt lat="45.805456638336182" lon="8.508825302124023">
        <ele>593.270751953125</ele>
        <time>2006-01-06T12:43:37Z</time>
      </trkpt>
      <trkpt lat="45.805649757385254" lon="8.509104251861572">
        <ele>593.270751953125</ele>
        <time>2006-01-06T12:43:49Z</time>
      </trkpt>
      <trkpt lat="45.805842876434326" lon="8.50916862487793">
        <ele>593.75146484375</ele>
        <time>2006-01-06T12:43:57Z</time>
      </trkpt>
      <trkpt lat="45.806100368499756" lon="8.509232997894287">
        <ele>595.674072265625</ele>
        <time>2006-01-06T12:44:09Z</time>
      </trkpt>
      <trkpt lat="45.806272029876709" lon="8.509361743927002">
        <ele>596.635498046875</ele>
        <time>2006-01-06T12:44:19Z</time>
      </trkpt>
      <trkpt lat="45.806293487548828" lon="8.509447574615479">
        <ele>597.115966796875</ele>
        <time>2006-01-06T12:44:26Z</time>
      </trkpt>
      <trkpt lat="45.806293487548828" lon="8.509447574615479">
        <ele>599.03857421875</ele>
        <time>2006-01-06T12:45:05Z</time>
      </trkpt>
      <trkpt lat="45.806293487548828" lon="8.509511947631836">
        <ele>601.44189453125</ele>
        <time>2006-01-06T12:45:45Z</time>
      </trkpt>
      <trkpt lat="45.80625057220459" lon="8.509619235992432">
        <ele>602.403076171875</ele>
        <time>2006-01-06T12:45:51Z</time>
      </trkpt>
      <trkpt lat="45.806186199188232" lon="8.509790897369385">
        <ele>600</ele>
        <time>2006-01-06T12:45:59Z</time>
      </trkpt>
      <trkpt lat="45.806293487548828" lon="8.509962558746338">
        <ele>600.961181640625</ele>
        <time>2006-01-06T12:46:07Z</time>
      </trkpt>
      <trkpt lat="45.806422233581543" lon="8.510198593139648">
        <ele>602.403076171875</ele>
        <time>2006-01-06T12:46:18Z</time>
      </trkpt>
      <trkpt lat="45.806572437286377" lon="8.510434627532959">
        <ele>603.84521484375</ele>
        <time>2006-01-06T12:46:29Z</time>
      </trkpt>
      <trkpt lat="45.806722640991211" lon="8.510606288909912">
        <ele>604.806640625</ele>
        <time>2006-01-06T12:46:39Z</time>
      </trkpt>
      <trkpt lat="45.806851387023926" lon="8.510820865631104">
        <ele>602.8837890625</ele>
        <time>2006-01-06T12:46:45Z</time>
      </trkpt>
      <trkpt lat="45.807108879089355" lon="8.511357307434082">
        <ele>601.922607421875</ele>
        <time>2006-01-06T12:46:55Z</time>
      </trkpt>
      <trkpt lat="45.807173252105713" lon="8.511443138122559">
        <ele>601.922607421875</ele>
        <time>2006-01-06T12:46:57Z</time>
      </trkpt>
      <trkpt lat="45.807430744171143" lon="8.511807918548584">
        <ele>601.922607421875</ele>
        <time>2006-01-06T12:47:07Z</time>
      </trkpt>
      <trkpt lat="45.807559490203857" lon="8.512001037597656">
        <ele>600.961181640625</ele>
        <time>2006-01-06T12:47:14Z</time>
      </trkpt>
      <trkpt lat="45.807602405548096" lon="8.512043952941895">
        <ele>599.03857421875</ele>
        <time>2006-01-06T12:47:17Z</time>
      </trkpt>
      <trkpt lat="45.807645320892334" lon="8.512129783630371">
        <ele>597.5966796875</ele>
        <time>2006-01-06T12:47:22Z</time>
      </trkpt>
      <trkpt lat="45.807709693908691" lon="8.512022495269775">
        <ele>597.5966796875</ele>
        <time>2006-01-06T12:47:27Z</time>
      </trkpt>
      <trkpt lat="45.807881355285645" lon="8.511700630187988">
        <ele>597.5966796875</ele>
        <time>2006-01-06T12:47:37Z</time>
      </trkpt>
      <trkpt lat="45.808074474334717" lon="8.511486053466797">
        <ele>597.5966796875</ele>
        <time>2006-01-06T12:47:46Z</time>
      </trkpt>
      <trkpt lat="45.808310508728027" lon="8.511185646057129">
        <ele>597.5966796875</ele>
        <time>2006-01-06T12:47:58Z</time>
      </trkpt>
      <trkpt lat="45.8085036277771" lon="8.511056900024414">
        <ele>605.287353515625</ele>
        <time>2006-01-06T12:56:05Z</time>
      </trkpt>
      <trkpt lat="45.808525085449219" lon="8.511078357696533">
        <ele>605.76806640625</ele>
        <time>2006-01-06T12:56:07Z</time>
      </trkpt>
      <trkpt lat="45.808610916137695" lon="8.511207103729248">
        <ele>607.690673828125</ele>
        <time>2006-01-06T12:56:20Z</time>
      </trkpt>
      <trkpt lat="45.808653831481934" lon="8.511292934417725">
        <ele>609.132568359375</ele>
        <time>2006-01-06T12:56:27Z</time>
      </trkpt>
      <trkpt lat="45.80873966217041" lon="8.511528968811035">
        <ele>610.574462890625</ele>
        <time>2006-01-06T12:56:35Z</time>
      </trkpt>
      <trkpt lat="45.808889865875244" lon="8.511829376220703">
        <ele>611.535888671875</ele>
        <time>2006-01-06T12:56:46Z</time>
      </trkpt>
      <trkpt lat="45.809061527252197" lon="8.512194156646729">
        <ele>611.535888671875</ele>
        <time>2006-01-06T12:56:58Z</time>
      </trkpt>
      <trkpt lat="45.809211730957031" lon="8.512516021728516">
        <ele>611.535888671875</ele>
        <time>2006-01-06T12:57:10Z</time>
      </trkpt>
      <trkpt lat="45.809340476989746" lon="8.512837886810303">
        <ele>611.535888671875</ele>
        <time>2006-01-06T12:57:21Z</time>
      </trkpt>
      <trkpt lat="45.809469223022461" lon="8.513116836547852">
        <ele>612.4970703125</ele>
        <time>2006-01-06T12:57:31Z</time>
      </trkpt>
      <trkpt lat="45.809619426727295" lon="8.513460159301758">
        <ele>613.45849609375</ele>
        <time>2006-01-06T12:57:44Z</time>
      </trkpt>
      <trkpt lat="45.809705257415771" lon="8.513674736022949">
        <ele>613.93896484375</ele>
        <time>2006-01-06T12:57:52Z</time>
      </trkpt>
      <trkpt lat="45.809855461120605" lon="8.513975143432617">
        <ele>613.45849609375</ele>
        <time>2006-01-06T12:58:03Z</time>
      </trkpt>
      <trkpt lat="45.810048580169678" lon="8.514275550842285">
        <ele>613.93896484375</ele>
        <time>2006-01-06T12:58:15Z</time>
      </trkpt>
      <trkpt lat="45.810220241546631" lon="8.514554500579834">
        <ele>614.900390625</ele>
        <time>2006-01-06T12:58:25Z</time>
      </trkpt>
      <trkpt lat="45.810348987579346" lon="8.51489782333374">
        <ele>615.381103515625</ele>
        <time>2006-01-06T12:58:36Z</time>
      </trkpt>
      <trkpt lat="45.81049919128418" lon="8.515305519104004">
        <ele>616.34228515625</ele>
        <time>2006-01-06T12:58:49Z</time>
      </trkpt>
      <trkpt lat="45.810692310333252" lon="8.515520095825195">
        <ele>614.900390625</ele>
        <time>2006-01-06T12:58:57Z</time>
      </trkpt>
      <trkpt lat="45.810949802398682" lon="8.515756130218506">
        <ele>613.45849609375</ele>
        <time>2006-01-06T12:59:03Z</time>
      </trkpt>
      <trkpt lat="45.81122875213623" lon="8.51590633392334">
        <ele>613.93896484375</ele>
        <time>2006-01-06T12:59:11Z</time>
      </trkpt>
      <trkpt lat="45.811593532562256" lon="8.516228199005127">
        <ele>612.977783203125</ele>
        <time>2006-01-06T12:59:24Z</time>
      </trkpt>
      <trkpt lat="45.812280178070068" lon="8.51639986038208">
        <ele>612.977783203125</ele>
        <time>2006-01-06T12:59:35Z</time>
      </trkpt>
      <trkpt lat="45.812473297119141" lon="8.51639986038208">
        <ele>612.0166015625</ele>
        <time>2006-01-06T12:59:38Z</time>
      </trkpt>
      <trkpt lat="45.812644958496094" lon="8.516442775726318">
        <ele>611.535888671875</ele>
        <time>2006-01-06T12:59:43Z</time>
      </trkpt>
      <trkpt lat="45.813009738922119" lon="8.516485691070557">
        <ele>612.0166015625</ele>
        <time>2006-01-06T12:59:52Z</time>
      </trkpt>
      <trkpt lat="45.813395977020264" lon="8.51665735244751">
        <ele>610.574462890625</ele>
        <time>2006-01-06T13:00:06Z</time>
      </trkpt>
      <trkpt lat="45.813782215118408" lon="8.516700267791748">
        <ele>611.05517578125</ele>
        <time>2006-01-06T13:00:19Z</time>
      </trkpt>
      <trkpt lat="45.814189910888672" lon="8.516571521759033">
        <ele>615.86181640625</ele>
        <time>2006-01-06T13:00:35Z</time>
      </trkpt>
      <trkpt lat="45.814404487609863" lon="8.516635894775391">
        <ele>615.86181640625</ele>
        <time>2006-01-06T13:00:44Z</time>
      </trkpt>
      <trkpt lat="45.814554691314697" lon="8.51689338684082">
        <ele>616.822998046875</ele>
        <time>2006-01-06T13:00:53Z</time>
      </trkpt>
      <trkpt lat="45.81474781036377" lon="8.517215251922607">
        <ele>616.822998046875</ele>
        <time>2006-01-06T13:01:05Z</time>
      </trkpt>
      <trkpt lat="45.815069675445557" lon="8.517537117004395">
        <ele>615.86181640625</ele>
        <time>2006-01-06T13:01:18Z</time>
      </trkpt>
      <trkpt lat="45.815498828887939" lon="8.51790189743042">
        <ele>615.381103515625</ele>
        <time>2006-01-06T13:01:33Z</time>
      </trkpt>
      <trkpt lat="45.815885066986084" lon="8.518202304840088">
        <ele>615.381103515625</ele>
        <time>2006-01-06T13:01:47Z</time>
      </trkpt>
      <trkpt lat="45.816142559051514" lon="8.518331050872803">
        <ele>613.93896484375</ele>
        <time>2006-01-06T13:01:57Z</time>
      </trkpt>
      <trkpt lat="45.81648588180542" lon="8.518524169921875">
        <ele>612.977783203125</ele>
        <time>2006-01-06T13:02:09Z</time>
      </trkpt>
      <trkpt lat="45.81674337387085" lon="8.518867492675781">
        <ele>612.977783203125</ele>
        <time>2006-01-06T13:02:19Z</time>
      </trkpt>
      <trkpt lat="45.816957950592041" lon="8.519296646118164">
        <ele>613.45849609375</ele>
        <time>2006-01-06T13:02:29Z</time>
      </trkpt>
      <trkpt lat="45.817215442657471" lon="8.519682884216309">
        <ele>614.419677734375</ele>
        <time>2006-01-06T13:02:40Z</time>
      </trkpt>
      <trkpt lat="45.817387104034424" lon="8.519876003265381">
        <ele>614.419677734375</ele>
        <time>2006-01-06T13:02:49Z</time>
      </trkpt>
      <trkpt lat="45.817451477050781" lon="8.519940376281738">
        <ele>614.900390625</ele>
        <time>2006-01-06T13:02:52Z</time>
      </trkpt>
      <trkpt lat="45.817558765411377" lon="8.519833087921143">
        <ele>615.86181640625</ele>
        <time>2006-01-06T13:02:57Z</time>
      </trkpt>
      <trkpt lat="45.817751884460449" lon="8.519554138183594">
        <ele>617.3037109375</ele>
        <time>2006-01-06T13:03:08Z</time>
      </trkpt>
      <trkpt lat="45.817923545837402" lon="8.519318103790283">
        <ele>618.264892578125</ele>
        <time>2006-01-06T13:03:20Z</time>
      </trkpt>
      <trkpt lat="45.818009376525879" lon="8.519189357757568">
        <ele>620.187744140625</ele>
        <time>2006-01-06T13:03:28Z</time>
      </trkpt>
      <trkpt lat="45.818159580230713" lon="8.519082069396973">
        <ele>622.591064453125</ele>
        <time>2006-01-06T13:03:38Z</time>
      </trkpt>
      <trkpt lat="45.818309783935547" lon="8.519103527069092">
        <ele>623.552490234375</ele>
        <time>2006-01-06T13:03:45Z</time>
      </trkpt>
      <trkpt lat="45.818459987640381" lon="8.519167900085449">
        <ele>623.07177734375</ele>
        <time>2006-01-06T13:03:52Z</time>
      </trkpt>
      <trkpt lat="45.818588733673096" lon="8.519232273101807">
        <ele>623.552490234375</ele>
        <time>2006-01-06T13:04:01Z</time>
      </trkpt>
      <trkpt lat="45.81873893737793" lon="8.519339561462402">
        <ele>624.032958984375</ele>
        <time>2006-01-06T13:04:09Z</time>
      </trkpt>
      <trkpt lat="45.818996429443359" lon="8.519575595855713">
        <ele>624.994384765625</ele>
        <time>2006-01-06T13:04:22Z</time>
      </trkpt>
      <trkpt lat="45.819318294525146" lon="8.519811630249023">
        <ele>625.95556640625</ele>
        <time>2006-01-06T13:04:36Z</time>
      </trkpt>
      <trkpt lat="45.81946849822998" lon="8.519876003265381">
        <ele>624.994384765625</ele>
        <time>2006-01-06T13:04:42Z</time>
      </trkpt>
      <trkpt lat="45.819511413574219" lon="8.519983291625977">
        <ele>624.994384765625</ele>
        <time>2006-01-06T13:04:46Z</time>
      </trkpt>
      <trkpt lat="45.819532871246338" lon="8.52039098739624">
        <ele>624.513671875</ele>
        <time>2006-01-06T13:04:56Z</time>
      </trkpt>
      <trkpt lat="45.819511413574219" lon="8.520712852478027">
        <ele>622.591064453125</ele>
        <time>2006-01-06T13:05:04Z</time>
      </trkpt>
      <trkpt lat="45.819511413574219" lon="8.520884513854981">
        <ele>622.1103515625</ele>
        <time>2006-01-06T13:05:08Z</time>
      </trkpt>
      <trkpt lat="45.819683074951172" lon="8.521056175231934">
        <ele>621.149169921875</ele>
        <time>2006-01-06T13:05:16Z</time>
      </trkpt>
      <trkpt lat="45.820004940032959" lon="8.521206378936768">
        <ele>620.66845703125</ele>
        <time>2006-01-06T13:05:29Z</time>
      </trkpt>
      <trkpt lat="45.820262432098389" lon="8.521184921264648">
        <ele>621.149169921875</ele>
        <time>2006-01-06T13:05:39Z</time>
      </trkpt>
      <trkpt lat="45.820519924163818" lon="8.521034717559815">
        <ele>620.66845703125</ele>
        <time>2006-01-06T13:05:50Z</time>
      </trkpt>
      <trkpt lat="45.820777416229248" lon="8.520841598510742">
        <ele>620.66845703125</ele>
        <time>2006-01-06T13:06:01Z</time>
      </trkpt>
      <trkpt lat="45.820991992950439" lon="8.520669937133789">
        <ele>623.552490234375</ele>
        <time>2006-01-06T13:06:11Z</time>
      </trkpt>
      <trkpt lat="45.821142196655273" lon="8.520498275756836">
        <ele>623.07177734375</ele>
        <time>2006-01-06T13:06:19Z</time>
      </trkpt>
      <trkpt lat="45.821335315704346" lon="8.520176410675049">
        <ele>622.1103515625</ele>
        <time>2006-01-06T13:06:30Z</time>
      </trkpt>
      <trkpt lat="45.82148551940918" lon="8.520026206970215">
        <ele>622.1103515625</ele>
        <time>2006-01-06T13:06:38Z</time>
      </trkpt>
      <trkpt lat="45.821657180786133" lon="8.519833087921143">
        <ele>620.187744140625</ele>
        <time>2006-01-06T13:06:49Z</time>
      </trkpt>
      <trkpt lat="45.821850299835205" lon="8.519704341888428">
        <ele>621.149169921875</ele>
        <time>2006-01-06T13:07:02Z</time>
      </trkpt>
      <trkpt lat="45.822000503540039" lon="8.51966142654419">
        <ele>621.149169921875</ele>
        <time>2006-01-06T13:07:13Z</time>
      </trkpt>
      <trkpt lat="45.822043418884277" lon="8.519618511199951">
        <ele>620.66845703125</ele>
        <time>2006-01-06T13:07:22Z</time>
      </trkpt>
      <trkpt lat="45.822107791900635" lon="8.519618511199951">
        <ele>629.80078125</ele>
        <time>2006-01-06T13:07:47Z</time>
      </trkpt>
      <trkpt lat="45.822193622589111" lon="8.519575595855713">
        <ele>631.242919921875</ele>
        <time>2006-01-06T13:07:58Z</time>
      </trkpt>
      <trkpt lat="45.822279453277588" lon="8.519575595855713">
        <ele>632.2041015625</ele>
        <time>2006-01-06T13:08:08Z</time>
      </trkpt>
      <trkpt lat="45.822365283966064" lon="8.519597053527832">
        <ele>633.165283203125</ele>
        <time>2006-01-06T13:08:18Z</time>
      </trkpt>
      <trkpt lat="45.82247257232666" lon="8.519575595855713">
        <ele>631.723388671875</ele>
        <time>2006-01-06T13:08:29Z</time>
      </trkpt>
      <trkpt lat="45.822579860687256" lon="8.519575595855713">
        <ele>632.2041015625</ele>
        <time>2006-01-06T13:08:40Z</time>
      </trkpt>
      <trkpt lat="45.822665691375732" lon="8.519618511199951">
        <ele>632.684814453125</ele>
        <time>2006-01-06T13:08:49Z</time>
      </trkpt>
      <trkpt lat="45.822751522064209" lon="8.519618511199951">
        <ele>635.088134765625</ele>
        <time>2006-01-06T13:08:59Z</time>
      </trkpt>
      <trkpt lat="45.822815895080566" lon="8.519597053527832">
        <ele>635.088134765625</ele>
        <time>2006-01-06T13:09:11Z</time>
      </trkpt>
      <trkpt lat="45.822901725769043" lon="8.519597053527832">
        <ele>637.97216796875</ele>
        <time>2006-01-06T13:09:20Z</time>
      </trkpt>
      <trkpt lat="45.82298755645752" lon="8.519554138183594">
        <ele>639.4140625</ele>
        <time>2006-01-06T13:09:30Z</time>
      </trkpt>
      <trkpt lat="45.823051929473877" lon="8.519532680511475">
        <ele>640.37548828125</ele>
        <time>2006-01-06T13:09:40Z</time>
      </trkpt>
      <trkpt lat="45.823073387145996" lon="8.519511222839356">
        <ele>642.298095703125</ele>
        <time>2006-01-06T13:09:48Z</time>
      </trkpt>
      <trkpt lat="45.823180675506592" lon="8.519361019134522">
        <ele>641.8173828125</ele>
        <time>2006-01-06T13:09:58Z</time>
      </trkpt>
      <trkpt lat="45.823180675506592" lon="8.519361019134522">
        <ele>641.8173828125</ele>
        <time>2006-01-06T13:10:05Z</time>
      </trkpt>
      <trkpt lat="45.823180675506592" lon="8.519275188446045">
        <ele>641.336669921875</ele>
        <time>2006-01-06T13:10:33Z</time>
      </trkpt>
      <trkpt lat="45.823309421539307" lon="8.519103527069092">
        <ele>642.298095703125</ele>
        <time>2006-01-06T13:10:44Z</time>
      </trkpt>
      <trkpt lat="45.823459625244141" lon="8.518974781036377">
        <ele>641.8173828125</ele>
        <time>2006-01-06T13:10:53Z</time>
      </trkpt>
      <trkpt lat="45.823631286621094" lon="8.51891040802002">
        <ele>642.77880859375</ele>
        <time>2006-01-06T13:11:03Z</time>
      </trkpt>
      <trkpt lat="45.823738574981689" lon="8.518846035003662">
        <ele>642.298095703125</ele>
        <time>2006-01-06T13:11:10Z</time>
      </trkpt>
      <trkpt lat="45.823974609375" lon="8.518674373626709">
        <ele>641.336669921875</ele>
        <time>2006-01-06T13:11:22Z</time>
      </trkpt>
      <trkpt lat="45.82423210144043" lon="8.518502712249756">
        <ele>642.298095703125</ele>
        <time>2006-01-06T13:11:35Z</time>
      </trkpt>
      <trkpt lat="45.824382305145264" lon="8.518352508544922">
        <ele>643.25927734375</ele>
        <time>2006-01-06T13:11:47Z</time>
      </trkpt>
      <trkpt lat="45.824489593505859" lon="8.518202304840088">
        <ele>644.220703125</ele>
        <time>2006-01-06T13:11:59Z</time>
      </trkpt>
      <trkpt lat="45.824618339538574" lon="8.518030643463135">
        <ele>647.1044921875</ele>
        <time>2006-01-06T13:12:10Z</time>
      </trkpt>
      <trkpt lat="45.824704170227051" lon="8.517923355102539">
        <ele>649.5078125</ele>
        <time>2006-01-06T13:12:20Z</time>
      </trkpt>
      <trkpt lat="45.824790000915527" lon="8.517816066741943">
        <ele>649.988525390625</ele>
        <time>2006-01-06T13:12:30Z</time>
      </trkpt>
      <trkpt lat="45.824897289276123" lon="8.517687320709229">
        <ele>653.353271484375</ele>
        <time>2006-01-06T13:12:42Z</time>
      </trkpt>
      <trkpt lat="45.82496166229248" lon="8.517580032348633">
        <ele>653.833984375</ele>
        <time>2006-01-06T13:12:53Z</time>
      </trkpt>
      <trkpt lat="45.825068950653076" lon="8.517494201660156">
        <ele>658.640380859375</ele>
        <time>2006-01-06T13:13:07Z</time>
      </trkpt>
      <trkpt lat="45.825154781341553" lon="8.517429828643799">
        <ele>659.12109375</ele>
        <time>2006-01-06T13:13:18Z</time>
      </trkpt>
      <trkpt lat="45.825240612030029" lon="8.517343997955322">
        <ele>662.485595703125</ele>
        <time>2006-01-06T13:13:30Z</time>
      </trkpt>
      <trkpt lat="45.825304985046387" lon="8.517236709594727">
        <ele>662.485595703125</ele>
        <time>2006-01-06T13:13:43Z</time>
      </trkpt>
      <trkpt lat="45.825369358062744" lon="8.517172336578369">
        <ele>663.447021484375</ele>
        <time>2006-01-06T13:13:54Z</time>
      </trkpt>
      <trkpt lat="45.825433731079102" lon="8.517107963562012">
        <ele>665.36962890625</ele>
        <time>2006-01-06T13:14:06Z</time>
      </trkpt>
      <trkpt lat="45.825519561767578" lon="8.517043590545654">
        <ele>669.69580078125</ele>
        <time>2006-01-06T13:14:20Z</time>
      </trkpt>
      <trkpt lat="45.825605392456055" lon="8.516979217529297">
        <ele>670.656982421875</ele>
        <time>2006-01-06T13:14:32Z</time>
      </trkpt>
      <trkpt lat="45.825691223144531" lon="8.516871929168701">
        <ele>667.292236328125</ele>
        <time>2006-01-06T13:14:46Z</time>
      </trkpt>
      <trkpt lat="45.825777053833008" lon="8.516743183135986">
        <ele>665.36962890625</ele>
        <time>2006-01-06T13:15:00Z</time>
      </trkpt>
      <trkpt lat="45.825841426849365" lon="8.516678810119629">
        <ele>669.215087890625</ele>
        <time>2006-01-06T13:15:11Z</time>
      </trkpt>
      <trkpt lat="45.825927257537842" lon="8.516592979431152">
        <ele>668.734375</ele>
        <time>2006-01-06T13:15:24Z</time>
      </trkpt>
      <trkpt lat="45.826013088226318" lon="8.516507148742676">
        <ele>668.734375</ele>
        <time>2006-01-06T13:15:34Z</time>
      </trkpt>
      <trkpt lat="45.826077461242676" lon="8.516421318054199">
        <ele>672.098876953125</ele>
        <time>2006-01-06T13:15:45Z</time>
      </trkpt>
      <trkpt lat="45.826163291931152" lon="8.516292572021484">
        <ele>672.098876953125</ele>
        <time>2006-01-06T13:15:58Z</time>
      </trkpt>
      <trkpt lat="45.82622766494751" lon="8.516206741333008">
        <ele>673.060302734375</ele>
        <time>2006-01-06T13:16:09Z</time>
      </trkpt>
      <trkpt lat="45.826313495635986" lon="8.516099452972412">
        <ele>674.98291015625</ele>
        <time>2006-01-06T13:16:22Z</time>
      </trkpt>
      <trkpt lat="45.826377868652344" lon="8.515992164611816">
        <ele>676.4248046875</ele>
        <time>2006-01-06T13:16:33Z</time>
      </trkpt>
      <trkpt lat="45.826420783996582" lon="8.515884876251221">
        <ele>677.38623046875</ele>
        <time>2006-01-06T13:16:44Z</time>
      </trkpt>
      <trkpt lat="45.826485157012939" lon="8.515756130218506">
        <ele>679.30859375</ele>
        <time>2006-01-06T13:16:57Z</time>
      </trkpt>
      <trkpt lat="45.826549530029297" lon="8.51564884185791">
        <ele>677.86669921875</ele>
        <time>2006-01-06T13:17:09Z</time>
      </trkpt>
      <trkpt lat="45.826592445373535" lon="8.515541553497315">
        <ele>678.828125</ele>
        <time>2006-01-06T13:17:20Z</time>
      </trkpt>
      <trkpt lat="45.826635360717773" lon="8.515434265136719">
        <ele>677.86669921875</ele>
        <time>2006-01-06T13:17:31Z</time>
      </trkpt>
      <trkpt lat="45.826742649078369" lon="8.515305519104004">
        <ele>680.750732421875</ele>
        <time>2006-01-06T13:17:48Z</time>
      </trkpt>
      <trkpt lat="45.826828479766846" lon="8.515241146087647">
        <ele>682.192626953125</ele>
        <time>2006-01-06T13:17:59Z</time>
      </trkpt>
      <trkpt lat="45.826914310455322" lon="8.51515531539917">
        <ele>682.192626953125</ele>
        <time>2006-01-06T13:18:08Z</time>
      </trkpt>
      <trkpt lat="45.827021598815918" lon="8.514919281005859">
        <ele>681.2314453125</ele>
        <time>2006-01-06T13:18:20Z</time>
      </trkpt>
      <trkpt lat="45.827128887176514" lon="8.514726161956787">
        <ele>682.192626953125</ele>
        <time>2006-01-06T13:18:30Z</time>
      </trkpt>
      <trkpt lat="45.827193260192871" lon="8.514640331268311">
        <ele>684.115478515625</ele>
        <time>2006-01-06T13:18:38Z</time>
      </trkpt>
      <trkpt lat="45.827279090881348" lon="8.514554500579834">
        <ele>686.0380859375</ele>
        <time>2006-01-06T13:18:48Z</time>
      </trkpt>
      <trkpt lat="45.827364921569824" lon="8.514490127563477">
        <ele>686.999267578125</ele>
        <time>2006-01-06T13:18:59Z</time>
      </trkpt>
      <trkpt lat="45.827450752258301" lon="8.514382839202881">
        <ele>687.47998046875</ele>
        <time>2006-01-06T13:19:12Z</time>
      </trkpt>
      <trkpt lat="45.827536582946777" lon="8.514318466186523">
        <ele>688.44140625</ele>
        <time>2006-01-06T13:19:20Z</time>
      </trkpt>
      <trkpt lat="45.827665328979492" lon="8.514189720153809">
        <ele>688.922119140625</ele>
        <time>2006-01-06T13:19:31Z</time>
      </trkpt>
      <trkpt lat="45.827794075012207" lon="8.514082431793213">
        <ele>689.88330078125</ele>
        <time>2006-01-06T13:19:42Z</time>
      </trkpt>
      <trkpt lat="45.82796573638916" lon="8.513932228088379">
        <ele>690.844482421875</ele>
        <time>2006-01-06T13:19:53Z</time>
      </trkpt>
      <trkpt lat="45.828115940093994" lon="8.513782024383545">
        <ele>691.805908203125</ele>
        <time>2006-01-06T13:20:05Z</time>
      </trkpt>
      <trkpt lat="45.828266143798828" lon="8.513674736022949">
        <ele>690.844482421875</ele>
        <time>2006-01-06T13:20:16Z</time>
      </trkpt>
      <trkpt lat="45.828394889831543" lon="8.513567447662354">
        <ele>692.767333984375</ele>
        <time>2006-01-06T13:20:27Z</time>
      </trkpt>
      <trkpt lat="45.828502178192139" lon="8.513460159301758">
        <ele>692.767333984375</ele>
        <time>2006-01-06T13:20:36Z</time>
      </trkpt>
      <trkpt lat="45.828523635864258" lon="8.513460159301758">
        <ele>693.247802734375</ele>
        <time>2006-01-06T13:20:44Z</time>
      </trkpt>
      <trkpt lat="45.828588008880615" lon="8.513352870941162">
        <ele>692.28662109375</ele>
        <time>2006-01-06T13:20:54Z</time>
      </trkpt>
      <trkpt lat="45.828695297241211" lon="8.513267040252686">
        <ele>691.805908203125</ele>
        <time>2006-01-06T13:21:06Z</time>
      </trkpt>
      <trkpt lat="45.828738212585449" lon="8.513224124908447">
        <ele>693.247802734375</ele>
        <time>2006-01-06T13:21:15Z</time>
      </trkpt>
      <trkpt lat="45.828824043273926" lon="8.513138294219971">
        <ele>693.728515625</ele>
        <time>2006-01-06T13:21:29Z</time>
      </trkpt>
      <trkpt lat="45.828888416290283" lon="8.513009548187256">
        <ele>694.689697265625</ele>
        <time>2006-01-06T13:21:43Z</time>
      </trkpt>
      <trkpt lat="45.828952789306641" lon="8.512923717498779">
        <ele>692.767333984375</ele>
        <time>2006-01-06T13:21:56Z</time>
      </trkpt>
      <trkpt lat="45.829038619995117" lon="8.512859344482422">
        <ele>694.209228515625</ele>
        <time>2006-01-06T13:22:07Z</time>
      </trkpt>
      <trkpt lat="45.829102993011475" lon="8.512794971466065">
        <ele>696.1318359375</ele>
        <time>2006-01-06T13:22:19Z</time>
      </trkpt>
      <trkpt lat="45.829167366027832" lon="8.512709140777588">
        <ele>696.612548828125</ele>
        <time>2006-01-06T13:22:45Z</time>
      </trkpt>
      <trkpt lat="45.829231739044189" lon="8.512623310089111">
        <ele>699.015625</ele>
        <time>2006-01-06T13:22:55Z</time>
      </trkpt>
      <trkpt lat="45.829317569732666" lon="8.512537479400635">
        <ele>699.015625</ele>
        <time>2006-01-06T13:23:08Z</time>
      </trkpt>
      <trkpt lat="45.829381942749023" lon="8.51240873336792">
        <ele>701.419189453125</ele>
        <time>2006-01-06T13:23:19Z</time>
      </trkpt>
      <trkpt lat="45.829446315765381" lon="8.512279987335205">
        <ele>703.341796875</ele>
        <time>2006-01-06T13:23:32Z</time>
      </trkpt>
      <trkpt lat="45.829489231109619" lon="8.51215124130249">
        <ele>702.38037109375</ele>
        <time>2006-01-06T13:23:45Z</time>
      </trkpt>
      <trkpt lat="45.829553604125977" lon="8.512043952941895">
        <ele>703.341796875</ele>
        <time>2006-01-06T13:23:57Z</time>
      </trkpt>
      <trkpt lat="45.829596519470215" lon="8.511979579925537">
        <ele>706.706298828125</ele>
        <time>2006-01-06T13:24:07Z</time>
      </trkpt>
      <trkpt lat="45.829639434814453" lon="8.511893749237061">
        <ele>707.18701171875</ele>
        <time>2006-01-06T13:24:17Z</time>
      </trkpt>
      <trkpt lat="45.829682350158691" lon="8.511850833892822">
        <ele>708.62890625</ele>
        <time>2006-01-06T13:24:25Z</time>
      </trkpt>
      <trkpt lat="45.829682350158691" lon="8.511850833892822">
        <ele>709.59033203125</ele>
        <time>2006-01-06T13:24:38Z</time>
      </trkpt>
      <trkpt lat="45.829746723175049" lon="8.511829376220703">
        <ele>712.954833984375</ele>
        <time>2006-01-06T13:24:48Z</time>
      </trkpt>
      <trkpt lat="45.829832553863525" lon="8.511807918548584">
        <ele>715.358154296875</ele>
        <time>2006-01-06T13:25:01Z</time>
      </trkpt>
      <trkpt lat="45.829854011535645" lon="8.511786460876465">
        <ele>715.8388671875</ele>
        <time>2006-01-06T13:25:02Z</time>
      </trkpt>
      <trkpt lat="45.829939842224121" lon="8.51165771484375">
        <ele>717.281005859375</ele>
        <time>2006-01-06T13:25:17Z</time>
      </trkpt>
      <trkpt lat="45.829982757568359" lon="8.511550426483154">
        <ele>718.2421875</ele>
        <time>2006-01-06T13:25:29Z</time>
      </trkpt>
      <trkpt lat="45.830004215240479" lon="8.511550426483154">
        <ele>717.761474609375</ele>
        <time>2006-01-06T13:25:58Z</time>
      </trkpt>
      <trkpt lat="45.830025672912598" lon="8.511507511138916">
        <ele>720.164794921875</ele>
        <time>2006-01-06T13:26:23Z</time>
      </trkpt>
      <trkpt lat="45.830090045928955" lon="8.51140022277832">
        <ele>719.20361328125</ele>
        <time>2006-01-06T13:26:34Z</time>
      </trkpt>
      <trkpt lat="45.830154418945313" lon="8.511271476745606">
        <ele>718.2421875</ele>
        <time>2006-01-06T13:26:48Z</time>
      </trkpt>
      <trkpt lat="45.83021879196167" lon="8.511142730712891">
        <ele>716.319580078125</ele>
        <time>2006-01-06T13:27:00Z</time>
      </trkpt>
      <trkpt lat="45.830304622650146" lon="8.511035442352295">
        <ele>716.80029296875</ele>
        <time>2006-01-06T13:27:11Z</time>
      </trkpt>
      <trkpt lat="45.830390453338623" lon="8.510863780975342">
        <ele>716.319580078125</ele>
        <time>2006-01-06T13:27:27Z</time>
      </trkpt>
      <trkpt lat="45.8304762840271" lon="8.510735034942627">
        <ele>715.8388671875</ele>
        <time>2006-01-06T13:27:41Z</time>
      </trkpt>
      <trkpt lat="45.830562114715576" lon="8.510584831237793">
        <ele>714.396728515625</ele>
        <time>2006-01-06T13:27:55Z</time>
      </trkpt>
      <trkpt lat="45.830605030059814" lon="8.510499000549316">
        <ele>711.99365234375</ele>
        <time>2006-01-06T13:28:04Z</time>
      </trkpt>
      <trkpt lat="45.830669403076172" lon="8.510456085205078">
        <ele>711.99365234375</ele>
        <time>2006-01-06T13:28:12Z</time>
      </trkpt>
      <trkpt lat="45.830776691436768" lon="8.510391712188721">
        <ele>711.99365234375</ele>
        <time>2006-01-06T13:28:26Z</time>
      </trkpt>
      <trkpt lat="45.830905437469482" lon="8.51041316986084">
        <ele>713.435546875</ele>
        <time>2006-01-06T13:28:38Z</time>
      </trkpt>
      <trkpt lat="45.83096981048584" lon="8.510456085205078">
        <ele>715.8388671875</ele>
        <time>2006-01-06T13:28:49Z</time>
      </trkpt>
      <trkpt lat="45.831034183502197" lon="8.510541915893555">
        <ele>717.281005859375</ele>
        <time>2006-01-06T13:29:01Z</time>
      </trkpt>
      <trkpt lat="45.831120014190674" lon="8.510606288909912">
        <ele>718.722900390625</ele>
        <time>2006-01-06T13:29:15Z</time>
      </trkpt>
      <trkpt lat="45.83122730255127" lon="8.510606288909912">
        <ele>722.08740234375</ele>
        <time>2006-01-06T13:29:27Z</time>
      </trkpt>
      <trkpt lat="45.831313133239746" lon="8.510584831237793">
        <ele>722.568115234375</ele>
        <time>2006-01-06T13:29:39Z</time>
      </trkpt>
      <trkpt lat="45.831398963928223" lon="8.510520458221436">
        <ele>725.451904296875</ele>
        <time>2006-01-06T13:29:52Z</time>
      </trkpt>
      <trkpt lat="45.831484794616699" lon="8.510434627532959">
        <ele>728.816650390625</ele>
        <time>2006-01-06T13:30:04Z</time>
      </trkpt>
      <trkpt lat="45.831592082977295" lon="8.510348796844482">
        <ele>729.297119140625</ele>
        <time>2006-01-06T13:30:17Z</time>
      </trkpt>
      <trkpt lat="45.831677913665771" lon="8.510327339172363">
        <ele>730.258544921875</ele>
        <time>2006-01-06T13:30:29Z</time>
      </trkpt>
      <trkpt lat="45.831742286682129" lon="8.510327339172363">
        <ele>729.297119140625</ele>
        <time>2006-01-06T13:30:37Z</time>
      </trkpt>
      <trkpt lat="45.831849575042725" lon="8.510305881500244">
        <ele>728.816650390625</ele>
        <time>2006-01-06T13:30:47Z</time>
      </trkpt>
      <trkpt lat="45.831978321075439" lon="8.510262966156006">
        <ele>729.77783203125</ele>
        <time>2006-01-06T13:31:00Z</time>
      </trkpt>
      <trkpt lat="45.832107067108154" lon="8.510241508483887">
        <ele>730.7392578125</ele>
        <time>2006-01-06T13:31:14Z</time>
      </trkpt>
      <trkpt lat="45.832192897796631" lon="8.510220050811768">
        <ele>732.181396484375</ele>
        <time>2006-01-06T13:31:25Z</time>
      </trkpt>
      <trkpt lat="45.832300186157227" lon="8.510198593139648">
        <ele>733.142578125</ele>
        <time>2006-01-06T13:31:37Z</time>
      </trkpt>
      <trkpt lat="45.832407474517822" lon="8.510198593139648">
        <ele>732.181396484375</ele>
        <time>2006-01-06T13:31:47Z</time>
      </trkpt>
      <trkpt lat="45.832493305206299" lon="8.510198593139648">
        <ele>733.142578125</ele>
        <time>2006-01-06T13:31:58Z</time>
      </trkpt>
      <trkpt lat="45.832622051239014" lon="8.510177135467529">
        <ele>733.142578125</ele>
        <time>2006-01-06T13:32:10Z</time>
      </trkpt>
      <trkpt lat="45.832729339599609" lon="8.510177135467529">
        <ele>733.142578125</ele>
        <time>2006-01-06T13:32:23Z</time>
      </trkpt>
      <trkpt lat="45.832836627960205" lon="8.51015567779541">
        <ele>735.0654296875</ele>
        <time>2006-01-06T13:32:35Z</time>
      </trkpt>
      <trkpt lat="45.832922458648682" lon="8.510134220123291">
        <ele>736.98779296875</ele>
        <time>2006-01-06T13:32:47Z</time>
      </trkpt>
      <trkpt lat="45.832986831665039" lon="8.510134220123291">
        <ele>738.429931640625</ele>
        <time>2006-01-06T13:32:58Z</time>
      </trkpt>
      <trkpt lat="45.833051204681396" lon="8.510134220123291">
        <ele>736.50732421875</ele>
        <time>2006-01-06T13:33:29Z</time>
      </trkpt>
      <trkpt lat="45.833115577697754" lon="8.510177135467529">
        <ele>739.39111328125</ele>
        <time>2006-01-06T13:33:40Z</time>
      </trkpt>
      <trkpt lat="45.83320140838623" lon="8.510241508483887">
        <ele>739.871826171875</ele>
        <time>2006-01-06T13:33:52Z</time>
      </trkpt>
      <trkpt lat="45.833287239074707" lon="8.510348796844482">
        <ele>741.79443359375</ele>
        <time>2006-01-06T13:34:04Z</time>
      </trkpt>
      <trkpt lat="45.833330154418945" lon="8.510456085205078">
        <ele>743.236328125</ele>
        <time>2006-01-06T13:34:14Z</time>
      </trkpt>
      <trkpt lat="45.833437442779541" lon="8.510584831237793">
        <ele>743.717041015625</ele>
        <time>2006-01-06T13:34:28Z</time>
      </trkpt>
      <trkpt lat="45.833566188812256" lon="8.51067066192627">
        <ele>742.275146484375</ele>
        <time>2006-01-06T13:34:42Z</time>
      </trkpt>
      <trkpt lat="45.833673477172852" lon="8.510713577270508">
        <ele>747.08154296875</ele>
        <time>2006-01-06T13:34:55Z</time>
      </trkpt>
      <trkpt lat="45.833759307861328" lon="8.510735034942627">
        <ele>746.120361328125</ele>
        <time>2006-01-06T13:35:06Z</time>
      </trkpt>
      <trkpt lat="45.833909511566162" lon="8.510756492614746">
        <ele>743.717041015625</ele>
        <time>2006-01-06T13:35:16Z</time>
      </trkpt>
      <trkpt lat="45.834059715270996" lon="8.510756492614746">
        <ele>744.67822265625</ele>
        <time>2006-01-06T13:35:26Z</time>
      </trkpt>
      <trkpt lat="45.834188461303711" lon="8.510735034942627">
        <ele>747.562255859375</ele>
        <time>2006-01-06T13:35:36Z</time>
      </trkpt>
      <trkpt lat="45.834295749664307" lon="8.510735034942627">
        <ele>746.60107421875</ele>
        <time>2006-01-06T13:35:46Z</time>
      </trkpt>
      <trkpt lat="45.834317207336426" lon="8.510713577270508">
        <ele>747.08154296875</ele>
        <time>2006-01-06T13:35:52Z</time>
      </trkpt>
      <trkpt lat="45.834381580352783" lon="8.51064920425415">
        <ele>750.446533203125</ele>
        <time>2006-01-06T13:36:05Z</time>
      </trkpt>
      <trkpt lat="45.834488868713379" lon="8.510606288909912">
        <ele>757.175537109375</ele>
        <time>2006-01-06T13:36:17Z</time>
      </trkpt>
      <trkpt lat="45.834553241729736" lon="8.510563373565674">
        <ele>753.330322265625</ele>
        <time>2006-01-06T13:36:28Z</time>
      </trkpt>
      <trkpt lat="45.834639072418213" lon="8.510477542877197">
        <ele>753.81103515625</ele>
        <time>2006-01-06T13:36:40Z</time>
      </trkpt>
      <trkpt lat="45.834746360778809" lon="8.510391712188721">
        <ele>754.291748046875</ele>
        <time>2006-01-06T13:36:55Z</time>
      </trkpt>
      <trkpt lat="45.834832191467285" lon="8.510305881500244">
        <ele>754.772216796875</ele>
        <time>2006-01-06T13:37:06Z</time>
      </trkpt>
      <trkpt lat="45.835003852844238" lon="8.510220050811768">
        <ele>753.81103515625</ele>
        <time>2006-01-06T13:37:25Z</time>
      </trkpt>
      <trkpt lat="45.835111141204834" lon="8.51015567779541">
        <ele>755.733642578125</ele>
        <time>2006-01-06T13:37:36Z</time>
      </trkpt>
      <trkpt lat="45.835175514221191" lon="8.510112762451172">
        <ele>756.214111328125</ele>
        <time>2006-01-06T13:37:47Z</time>
      </trkpt>
      <trkpt lat="45.835239887237549" lon="8.510026931762695">
        <ele>760.5400390625</ele>
        <time>2006-01-06T13:38:00Z</time>
      </trkpt>
      <trkpt lat="45.835304260253906" lon="8.509941101074219">
        <ele>761.50146484375</ele>
        <time>2006-01-06T13:38:10Z</time>
      </trkpt>
      <trkpt lat="45.835304260253906" lon="8.509941101074219">
        <ele>761.020751953125</ele>
        <time>2006-01-06T13:38:25Z</time>
      </trkpt>
      <trkpt lat="45.835347175598145" lon="8.509941101074219">
        <ele>761.50146484375</ele>
        <time>2006-01-06T13:38:40Z</time>
      </trkpt>
      <trkpt lat="45.835518836975098" lon="8.509812355041504">
        <ele>758.136962890625</ele>
        <time>2006-01-06T13:38:50Z</time>
      </trkpt>
      <trkpt lat="45.835669040679932" lon="8.509769439697266">
        <ele>755.733642578125</ele>
        <time>2006-01-06T13:38:58Z</time>
      </trkpt>
      <trkpt lat="45.835733413696289" lon="8.509747982025147">
        <ele>754.772216796875</ele>
        <time>2006-01-06T13:39:03Z</time>
      </trkpt>
      <trkpt lat="45.835840702056885" lon="8.509705066680908">
        <ele>753.81103515625</ele>
        <time>2006-01-06T13:39:12Z</time>
      </trkpt>
      <trkpt lat="45.8359694480896" lon="8.509640693664551">
        <ele>753.81103515625</ele>
        <time>2006-01-06T13:39:23Z</time>
      </trkpt>
      <trkpt lat="45.836098194122314" lon="8.50966215133667">
        <ele>756.69482421875</ele>
        <time>2006-01-06T13:39:34Z</time>
      </trkpt>
      <trkpt lat="45.836226940155029" lon="8.509640693664551">
        <ele>757.65625</ele>
        <time>2006-01-06T13:39:42Z</time>
      </trkpt>
      <trkpt lat="45.836377143859863" lon="8.50966215133667">
        <ele>756.69482421875</ele>
        <time>2006-01-06T13:39:48Z</time>
      </trkpt>
      <trkpt lat="45.836656093597412" lon="8.509683609008789">
        <ele>756.214111328125</ele>
        <time>2006-01-06T13:39:57Z</time>
      </trkpt>
      <trkpt lat="45.836784839630127" lon="8.509683609008789">
        <ele>755.733642578125</ele>
        <time>2006-01-06T13:40:03Z</time>
      </trkpt>
      <trkpt lat="45.836827754974365" lon="8.50966215133667">
        <ele>756.214111328125</ele>
        <time>2006-01-06T13:40:06Z</time>
      </trkpt>
      <trkpt lat="45.836892127990723" lon="8.509554862976074">
        <ele>754.772216796875</ele>
        <time>2006-01-06T13:40:16Z</time>
      </trkpt>
      <trkpt lat="45.837020874023438" lon="8.509511947631836">
        <ele>754.772216796875</ele>
        <time>2006-01-06T13:40:24Z</time>
      </trkpt>
      <trkpt lat="45.837256908416748" lon="8.509447574615479">
        <ele>753.81103515625</ele>
        <time>2006-01-06T13:40:34Z</time>
      </trkpt>
      <trkpt lat="45.837385654449463" lon="8.50940465927124">
        <ele>753.330322265625</ele>
        <time>2006-01-06T13:40:38Z</time>
      </trkpt>
      <trkpt lat="45.837557315826416" lon="8.509469032287598">
        <ele>751.888427734375</ele>
        <time>2006-01-06T13:40:44Z</time>
      </trkpt>
      <trkpt lat="45.837836265563965" lon="8.509511947631836">
        <ele>752.368896484375</ele>
        <time>2006-01-06T13:40:54Z</time>
      </trkpt>
      <trkpt lat="45.838158130645752" lon="8.509469032287598">
        <ele>751.888427734375</ele>
        <time>2006-01-06T13:41:05Z</time>
      </trkpt>
      <trkpt lat="45.838437080383301" lon="8.509490489959717">
        <ele>750.927001953125</ele>
        <time>2006-01-06T13:41:14Z</time>
      </trkpt>
      <trkpt lat="45.838608741760254" lon="8.509447574615479">
        <ele>748.523681640625</ele>
        <time>2006-01-06T13:41:18Z</time>
      </trkpt>
      <trkpt lat="45.838887691497803" lon="8.509469032287598">
        <ele>749.00439453125</ele>
        <time>2006-01-06T13:41:25Z</time>
      </trkpt>
      <trkpt lat="45.839102268218994" lon="8.509447574615479">
        <ele>749.00439453125</ele>
        <time>2006-01-06T13:41:31Z</time>
      </trkpt>
      <trkpt lat="45.839381217956543" lon="8.509447574615479">
        <ele>747.562255859375</ele>
        <time>2006-01-06T13:41:38Z</time>
      </trkpt>
      <trkpt lat="45.839595794677734" lon="8.509383201599121">
        <ele>746.60107421875</ele>
        <time>2006-01-06T13:41:45Z</time>
      </trkpt>
      <trkpt lat="45.839638710021973" lon="8.509361743927002">
        <ele>747.08154296875</ele>
        <time>2006-01-06T13:41:49Z</time>
      </trkpt>
      <trkpt lat="45.839788913726807" lon="8.509383201599121">
        <ele>747.562255859375</ele>
        <time>2006-01-06T13:41:56Z</time>
      </trkpt>
      <trkpt lat="45.840067863464355" lon="8.509361743927002">
        <ele>748.043212890625</ele>
        <time>2006-01-06T13:42:04Z</time>
      </trkpt>
      <trkpt lat="45.840389728546143" lon="8.509318828582764">
        <ele>747.562255859375</ele>
        <time>2006-01-06T13:42:12Z</time>
      </trkpt>
      <trkpt lat="45.840797424316406" lon="8.509297370910645">
        <ele>747.562255859375</ele>
        <time>2006-01-06T13:42:21Z</time>
      </trkpt>
      <trkpt lat="45.841183662414551" lon="8.50916862487793">
        <ele>748.043212890625</ele>
        <time>2006-01-06T13:42:29Z</time>
      </trkpt>
      <trkpt lat="45.841591358184814" lon="8.509147167205811">
        <ele>745.158935546875</ele>
        <time>2006-01-06T13:42:39Z</time>
      </trkpt>
      <trkpt lat="45.841677188873291" lon="8.509254455566406">
        <ele>744.19775390625</ele>
        <time>2006-01-06T13:42:44Z</time>
      </trkpt>
      <trkpt lat="45.841741561889648" lon="8.509447574615479">
        <ele>738.91064453125</ele>
        <time>2006-01-06T13:43:24Z</time>
      </trkpt>
      <trkpt lat="45.841934680938721" lon="8.50966215133667">
        <ele>736.026611328125</ele>
        <time>2006-01-06T13:43:30Z</time>
      </trkpt>
      <trkpt lat="45.841977596282959" lon="8.509683609008789">
        <ele>736.026611328125</ele>
        <time>2006-01-06T13:43:31Z</time>
      </trkpt>
      <trkpt lat="45.842149257659912" lon="8.509747982025147">
        <ele>736.026611328125</ele>
        <time>2006-01-06T13:43:35Z</time>
      </trkpt>
      <trkpt lat="45.842578411102295" lon="8.509833812713623">
        <ele>739.39111328125</ele>
        <time>2006-01-06T13:43:46Z</time>
      </trkpt>
      <trkpt lat="45.842878818511963" lon="8.509898185729981">
        <ele>741.313720703125</ele>
        <time>2006-01-06T13:43:56Z</time>
      </trkpt>
      <trkpt lat="45.843157768249512" lon="8.5099196434021">
        <ele>742.275146484375</ele>
        <time>2006-01-06T13:44:06Z</time>
      </trkpt>
      <trkpt lat="45.843522548675537" lon="8.5099196434021">
        <ele>743.717041015625</ele>
        <time>2006-01-06T13:44:18Z</time>
      </trkpt>
      <trkpt lat="45.843908786773682" lon="8.5099196434021">
        <ele>743.717041015625</ele>
        <time>2006-01-06T13:44:31Z</time>
      </trkpt>
      <trkpt lat="45.844144821166992" lon="8.510026931762695">
        <ele>742.755859375</ele>
        <time>2006-01-06T13:44:39Z</time>
      </trkpt>
      <trkpt lat="45.844359397888184" lon="8.510091304779053">
        <ele>744.19775390625</ele>
        <time>2006-01-06T13:44:48Z</time>
      </trkpt>
      <trkpt lat="45.844573974609375" lon="8.510091304779053">
        <ele>745.158935546875</ele>
        <time>2006-01-06T13:44:59Z</time>
      </trkpt>
      <trkpt lat="45.844852924346924" lon="8.510091304779053">
        <ele>745.158935546875</ele>
        <time>2006-01-06T13:45:11Z</time>
      </trkpt>
      <trkpt lat="45.845024585723877" lon="8.510048389434815">
        <ele>745.6396484375</ele>
        <time>2006-01-06T13:45:19Z</time>
      </trkpt>
      <trkpt lat="45.845153331756592" lon="8.510026931762695">
        <ele>747.08154296875</ele>
        <time>2006-01-06T13:45:27Z</time>
      </trkpt>
      <trkpt lat="45.845303535461426" lon="8.510005474090576">
        <ele>748.043212890625</ele>
        <time>2006-01-06T13:45:36Z</time>
      </trkpt>
      <trkpt lat="45.84545373916626" lon="8.509962558746338">
        <ele>748.523681640625</ele>
        <time>2006-01-06T13:45:45Z</time>
      </trkpt>
      <trkpt lat="45.845603942871094" lon="8.509941101074219">
        <ele>748.523681640625</ele>
        <time>2006-01-06T13:45:54Z</time>
      </trkpt>
      <trkpt lat="45.845839977264404" lon="8.509876728057861">
        <ele>749.9658203125</ele>
        <time>2006-01-06T13:46:06Z</time>
      </trkpt>
      <trkpt lat="45.845990180969238" lon="8.509790897369385">
        <ele>750.927001953125</ele>
        <time>2006-01-06T13:46:17Z</time>
      </trkpt>
      <trkpt lat="45.846140384674072" lon="8.509683609008789">
        <ele>751.888427734375</ele>
        <time>2006-01-06T13:46:28Z</time>
      </trkpt>
      <trkpt lat="45.846290588378906" lon="8.509597778320313">
        <ele>753.81103515625</ele>
        <time>2006-01-06T13:46:39Z</time>
      </trkpt>
      <trkpt lat="45.84644079208374" lon="8.509511947631836">
        <ele>755.733642578125</ele>
        <time>2006-01-06T13:46:50Z</time>
      </trkpt>
      <trkpt lat="45.846590995788574" lon="8.509511947631836">
        <ele>756.69482421875</ele>
        <time>2006-01-06T13:46:59Z</time>
      </trkpt>
      <trkpt lat="45.846805572509766" lon="8.509533405303955">
        <ele>754.291748046875</ele>
        <time>2006-01-06T13:47:04Z</time>
      </trkpt>
      <trkpt lat="45.847535133361816" lon="8.50966215133667">
        <ele>750.446533203125</ele>
        <time>2006-01-06T13:47:18Z</time>
      </trkpt>
      <trkpt lat="45.847578048706055" lon="8.509640693664551">
        <ele>750.927001953125</ele>
        <time>2006-01-06T13:47:23Z</time>
      </trkpt>
      <trkpt lat="45.847663879394531" lon="8.509597778320313">
        <ele>753.330322265625</ele>
        <time>2006-01-06T13:47:32Z</time>
      </trkpt>
      <trkpt lat="45.847749710083008" lon="8.509533405303955">
        <ele>753.81103515625</ele>
        <time>2006-01-06T13:47:44Z</time>
      </trkpt>
      <trkpt lat="45.847835540771484" lon="8.509490489959717">
        <ele>754.291748046875</ele>
        <time>2006-01-06T13:47:56Z</time>
      </trkpt>
      <trkpt lat="45.84794282913208" lon="8.509426116943359">
        <ele>756.214111328125</ele>
        <time>2006-01-06T13:48:09Z</time>
      </trkpt>
      <trkpt lat="45.848050117492676" lon="8.509383201599121">
        <ele>758.136962890625</ele>
        <time>2006-01-06T13:48:21Z</time>
      </trkpt>
      <trkpt lat="45.848135948181152" lon="8.509340286254883">
        <ele>761.020751953125</ele>
        <time>2006-01-06T13:48:33Z</time>
      </trkpt>
      <trkpt lat="45.848221778869629" lon="8.509318828582764">
        <ele>762.943359375</ele>
        <time>2006-01-06T13:48:43Z</time>
      </trkpt>
      <trkpt lat="45.848329067230225" lon="8.509254455566406">
        <ele>764.385498046875</ele>
        <time>2006-01-06T13:48:55Z</time>
      </trkpt>
      <trkpt lat="45.848414897918701" lon="8.509211540222168">
        <ele>763.904541015625</ele>
        <time>2006-01-06T13:49:06Z</time>
      </trkpt>
      <trkpt lat="45.848500728607178" lon="8.50916862487793">
        <ele>764.8662109375</ele>
        <time>2006-01-06T13:49:17Z</time>
      </trkpt>
      <trkpt lat="45.848586559295654" lon="8.509104251861572">
        <ele>764.385498046875</ele>
        <time>2006-01-06T13:49:29Z</time>
      </trkpt>
      <trkpt lat="45.84869384765625" lon="8.509018421173096">
        <ele>766.30810546875</ele>
        <time>2006-01-06T13:49:42Z</time>
      </trkpt>
      <trkpt lat="45.848758220672607" lon="8.508975505828857">
        <ele>767.26953125</ele>
        <time>2006-01-06T13:49:51Z</time>
      </trkpt>
      <trkpt lat="45.848844051361084" lon="8.508954048156738">
        <ele>767.26953125</ele>
        <time>2006-01-06T13:50:03Z</time>
      </trkpt>
      <trkpt lat="45.848908424377441" lon="8.5089111328125">
        <ele>767.26953125</ele>
        <time>2006-01-06T13:50:13Z</time>
      </trkpt>
      <trkpt lat="45.848972797393799" lon="8.508889675140381">
        <ele>767.26953125</ele>
        <time>2006-01-06T13:50:22Z</time>
      </trkpt>
      <trkpt lat="45.849058628082275" lon="8.508846759796143">
        <ele>767.26953125</ele>
        <time>2006-01-06T13:50:32Z</time>
      </trkpt>
      <trkpt lat="45.849144458770752" lon="8.508825302124023">
        <ele>767.75</ele>
        <time>2006-01-06T13:50:42Z</time>
      </trkpt>
      <trkpt lat="45.849208831787109" lon="8.508782386779785">
        <ele>767.75</ele>
        <time>2006-01-06T13:50:51Z</time>
      </trkpt>
      <trkpt lat="45.849273204803467" lon="8.508739471435547">
        <ele>768.230712890625</ele>
        <time>2006-01-06T13:51:00Z</time>
      </trkpt>
      <trkpt lat="45.849359035491943" lon="8.508696556091309">
        <ele>769.192138671875</ele>
        <time>2006-01-06T13:51:10Z</time>
      </trkpt>
      <trkpt lat="45.84944486618042" lon="8.50865364074707">
        <ele>770.634033203125</ele>
        <time>2006-01-06T13:51:20Z</time>
      </trkpt>
      <trkpt lat="45.849509239196777" lon="8.508610725402832">
        <ele>771.11474609375</ele>
        <time>2006-01-06T13:51:28Z</time>
      </trkpt>
      <trkpt lat="45.849595069885254" lon="8.508567810058594">
        <ele>771.11474609375</ele>
        <time>2006-01-06T13:51:39Z</time>
      </trkpt>
      <trkpt lat="45.84970235824585" lon="8.508503437042236">
        <ele>770.634033203125</ele>
        <time>2006-01-06T13:51:50Z</time>
      </trkpt>
      <trkpt lat="45.849788188934326" lon="8.508439064025879">
        <ele>769.6728515625</ele>
        <time>2006-01-06T13:52:02Z</time>
      </trkpt>
      <trkpt lat="45.849874019622803" lon="8.508396148681641">
        <ele>770.1533203125</ele>
        <time>2006-01-06T13:52:12Z</time>
      </trkpt>
      <trkpt lat="45.849959850311279" lon="8.508331775665283">
        <ele>769.192138671875</ele>
        <time>2006-01-06T13:52:22Z</time>
      </trkpt>
      <trkpt lat="45.850024223327637" lon="8.508245944976807">
        <ele>769.192138671875</ele>
        <time>2006-01-06T13:52:32Z</time>
      </trkpt>
      <trkpt lat="45.850110054016113" lon="8.50816011428833">
        <ele>769.6728515625</ele>
        <time>2006-01-06T13:52:45Z</time>
      </trkpt>
      <trkpt lat="45.85019588470459" lon="8.508052825927734">
        <ele>771.11474609375</ele>
        <time>2006-01-06T13:52:57Z</time>
      </trkpt>
      <trkpt lat="45.850260257720947" lon="8.507988452911377">
        <ele>772.075927734375</ele>
        <time>2006-01-06T13:53:09Z</time>
      </trkpt>
      <trkpt lat="45.850303173065186" lon="8.507966995239258">
        <ele>772.075927734375</ele>
        <time>2006-01-06T13:53:12Z</time>
      </trkpt>
      <trkpt lat="45.850410461425781" lon="8.50792407989502">
        <ele>770.634033203125</ele>
        <time>2006-01-06T13:53:24Z</time>
      </trkpt>
      <trkpt lat="45.850496292114258" lon="8.507881164550781">
        <ele>769.6728515625</ele>
        <time>2006-01-06T13:53:35Z</time>
      </trkpt>
      <trkpt lat="45.850582122802734" lon="8.507816791534424">
        <ele>768.71142578125</ele>
        <time>2006-01-06T13:53:46Z</time>
      </trkpt>
      <trkpt lat="45.85068941116333" lon="8.507773876190186">
        <ele>768.230712890625</ele>
        <time>2006-01-06T13:53:57Z</time>
      </trkpt>
      <trkpt lat="45.850775241851807" lon="8.507709503173828">
        <ele>769.192138671875</ele>
        <time>2006-01-06T13:54:08Z</time>
      </trkpt>
      <trkpt lat="45.850839614868164" lon="8.50766658782959">
        <ele>769.6728515625</ele>
        <time>2006-01-06T13:54:17Z</time>
      </trkpt>
      <trkpt lat="45.850882530212402" lon="8.507623672485352">
        <ele>770.1533203125</ele>
        <time>2006-01-06T13:54:27Z</time>
      </trkpt>
      <trkpt lat="45.850989818572998" lon="8.507559299468994">
        <ele>770.1533203125</ele>
        <time>2006-01-06T13:54:38Z</time>
      </trkpt>
      <trkpt lat="45.851075649261475" lon="8.507494926452637">
        <ele>770.1533203125</ele>
        <time>2006-01-06T13:54:50Z</time>
      </trkpt>
      <trkpt lat="45.851161479949951" lon="8.507452011108398">
        <ele>771.11474609375</ele>
        <time>2006-01-06T13:55:00Z</time>
      </trkpt>
      <trkpt lat="45.851225852966309" lon="8.50740909576416">
        <ele>771.11474609375</ele>
        <time>2006-01-06T13:55:08Z</time>
      </trkpt>
      <trkpt lat="45.851290225982666" lon="8.507366180419922">
        <ele>771.11474609375</ele>
        <time>2006-01-06T13:55:16Z</time>
      </trkpt>
      <trkpt lat="45.851397514343262" lon="8.507344722747803">
        <ele>770.634033203125</ele>
        <time>2006-01-06T13:55:27Z</time>
      </trkpt>
      <trkpt lat="45.851504802703857" lon="8.507323265075684">
        <ele>770.1533203125</ele>
        <time>2006-01-06T13:55:39Z</time>
      </trkpt>
      <trkpt lat="45.851612091064453" lon="8.507280349731445">
        <ele>769.6728515625</ele>
        <time>2006-01-06T13:55:50Z</time>
      </trkpt>
      <trkpt lat="45.85169792175293" lon="8.507258892059326">
        <ele>769.192138671875</ele>
        <time>2006-01-06T13:55:59Z</time>
      </trkpt>
      <trkpt lat="45.851805210113525" lon="8.507237434387207">
        <ele>767.75</ele>
        <time>2006-01-06T13:56:11Z</time>
      </trkpt>
      <trkpt lat="45.851869583129883" lon="8.507194519042969">
        <ele>767.26953125</ele>
        <time>2006-01-06T13:56:20Z</time>
      </trkpt>
      <trkpt lat="45.85193395614624" lon="8.507151603698731">
        <ele>767.75</ele>
        <time>2006-01-06T13:56:28Z</time>
      </trkpt>
      <trkpt lat="45.851976871490479" lon="8.507130146026611">
        <ele>767.75</ele>
        <time>2006-01-06T13:56:33Z</time>
      </trkpt>
      <trkpt lat="45.852084159851074" lon="8.507044315338135">
        <ele>766.30810546875</ele>
        <time>2006-01-06T13:56:45Z</time>
      </trkpt>
      <trkpt lat="45.852148532867432" lon="8.506958484649658">
        <ele>766.30810546875</ele>
        <time>2006-01-06T13:56:55Z</time>
      </trkpt>
      <trkpt lat="45.852212905883789" lon="8.506894111633301">
        <ele>766.788818359375</ele>
        <time>2006-01-06T13:57:04Z</time>
      </trkpt>
      <trkpt lat="45.852277278900146" lon="8.506851196289063">
        <ele>767.26953125</ele>
        <time>2006-01-06T13:57:11Z</time>
      </trkpt>
      <trkpt lat="45.852277278900146" lon="8.506851196289063">
        <ele>768.230712890625</ele>
        <time>2006-01-06T13:57:20Z</time>
      </trkpt>
      <trkpt lat="45.852277278900146" lon="8.506808280944824">
        <ele>766.30810546875</ele>
        <time>2006-01-06T13:57:55Z</time>
      </trkpt>
      <trkpt lat="45.852277278900146" lon="8.506743907928467">
        <ele>765.82763671875</ele>
        <time>2006-01-06T13:58:11Z</time>
      </trkpt>
      <trkpt lat="45.852277278900146" lon="8.50665807723999">
        <ele>766.788818359375</ele>
        <time>2006-01-06T13:58:18Z</time>
      </trkpt>
      <trkpt lat="45.852298736572266" lon="8.506593704223633">
        <ele>765.346923828125</ele>
        <time>2006-01-06T13:58:26Z</time>
      </trkpt>
      <trkpt lat="45.852255821228027" lon="8.506507873535156">
        <ele>762.943359375</ele>
        <time>2006-01-06T13:58:36Z</time>
      </trkpt>
      <trkpt lat="45.852255821228027" lon="8.506400585174561">
        <ele>760.5400390625</ele>
        <time>2006-01-06T13:58:47Z</time>
      </trkpt>
      <trkpt lat="45.852277278900146" lon="8.506314754486084">
        <ele>759.578857421875</ele>
        <time>2006-01-06T13:58:53Z</time>
      </trkpt>
      <trkpt lat="45.852277278900146" lon="8.506271839141846">
        <ele>757.65625</ele>
        <time>2006-01-06T13:58:57Z</time>
      </trkpt>
      <trkpt lat="45.852277278900146" lon="8.506228923797607">
        <ele>756.214111328125</ele>
        <time>2006-01-06T13:59:02Z</time>
      </trkpt>
      <trkpt lat="45.852298736572266" lon="8.506186008453369">
        <ele>755.2529296875</ele>
        <time>2006-01-06T13:59:04Z</time>
      </trkpt>
      <trkpt lat="45.852513313293457" lon="8.506100177764893">
        <ele>751.888427734375</ele>
        <time>2006-01-06T13:59:16Z</time>
      </trkpt>
      <trkpt lat="45.852577686309814" lon="8.506078720092773">
        <ele>750.927001953125</ele>
        <time>2006-01-06T13:59:24Z</time>
      </trkpt>
      <trkpt lat="45.852663516998291" lon="8.506014347076416">
        <ele>751.40771484375</ele>
        <time>2006-01-06T13:59:35Z</time>
      </trkpt>
      <trkpt lat="45.852749347686768" lon="8.505885601043701">
        <ele>749.9658203125</ele>
        <time>2006-01-06T13:59:46Z</time>
      </trkpt>
      <trkpt lat="45.852813720703125" lon="8.505799770355225">
        <ele>748.523681640625</ele>
        <time>2006-01-06T13:59:55Z</time>
      </trkpt>
      <trkpt lat="45.852856636047363" lon="8.505692481994629">
        <ele>744.19775390625</ele>
        <time>2006-01-06T14:00:05Z</time>
      </trkpt>
      <trkpt lat="45.852899551391602" lon="8.505585193634033">
        <ele>744.19775390625</ele>
        <time>2006-01-06T14:00:16Z</time>
      </trkpt>
      <trkpt lat="45.852963924407959" lon="8.505499362945557">
        <ele>744.67822265625</ele>
        <time>2006-01-06T14:00:26Z</time>
      </trkpt>
      <trkpt lat="45.853006839752197" lon="8.505477905273438">
        <ele>744.67822265625</ele>
        <time>2006-01-06T14:00:31Z</time>
      </trkpt>
      <trkpt lat="45.853114128112793" lon="8.50541353225708">
        <ele>746.60107421875</ele>
        <time>2006-01-06T14:00:42Z</time>
      </trkpt>
      <trkpt lat="45.85317850112915" lon="8.505349159240723">
        <ele>744.67822265625</ele>
        <time>2006-01-06T14:00:52Z</time>
      </trkpt>
      <trkpt lat="45.85319995880127" lon="8.505327701568604">
        <ele>746.120361328125</ele>
        <time>2006-01-06T14:00:58Z</time>
      </trkpt>
      <trkpt lat="45.853264331817627" lon="8.505220413208008">
        <ele>744.67822265625</ele>
        <time>2006-01-06T14:01:08Z</time>
      </trkpt>
      <trkpt lat="45.853350162506104" lon="8.505113124847412">
        <ele>741.79443359375</ele>
        <time>2006-01-06T14:01:19Z</time>
      </trkpt>
      <trkpt lat="45.853393077850342" lon="8.505070209503174">
        <ele>744.19775390625</ele>
        <time>2006-01-06T14:01:28Z</time>
      </trkpt>
      <trkpt lat="45.853457450866699" lon="8.505027294158936">
        <ele>743.717041015625</ele>
        <time>2006-01-06T14:01:37Z</time>
      </trkpt>
      <trkpt lat="45.853564739227295" lon="8.504984378814697">
        <ele>743.236328125</ele>
        <time>2006-01-06T14:01:47Z</time>
      </trkpt>
      <trkpt lat="45.853650569915771" lon="8.50492000579834">
        <ele>743.236328125</ele>
        <time>2006-01-06T14:01:58Z</time>
      </trkpt>
      <trkpt lat="45.853714942932129" lon="8.504855632781982">
        <ele>745.158935546875</ele>
        <time>2006-01-06T14:02:09Z</time>
      </trkpt>
      <trkpt lat="45.853779315948486" lon="8.504791259765625">
        <ele>745.158935546875</ele>
        <time>2006-01-06T14:02:18Z</time>
      </trkpt>
      <trkpt lat="45.853822231292725" lon="8.504705429077148">
        <ele>745.158935546875</ele>
        <time>2006-01-06T14:02:26Z</time>
      </trkpt>
      <trkpt lat="45.853843688964844" lon="8.504533767700195">
        <ele>743.236328125</ele>
        <time>2006-01-06T14:02:39Z</time>
      </trkpt>
      <trkpt lat="45.853865146636963" lon="8.504512310028076">
        <ele>742.275146484375</ele>
        <time>2006-01-06T14:02:42Z</time>
      </trkpt>
      <trkpt lat="45.85392951965332" lon="8.504576683044434">
        <ele>740.3525390625</ele>
        <time>2006-01-06T14:02:51Z</time>
      </trkpt>
      <trkpt lat="45.854058265686035" lon="8.504641056060791">
        <ele>738.91064453125</ele>
        <time>2006-01-06T14:03:01Z</time>
      </trkpt>
      <trkpt lat="45.85418701171875" lon="8.504576683044434">
        <ele>738.429931640625</ele>
        <time>2006-01-06T14:03:11Z</time>
      </trkpt>
      <trkpt lat="45.85444450378418" lon="8.504233360290527">
        <ele>734.584716796875</ele>
        <time>2006-01-06T14:03:21Z</time>
      </trkpt>
      <trkpt lat="45.854723453521729" lon="8.504104614257813">
        <ele>734.584716796875</ele>
        <time>2006-01-06T14:03:30Z</time>
      </trkpt>
      <trkpt lat="45.854916572570801" lon="8.504018783569336">
        <ele>732.662109375</ele>
        <time>2006-01-06T14:03:39Z</time>
      </trkpt>
      <trkpt lat="45.855066776275635" lon="8.503932952880859">
        <ele>732.181396484375</ele>
        <time>2006-01-06T14:03:49Z</time>
      </trkpt>
      <trkpt lat="45.85519552230835" lon="8.503890037536621">
        <ele>734.10400390625</ele>
        <time>2006-01-06T14:04:00Z</time>
      </trkpt>
      <trkpt lat="45.855259895324707" lon="8.503825664520264">
        <ele>730.258544921875</ele>
        <time>2006-01-06T14:04:09Z</time>
      </trkpt>
      <trkpt lat="45.855302810668945" lon="8.503782749176025">
        <ele>728.3359375</ele>
        <time>2006-01-06T14:04:20Z</time>
      </trkpt>
      <trkpt lat="45.855302810668945" lon="8.503761291503906">
        <ele>728.3359375</ele>
        <time>2006-01-06T14:04:25Z</time>
      </trkpt>
      <trkpt lat="45.855410099029541" lon="8.50367546081543">
        <ele>728.816650390625</ele>
        <time>2006-01-06T14:04:35Z</time>
      </trkpt>
      <trkpt lat="45.855517387390137" lon="8.503482341766357">
        <ele>727.855224609375</ele>
        <time>2006-01-06T14:04:47Z</time>
      </trkpt>
      <trkpt lat="45.855538845062256" lon="8.503460884094238">
        <ele>727.855224609375</ele>
        <time>2006-01-06T14:04:49Z</time>
      </trkpt>
      <trkpt lat="45.855603218078613" lon="8.503353595733643">
        <ele>725.9326171875</ele>
        <time>2006-01-06T14:05:00Z</time>
      </trkpt>
      <trkpt lat="45.855603218078613" lon="8.503289222717285">
        <ele>725.451904296875</ele>
        <time>2006-01-06T14:05:08Z</time>
      </trkpt>
      <trkpt lat="45.855581760406494" lon="8.503267765045166">
        <ele>724.49072265625</ele>
        <time>2006-01-06T14:05:16Z</time>
      </trkpt>
      <trkpt lat="45.855581760406494" lon="8.503224849700928">
        <ele>721.606689453125</ele>
        <time>2006-01-06T14:05:26Z</time>
      </trkpt>
      <trkpt lat="45.855603218078613" lon="8.50316047668457">
        <ele>719.20361328125</ele>
        <time>2006-01-06T14:05:35Z</time>
      </trkpt>
      <trkpt lat="45.855624675750732" lon="8.503139019012451">
        <ele>717.281005859375</ele>
        <time>2006-01-06T14:05:43Z</time>
      </trkpt>
      <trkpt lat="45.855667591094971" lon="8.503053188323975">
        <ele>714.87744140625</ele>
        <time>2006-01-06T14:05:51Z</time>
      </trkpt>
      <trkpt lat="45.855731964111328" lon="8.502945899963379">
        <ele>713.435546875</ele>
        <time>2006-01-06T14:06:01Z</time>
      </trkpt>
      <trkpt lat="45.855774879455566" lon="8.502838611602783">
        <ele>709.109619140625</ele>
        <time>2006-01-06T14:06:11Z</time>
      </trkpt>
      <trkpt lat="45.8559250831604" lon="8.502645492553711">
        <ele>707.667724609375</ele>
        <time>2006-01-06T14:06:24Z</time>
      </trkpt>
      <trkpt lat="45.855967998504639" lon="8.50243091583252">
        <ele>705.7451171875</ele>
        <time>2006-01-06T14:06:33Z</time>
      </trkpt>
      <trkpt lat="45.856053829193115" lon="8.502151966094971">
        <ele>702.861083984375</ele>
        <time>2006-01-06T14:06:44Z</time>
      </trkpt>
      <trkpt lat="45.856075286865234" lon="8.502109050750732">
        <ele>702.861083984375</ele>
        <time>2006-01-06T14:06:46Z</time>
      </trkpt>
      <trkpt lat="45.856075286865234" lon="8.502023220062256">
        <ele>699.97705078125</ele>
        <time>2006-01-06T14:06:50Z</time>
      </trkpt>
      <trkpt lat="45.856204032897949" lon="8.501830101013184">
        <ele>699.97705078125</ele>
        <time>2006-01-06T14:07:02Z</time>
      </trkpt>
      <trkpt lat="45.856354236602783" lon="8.501744270324707">
        <ele>693.728515625</ele>
        <time>2006-01-06T14:07:11Z</time>
      </trkpt>
      <trkpt lat="45.856418609619141" lon="8.501722812652588">
        <ele>691.805908203125</ele>
        <time>2006-01-06T14:07:17Z</time>
      </trkpt>
      <trkpt lat="45.856461524963379" lon="8.501658439636231">
        <ele>689.88330078125</ele>
        <time>2006-01-06T14:07:25Z</time>
      </trkpt>
      <trkpt lat="45.856461524963379" lon="8.501636981964111">
        <ele>689.402587890625</ele>
        <time>2006-01-06T14:07:26Z</time>
      </trkpt>
      <trkpt lat="45.856525897979736" lon="8.501551151275635">
        <ele>687.47998046875</ele>
        <time>2006-01-06T14:07:35Z</time>
      </trkpt>
      <trkpt lat="45.856568813323975" lon="8.501486778259277">
        <ele>685.076904296875</ele>
        <time>2006-01-06T14:07:44Z</time>
      </trkpt>
      <trkpt lat="45.856633186340332" lon="8.501379489898682">
        <ele>684.59619140625</ele>
        <time>2006-01-06T14:07:52Z</time>
      </trkpt>
      <trkpt lat="45.85667610168457" lon="8.501293659210205">
        <ele>684.115478515625</ele>
        <time>2006-01-06T14:08:01Z</time>
      </trkpt>
      <trkpt lat="45.856719017028809" lon="8.501207828521729">
        <ele>683.15380859375</ele>
        <time>2006-01-06T14:08:10Z</time>
      </trkpt>
      <trkpt lat="45.856761932373047" lon="8.501186370849609">
        <ele>694.689697265625</ele>
        <time>2006-01-06T14:10:30Z</time>
      </trkpt>
      <trkpt lat="45.856869220733643" lon="8.501315116882324">
        <ele>691.3251953125</ele>
        <time>2006-01-06T14:10:36Z</time>
      </trkpt>
      <trkpt lat="45.85693359375" lon="8.501400947570801">
        <ele>690.844482421875</ele>
        <time>2006-01-06T14:10:38Z</time>
      </trkpt>
      <trkpt lat="45.857062339782715" lon="8.501551151275635">
        <ele>689.88330078125</ele>
        <time>2006-01-06T14:10:41Z</time>
      </trkpt>
      <trkpt lat="45.857276916503906" lon="8.501658439636231">
        <ele>688.44140625</ele>
        <time>2006-01-06T14:10:44Z</time>
      </trkpt>
      <trkpt lat="45.857534408569336" lon="8.502023220062256">
        <ele>685.557373046875</ele>
        <time>2006-01-06T14:10:49Z</time>
      </trkpt>
      <trkpt lat="45.857834815979004" lon="8.502581119537354">
        <ele>682.67333984375</ele>
        <time>2006-01-06T14:10:57Z</time>
      </trkpt>
      <trkpt lat="45.858092308044434" lon="8.503117561340332">
        <ele>680.27001953125</ele>
        <time>2006-01-06T14:11:07Z</time>
      </trkpt>
      <trkpt lat="45.858092308044434" lon="8.503332138061523">
        <ele>680.750732421875</ele>
        <time>2006-01-06T14:11:12Z</time>
      </trkpt>
      <trkpt lat="45.858027935028076" lon="8.50367546081543">
        <ele>678.828125</ele>
        <time>2006-01-06T14:11:21Z</time>
      </trkpt>
      <trkpt lat="45.857985019683838" lon="8.504040241241455">
        <ele>676.905517578125</ele>
        <time>2006-01-06T14:11:29Z</time>
      </trkpt>
      <trkpt lat="45.857985019683838" lon="8.504512310028076">
        <ele>673.060302734375</ele>
        <time>2006-01-06T14:11:38Z</time>
      </trkpt>
      <trkpt lat="45.858070850372314" lon="8.504962921142578">
        <ele>671.1376953125</ele>
        <time>2006-01-06T14:11:45Z</time>
      </trkpt>
      <trkpt lat="45.858285427093506" lon="8.505649566650391">
        <ele>668.734375</ele>
        <time>2006-01-06T14:11:55Z</time>
      </trkpt>
      <trkpt lat="45.858500003814697" lon="8.506207466125488">
        <ele>668.734375</ele>
        <time>2006-01-06T14:12:05Z</time>
      </trkpt>
      <trkpt lat="45.858757495880127" lon="8.506937026977539">
        <ele>668.734375</ele>
        <time>2006-01-06T14:12:18Z</time>
      </trkpt>
      <trkpt lat="45.858993530273438" lon="8.507473468780518">
        <ele>670.656982421875</ele>
        <time>2006-01-06T14:12:28Z</time>
      </trkpt>
      <trkpt lat="45.859336853027344" lon="8.5079026222229">
        <ele>670.17626953125</ele>
        <time>2006-01-06T14:12:39Z</time>
      </trkpt>
      <trkpt lat="45.859744548797607" lon="8.508288860321045">
        <ele>669.69580078125</ele>
        <time>2006-01-06T14:12:51Z</time>
      </trkpt>
      <trkpt lat="45.86017370223999" lon="8.508696556091309">
        <ele>670.17626953125</ele>
        <time>2006-01-06T14:13:04Z</time>
      </trkpt>
      <trkpt lat="45.860538482666016" lon="8.509039878845215">
        <ele>671.1376953125</ele>
        <time>2006-01-06T14:13:14Z</time>
      </trkpt>
      <trkpt lat="45.86068868637085" lon="8.509211540222168">
        <ele>672.098876953125</ele>
        <time>2006-01-06T14:13:19Z</time>
      </trkpt>
      <trkpt lat="45.86066722869873" lon="8.509340286254883">
        <ele>672.098876953125</ele>
        <time>2006-01-06T14:13:23Z</time>
      </trkpt>
    </trkseg>
  </trk>

</gpx>
